PWSweather.com
Personal Weather Stations
Station Observations
HVALPSUND
Hvalpsund, FarsoeDK 9640

HvalpsundFarsoeDK 9640

Lat: 56.705311, Lon: 9.203638

Elevation: 5

Station Type: Vantage Pro2

http://hvalpsundvejr.dk

Latest ConditionsUpdated 6:28:00 PM GMT+01:01 Tuesday, Mar 26, 2019
Currently Today's Max Today's Min Today's Average
Temperature 44.9°F7.2°C 45.6°F7.6°C 40.9°F4.9°C 43.1°F6.2°C
Dew Point 40.7°F4.8°C 40.7°F4.8°C 33.9°F1.1°C 36.8°F2.7°C
Winds 12.0 mph WNW19.3 kmh WNW 32.0 mph -51.5 kmh - - 19.0 mph 30.6 kmh
Wind Gusts 15.0 mph24.1 kmh 37.0 mph59.5 kmh - -
Humidity 85% 85% 73% 78%
Pressure 30.20 in1022.7 mb 30.20 in1022.7 mb 30.07 in1018.3 mb -
Hour Temp Dew Point Humidity Winds Wind Gusts Pressure Precip Precip Rate Daily Precip Total
06:28 PM 44.9°F7.2°C 40.7°F4.8°C 85% 12.0 mph WNW19.3 kmh WNW 15.0 mph24.1 kmh 30.20 in1022.7 mb 0.00 in0.0 mm 0.00 in0.0 mm 0.00 in0.0 mm
06:27 PM 44.8°F7.1°C 40.6°F4.8°C 85% 14.0 mph WNW22.5 kmh WNW 16.0 mph25.7 kmh 30.20 in1022.7 mb 0.00 in0.0 mm 0.00 in0.0 mm 0.00 in0.0 mm
06:26 PM 44.8°F7.1°C 40.6°F4.8°C 85% 15.0 mph WNW24.1 kmh WNW 17.0 mph27.4 kmh 30.20 in1022.7 mb 0.00 in0.0 mm 0.00 in0.0 mm 0.00 in0.0 mm
06:25 PM 44.8°F7.1°C 40.6°F4.8°C 85% 16.0 mph WNW25.7 kmh WNW 18.0 mph29.0 kmh 30.20 in1022.7 mb 0.00 in0.0 mm 0.00 in0.0 mm 0.00 in0.0 mm
06:24 PM 44.8°F7.1°C 40.6°F4.8°C 85% 14.0 mph WNW22.5 kmh WNW 17.0 mph27.4 kmh 30.20 in1022.7 mb 0.00 in0.0 mm 0.00 in0.0 mm 0.00 in0.0 mm
06:23 PM 44.7°F7.1°C 40.5°F4.7°C 85% 15.0 mph WNW24.1 kmh WNW 18.0 mph29.0 kmh 30.20 in1022.7 mb 0.00 in0.0 mm 0.00 in0.0 mm 0.00 in0.0 mm
06:22 PM 44.8°F7.1°C 40.6°F4.8°C 85% 15.0 mph WNW24.1 kmh WNW 17.0 mph27.4 kmh 30.20 in1022.7 mb 0.00 in0.0 mm 0.00 in0.0 mm 0.00 in0.0 mm
06:21 PM 44.8°F7.1°C 40.6°F4.8°C 85% 13.0 mph WNW20.9 kmh WNW 14.0 mph22.5 kmh 30.20 in1022.7 mb 0.00 in0.0 mm 0.00 in0.0 mm 0.00 in0.0 mm
06:20 PM 44.8°F7.1°C 40.6°F4.8°C 85% 13.0 mph WNW20.9 kmh WNW 14.0 mph22.5 kmh 30.20 in1022.7 mb 0.00 in0.0 mm 0.00 in0.0 mm 0.00 in0.0 mm
06:19 PM 44.8°F7.1°C 40.6°F4.8°C 85% 13.0 mph WNW20.9 kmh WNW 15.0 mph24.1 kmh 30.20 in1022.7 mb 0.00 in0.0 mm 0.00 in0.0 mm 0.00 in0.0 mm
06:18 PM 44.8°F7.1°C 40.6°F4.8°C 85% 14.0 mph WNW22.5 kmh WNW 17.0 mph27.4 kmh 30.20 in1022.7 mb 0.00 in0.0 mm 0.00 in0.0 mm 0.00 in0.0 mm
06:17 PM 44.9°F7.2°C 40.7°F4.8°C 85% 15.0 mph WNW24.1 kmh WNW 17.0 mph27.4 kmh 30.20 in1022.7 mb 0.00 in0.0 mm 0.00 in0.0 mm 0.00 in0.0 mm
06:16 PM 44.8°F7.1°C 40.6°F4.8°C 85% 16.0 mph WNW25.7 kmh WNW 18.0 mph29.0 kmh 30.20 in1022.7 mb 0.00 in0.0 mm 0.00 in0.0 mm 0.00 in0.0 mm
06:15 PM 44.7°F7.1°C 40.5°F4.7°C 85% 13.0 mph WNW20.9 kmh WNW 15.0 mph24.1 kmh 30.20 in1022.7 mb 0.00 in0.0 mm 0.00 in0.0 mm 0.00 in0.0 mm
06:14 PM 44.8°F7.1°C 40.6°F4.8°C 85% 14.0 mph WNW22.5 kmh WNW 17.0 mph27.4 kmh 30.20 in1022.7 mb 0.00 in0.0 mm 0.00 in0.0 mm 0.00 in0.0 mm
06:13 PM 44.8°F7.1°C 40.6°F4.8°C 85% 15.0 mph WNW24.1 kmh WNW 17.0 mph27.4 kmh 30.20 in1022.7 mb 0.00 in0.0 mm 0.00 in0.0 mm 0.00 in0.0 mm
06:12 PM 44.8°F7.1°C 40.6°F4.8°C 85% 14.0 mph WNW22.5 kmh WNW 17.0 mph27.4 kmh 30.20 in1022.7 mb 0.00 in0.0 mm 0.00 in0.0 mm 0.00 in0.0 mm
06:11 PM 44.8°F7.1°C 40.6°F4.8°C 85% 15.0 mph WNW24.1 kmh WNW 16.0 mph25.7 kmh 30.20 in1022.7 mb 0.00 in0.0 mm 0.00 in0.0 mm 0.00 in0.0 mm
06:10 PM 44.9°F7.2°C 40.7°F4.8°C 85% 14.0 mph WNW22.5 kmh WNW 17.0 mph27.4 kmh 30.20 in1022.7 mb 0.00 in0.0 mm 0.00 in0.0 mm 0.00 in0.0 mm
06:09 PM 44.8°F7.1°C 40.3°F4.6°C 84% 15.0 mph WNW24.1 kmh WNW 18.0 mph29.0 kmh 30.20 in1022.7 mb 0.00 in0.0 mm 0.00 in0.0 mm 0.00 in0.0 mm
06:08 PM 44.9°F7.2°C 40.4°F4.7°C 84% 16.0 mph WNW25.7 kmh WNW 18.0 mph29.0 kmh 30.20 in1022.7 mb 0.00 in0.0 mm 0.00 in0.0 mm 0.00 in0.0 mm
06:07 PM 44.9°F7.2°C 40.4°F4.7°C 84% 14.0 mph WNW22.5 kmh WNW 15.0 mph24.1 kmh 30.20 in1022.7 mb 0.00 in0.0 mm 0.00 in0.0 mm 0.00 in0.0 mm
06:06 PM 44.9°F7.2°C 40.4°F4.7°C 84% 15.0 mph WNW24.1 kmh WNW 17.0 mph27.4 kmh 30.20 in1022.7 mb 0.00 in0.0 mm 0.00 in0.0 mm 0.00 in0.0 mm
06:05 PM 44.9°F7.2°C 40.4°F4.7°C 84% 14.0 mph WNW22.5 kmh WNW 17.0 mph27.4 kmh 30.20 in1022.7 mb 0.00 in0.0 mm 0.00 in0.0 mm 0.00 in0.0 mm
06:04 PM 44.9°F7.2°C 40.4°F4.7°C 84% 14.0 mph WNW22.5 kmh WNW 16.0 mph25.7 kmh 30.20 in1022.7 mb 0.00 in0.0 mm 0.00 in0.0 mm 0.00 in0.0 mm
06:03 PM 44.9°F7.2°C 40.4°F4.7°C 84% 12.0 mph WNW19.3 kmh WNW 13.0 mph20.9 kmh 30.20 in1022.7 mb 0.00 in0.0 mm 0.00 in0.0 mm 0.00 in0.0 mm
06:02 PM 44.9°F7.2°C 40.4°F4.7°C 84% 12.0 mph WNW19.3 kmh WNW 14.0 mph22.5 kmh 30.20 in1022.7 mb 0.00 in0.0 mm 0.00 in0.0 mm 0.00 in0.0 mm
06:01 PM 44.9°F7.2°C 40.4°F4.7°C 84% 14.0 mph WNW22.5 kmh WNW 16.0 mph25.7 kmh 30.20 in1022.7 mb 0.00 in0.0 mm 0.00 in0.0 mm 0.00 in0.0 mm
06:00 PM 44.9°F7.2°C 40.4°F4.7°C 84% 14.0 mph WNW22.5 kmh WNW 16.0 mph25.7 kmh 30.20 in1022.7 mb 0.00 in0.0 mm 0.00 in0.0 mm 0.00 in0.0 mm
05:59 PM 44.9°F7.2°C 40.4°F4.7°C 84% 13.0 mph WNW20.9 kmh WNW 14.0 mph22.5 kmh 30.20 in1022.7 mb 0.00 in0.0 mm 0.00 in0.0 mm 0.00 in0.0 mm
05:58 PM 44.9°F7.2°C 40.4°F4.7°C 84% 12.0 mph WNW19.3 kmh WNW 14.0 mph22.5 kmh 30.20 in1022.7 mb 0.00 in0.0 mm 0.00 in0.0 mm 0.00 in0.0 mm
05:57 PM 44.9°F7.2°C 40.4°F4.7°C 84% 14.0 mph WNW22.5 kmh WNW 15.0 mph24.1 kmh 30.20 in1022.7 mb 0.00 in0.0 mm 0.00 in0.0 mm 0.00 in0.0 mm
05:56 PM 44.9°F7.2°C 40.4°F4.7°C 84% 15.0 mph WNW24.1 kmh WNW 17.0 mph27.4 kmh 30.20 in1022.7 mb 0.00 in0.0 mm 0.00 in0.0 mm 0.00 in0.0 mm
05:55 PM 44.9°F7.2°C 40.4°F4.7°C 84% 16.0 mph WNW25.7 kmh WNW 17.0 mph27.4 kmh 30.20 in1022.7 mb 0.00 in0.0 mm 0.00 in0.0 mm 0.00 in0.0 mm
05:54 PM 44.9°F7.2°C 40.4°F4.7°C 84% 16.0 mph W25.7 kmh W 17.0 mph27.4 kmh 30.20 in1022.7 mb 0.00 in0.0 mm 0.00 in0.0 mm 0.00 in0.0 mm
05:53 PM 44.9°F7.2°C 40.4°F4.7°C 84% 16.0 mph WNW25.7 kmh WNW 18.0 mph29.0 kmh 30.20 in1022.7 mb 0.00 in0.0 mm 0.00 in0.0 mm 0.00 in0.0 mm
05:52 PM 44.9°F7.2°C 40.1°F4.5°C 83% 16.0 mph WNW25.7 kmh WNW 18.0 mph29.0 kmh 30.20 in1022.7 mb 0.00 in0.0 mm 0.00 in0.0 mm 0.00 in0.0 mm
05:51 PM 44.9°F7.2°C 40.1°F4.5°C 83% 17.0 mph WNW27.4 kmh WNW 19.0 mph30.6 kmh 30.20 in1022.7 mb 0.00 in0.0 mm 0.00 in0.0 mm 0.00 in0.0 mm
05:50 PM 44.9°F7.2°C 40.1°F4.5°C 83% 17.0 mph WNW27.4 kmh WNW 19.0 mph30.6 kmh 30.20 in1022.7 mb 0.00 in0.0 mm 0.00 in0.0 mm 0.00 in0.0 mm
05:49 PM 45.0°F7.2°C 40.2°F4.6°C 83% 18.0 mph WNW29.0 kmh WNW 20.0 mph32.2 kmh 30.20 in1022.7 mb 0.00 in0.0 mm 0.00 in0.0 mm 0.00 in0.0 mm
05:48 PM 45.0°F7.2°C 40.2°F4.6°C 83% 16.0 mph WNW25.7 kmh WNW 18.0 mph29.0 kmh 30.20 in1022.7 mb 0.00 in0.0 mm 0.00 in0.0 mm 0.00 in0.0 mm
05:47 PM 45.0°F7.2°C 40.2°F4.6°C 83% 15.0 mph WNW24.1 kmh WNW 17.0 mph27.4 kmh 30.20 in1022.7 mb 0.00 in0.0 mm 0.00 in0.0 mm 0.00 in0.0 mm
05:46 PM 45.0°F7.2°C 40.2°F4.6°C 83% 17.0 mph WNW27.4 kmh WNW 19.0 mph30.6 kmh 30.20 in1022.7 mb 0.00 in0.0 mm 0.00 in0.0 mm 0.00 in0.0 mm
05:45 PM 44.9°F7.2°C 40.1°F4.5°C 83% 16.0 mph WNW25.7 kmh WNW 18.0 mph29.0 kmh 30.20 in1022.7 mb 0.00 in0.0 mm 0.00 in0.0 mm 0.00 in0.0 mm
05:44 PM 45.0°F7.2°C 40.2°F4.6°C 83% 15.0 mph WNW24.1 kmh WNW 18.0 mph29.0 kmh 30.20 in1022.7 mb 0.00 in0.0 mm 0.00 in0.0 mm 0.00 in0.0 mm
05:43 PM 45.0°F7.2°C 40.2°F4.6°C 83% 17.0 mph WNW27.4 kmh WNW 19.0 mph30.6 kmh 30.20 in1022.7 mb 0.00 in0.0 mm 0.00 in0.0 mm 0.00 in0.0 mm
05:42 PM 45.0°F7.2°C 40.2°F4.6°C 83% 18.0 mph WNW29.0 kmh WNW 20.0 mph32.2 kmh 30.20 in1022.7 mb 0.00 in0.0 mm 0.00 in0.0 mm 0.00 in0.0 mm
05:41 PM 45.1°F7.3°C 40.3°F4.6°C 83% 16.0 mph WNW25.7 kmh WNW 19.0 mph30.6 kmh 30.20 in1022.7 mb 0.00 in0.0 mm 0.00 in0.0 mm 0.00 in0.0 mm
05:40 PM 45.1°F7.3°C 40.3°F4.6°C 83% 14.0 mph WNW22.5 kmh WNW 16.0 mph25.7 kmh 30.20 in1022.7 mb 0.00 in0.0 mm 0.00 in0.0 mm 0.00 in0.0 mm
05:39 PM 45.1°F7.3°C 40.3°F4.6°C 83% 15.0 mph WNW24.1 kmh WNW 16.0 mph25.7 kmh 30.20 in1022.7 mb 0.00 in0.0 mm 0.00 in0.0 mm 0.00 in0.0 mm
05:38 PM 45.1°F7.3°C 40.3°F4.6°C 83% 15.0 mph WNW24.1 kmh WNW 17.0 mph27.4 kmh 30.20 in1022.7 mb 0.00 in0.0 mm 0.00 in0.0 mm 0.00 in0.0 mm
05:37 PM 45.1°F7.3°C 40.3°F4.6°C 83% 16.0 mph WNW25.7 kmh WNW 19.0 mph30.6 kmh 30.20 in1022.7 mb 0.00 in0.0 mm 0.00 in0.0 mm 0.00 in0.0 mm
05:36 PM 45.1°F7.3°C 39.9°F4.4°C 82% 17.0 mph W27.4 kmh W 20.0 mph32.2 kmh 30.20 in1022.7 mb 0.00 in0.0 mm 0.00 in0.0 mm 0.00 in0.0 mm
05:35 PM 45.2°F7.3°C 40.0°F4.4°C 82% 17.0 mph WNW27.4 kmh WNW 19.0 mph30.6 kmh 30.20 in1022.7 mb 0.00 in0.0 mm 0.00 in0.0 mm 0.00 in0.0 mm
05:34 PM 45.2°F7.3°C 40.0°F4.4°C 82% 16.0 mph WNW25.7 kmh WNW 19.0 mph30.6 kmh 30.20 in1022.7 mb 0.00 in0.0 mm 0.00 in0.0 mm 0.00 in0.0 mm
05:33 PM 45.2°F7.3°C 40.0°F4.4°C 82% 19.0 mph WNW30.6 kmh WNW 21.0 mph33.8 kmh 30.20 in1022.7 mb 0.00 in0.0 mm 0.00 in0.0 mm 0.00 in0.0 mm
05:32 PM 45.3°F7.4°C 40.1°F4.5°C 82% 16.0 mph WNW25.7 kmh WNW 18.0 mph29.0 kmh 30.20 in1022.7 mb 0.00 in0.0 mm 0.00 in0.0 mm 0.00 in0.0 mm
05:31 PM 45.4°F7.4°C 40.2°F4.6°C 82% 15.0 mph WNW24.1 kmh WNW 17.0 mph27.4 kmh 30.20 in1022.7 mb 0.00 in0.0 mm 0.00 in0.0 mm 0.00 in0.0 mm
05:30 PM 45.4°F7.4°C 40.2°F4.6°C 82% 13.0 mph WNW20.9 kmh WNW 16.0 mph25.7 kmh 30.20 in1022.7 mb 0.00 in0.0 mm 0.00 in0.0 mm 0.00 in0.0 mm
05:29 PM 45.4°F7.4°C 40.2°F4.6°C 82% 15.0 mph WNW24.1 kmh WNW 18.0 mph29.0 kmh 30.20 in1022.7 mb 0.00 in0.0 mm 0.00 in0.0 mm 0.00 in0.0 mm
05:28 PM 45.4°F7.4°C 40.2°F4.6°C 82% 17.0 mph WNW27.4 kmh WNW 21.0 mph33.8 kmh 30.20 in1022.7 mb 0.00 in0.0 mm 0.00 in0.0 mm 0.00 in0.0 mm
05:27 PM 45.5°F7.5°C 40.3°F4.6°C 82% 15.0 mph WNW24.1 kmh WNW 17.0 mph27.4 kmh 30.20 in1022.7 mb 0.00 in0.0 mm 0.00 in0.0 mm 0.00 in0.0 mm
05:26 PM 45.4°F7.4°C 40.2°F4.6°C 82% 16.0 mph WNW25.7 kmh WNW 18.0 mph29.0 kmh 30.20 in1022.7 mb 0.00 in0.0 mm 0.00 in0.0 mm 0.00 in0.0 mm
05:25 PM 45.5°F7.5°C 40.3°F4.6°C 82% 14.0 mph WNW22.5 kmh WNW 16.0 mph25.7 kmh 30.20 in1022.7 mb 0.00 in0.0 mm 0.00 in0.0 mm 0.00 in0.0 mm
05:24 PM 45.5°F7.5°C 40.3°F4.6°C 82% 15.0 mph WNW24.1 kmh WNW 17.0 mph27.4 kmh 30.20 in1022.7 mb 0.00 in0.0 mm 0.00 in0.0 mm 0.00 in0.0 mm
05:23 PM 45.4°F7.4°C 40.2°F4.6°C 82% 17.0 mph WNW27.4 kmh WNW 18.0 mph29.0 kmh 30.20 in1022.7 mb 0.00 in0.0 mm 0.00 in0.0 mm 0.00 in0.0 mm
05:22 PM 45.4°F7.4°C 40.5°F4.7°C 83% 14.0 mph WNW22.5 kmh WNW 16.0 mph25.7 kmh 30.20 in1022.7 mb 0.00 in0.0 mm 0.00 in0.0 mm 0.00 in0.0 mm
05:21 PM 45.4°F7.4°C 40.5°F4.7°C 83% 11.0 mph W17.7 kmh W 13.0 mph20.9 kmh 30.20 in1022.7 mb 0.00 in0.0 mm 0.00 in0.0 mm 0.00 in0.0 mm
05:20 PM 45.3°F7.4°C 40.4°F4.7°C 83% 13.0 mph WNW20.9 kmh WNW 16.0 mph25.7 kmh 30.20 in1022.7 mb 0.00 in0.0 mm 0.00 in0.0 mm 0.00 in0.0 mm
05:19 PM 45.2°F7.3°C 40.3°F4.6°C 83% 14.0 mph WNW22.5 kmh WNW 18.0 mph29.0 kmh 30.20 in1022.7 mb 0.00 in0.0 mm 0.00 in0.0 mm 0.00 in0.0 mm
05:18 PM 45.2°F7.3°C 40.3°F4.6°C 83% 12.0 mph WNW19.3 kmh WNW 14.0 mph22.5 kmh 30.20 in1022.7 mb 0.00 in0.0 mm 0.00 in0.0 mm 0.00 in0.0 mm
05:17 PM 45.1°F7.3°C 40.3°F4.6°C 83% 11.0 mph NW17.7 kmh NW 14.0 mph22.5 kmh 30.20 in1022.7 mb 0.00 in0.0 mm 0.00 in0.0 mm 0.00 in0.0 mm
05:16 PM 45.1°F7.3°C 40.3°F4.6°C 83% 11.0 mph NW17.7 kmh NW 12.0 mph19.3 kmh 30.20 in1022.7 mb 0.00 in0.0 mm 0.00 in0.0 mm 0.00 in0.0 mm
05:15 PM 45.1°F7.3°C 40.3°F4.6°C 83% 10.0 mph NW16.1 kmh NW 12.0 mph19.3 kmh 30.20 in1022.7 mb 0.00 in0.0 mm 0.00 in0.0 mm 0.00 in0.0 mm
05:14 PM 45.1°F7.3°C 40.3°F4.6°C 83% 10.0 mph NW16.1 kmh NW 11.0 mph17.7 kmh 30.19 in1022.4 mb 0.00 in0.0 mm 0.00 in0.0 mm 0.00 in0.0 mm
05:13 PM 45.1°F7.3°C 40.3°F4.6°C 83% 12.0 mph NW19.3 kmh NW 13.0 mph20.9 kmh 30.19 in1022.4 mb 0.00 in0.0 mm 0.00 in0.0 mm 0.00 in0.0 mm
05:12 PM 45.1°F7.3°C 40.3°F4.6°C 83% 11.0 mph NW17.7 kmh NW 12.0 mph19.3 kmh 30.19 in1022.4 mb 0.00 in0.0 mm 0.00 in0.0 mm 0.00 in0.0 mm
05:11 PM 45.1°F7.3°C 40.3°F4.6°C 83% 11.0 mph NW17.7 kmh NW 13.0 mph20.9 kmh 30.19 in1022.4 mb 0.00 in0.0 mm 0.00 in0.0 mm 0.00 in0.0 mm
05:10 PM 45.1°F7.3°C 40.3°F4.6°C 83% 11.0 mph NW17.7 kmh NW 12.0 mph19.3 kmh 30.19 in1022.4 mb 0.00 in0.0 mm 0.00 in0.0 mm 0.00 in0.0 mm
05:09 PM 45.1°F7.3°C 40.3°F4.6°C 83% 12.0 mph NW19.3 kmh NW 13.0 mph20.9 kmh 30.19 in1022.4 mb 0.00 in0.0 mm 0.00 in0.0 mm 0.00 in0.0 mm
05:08 PM 45.1°F7.3°C 39.9°F4.4°C 82% 12.0 mph NW19.3 kmh NW 14.0 mph22.5 kmh 30.19 in1022.4 mb 0.00 in0.0 mm 0.00 in0.0 mm 0.00 in0.0 mm
05:07 PM 45.1°F7.3°C 39.9°F4.4°C 82% 13.0 mph NW20.9 kmh NW 15.0 mph24.1 kmh 30.19 in1022.4 mb 0.00 in0.0 mm 0.00 in0.0 mm 0.00 in0.0 mm
05:06 PM 45.1°F7.3°C 39.9°F4.4°C 82% 12.0 mph NW19.3 kmh NW 13.0 mph20.9 kmh 30.19 in1022.4 mb 0.00 in0.0 mm 0.00 in0.0 mm 0.00 in0.0 mm
05:05 PM 45.0°F7.2°C 39.8°F4.3°C 82% 13.0 mph NW20.9 kmh NW 14.0 mph22.5 kmh 30.19 in1022.4 mb 0.00 in0.0 mm 0.00 in0.0 mm 0.00 in0.0 mm
05:04 PM 45.0°F7.2°C 39.8°F4.3°C 82% 13.0 mph NW20.9 kmh NW 15.0 mph24.1 kmh 30.19 in1022.4 mb 0.00 in0.0 mm 0.00 in0.0 mm 0.00 in0.0 mm
05:03 PM 45.1°F7.3°C 39.9°F4.4°C 82% 13.0 mph NW20.9 kmh NW 14.0 mph22.5 kmh 30.19 in1022.4 mb 0.00 in0.0 mm 0.00 in0.0 mm 0.00 in0.0 mm
05:02 PM 45.0°F7.2°C 39.8°F4.3°C 82% 12.0 mph NW19.3 kmh NW 13.0 mph20.9 kmh 30.19 in1022.4 mb 0.00 in0.0 mm 0.00 in0.0 mm 0.00 in0.0 mm
05:01 PM 45.0°F7.2°C 39.8°F4.3°C 82% 13.0 mph NW20.9 kmh NW 15.0 mph24.1 kmh 30.19 in1022.4 mb 0.00 in0.0 mm 0.00 in0.0 mm 0.00 in0.0 mm
05:00 PM 45.0°F7.2°C 39.8°F4.3°C 82% 14.0 mph NW22.5 kmh NW 16.0 mph25.7 kmh 30.19 in1022.4 mb 0.00 in0.0 mm 0.00 in0.0 mm 0.00 in0.0 mm
04:59 PM 45.0°F7.2°C 39.8°F4.3°C 82% 14.0 mph NW22.5 kmh NW 17.0 mph27.4 kmh 30.19 in1022.4 mb 0.00 in0.0 mm 0.00 in0.0 mm 0.00 in0.0 mm
04:58 PM 45.1°F7.3°C 39.9°F4.4°C 82% 13.0 mph NW20.9 kmh NW 15.0 mph24.1 kmh 30.19 in1022.4 mb 0.00 in0.0 mm 0.00 in0.0 mm 0.00 in0.0 mm
04:57 PM 45.0°F7.2°C 39.8°F4.3°C 82% 13.0 mph NW20.9 kmh NW 15.0 mph24.1 kmh 30.19 in1022.4 mb 0.00 in0.0 mm 0.00 in0.0 mm 0.00 in0.0 mm
04:56 PM 45.1°F7.3°C 39.9°F4.4°C 82% 13.0 mph NW20.9 kmh NW 15.0 mph24.1 kmh 30.19 in1022.4 mb 0.00 in0.0 mm 0.00 in0.0 mm 0.00 in0.0 mm
04:55 PM 45.1°F7.3°C 39.9°F4.4°C 82% 13.0 mph NW20.9 kmh NW 16.0 mph25.7 kmh 30.19 in1022.4 mb 0.00 in0.0 mm 0.00 in0.0 mm 0.00 in0.0 mm
04:54 PM 45.0°F7.2°C 39.5°F4.2°C 81% 14.0 mph NW22.5 kmh NW 16.0 mph25.7 kmh 30.19 in1022.4 mb 0.00 in0.0 mm 0.00 in0.0 mm 0.00 in0.0 mm
04:53 PM 45.1°F7.3°C 39.6°F4.2°C 81% 12.0 mph NW19.3 kmh NW 14.0 mph22.5 kmh 30.19 in1022.4 mb 0.00 in0.0 mm 0.00 in0.0 mm 0.00 in0.0 mm
04:52 PM 45.0°F7.2°C 39.5°F4.2°C 81% 14.0 mph NW22.5 kmh NW 15.0 mph24.1 kmh 30.19 in1022.4 mb 0.00 in0.0 mm 0.00 in0.0 mm 0.00 in0.0 mm
04:51 PM 45.1°F7.3°C 39.6°F4.2°C 81% 14.0 mph NW22.5 kmh NW 16.0 mph25.7 kmh 30.19 in1022.4 mb 0.00 in0.0 mm 0.00 in0.0 mm 0.00 in0.0 mm
04:50 PM 45.0°F7.2°C 39.5°F4.2°C 81% 14.0 mph NW22.5 kmh NW 16.0 mph25.7 kmh 30.19 in1022.4 mb 0.00 in0.0 mm 0.00 in0.0 mm 0.00 in0.0 mm
04:49 PM 45.1°F7.3°C 39.6°F4.2°C 81% 13.0 mph NW20.9 kmh NW 14.0 mph22.5 kmh 30.19 in1022.4 mb 0.00 in0.0 mm 0.00 in0.0 mm 0.00 in0.0 mm
04:48 PM 45.1°F7.3°C 39.6°F4.2°C 81% 13.0 mph NW20.9 kmh NW 14.0 mph22.5 kmh 30.19 in1022.4 mb 0.00 in0.0 mm 0.00 in0.0 mm 0.00 in0.0 mm
04:47 PM 45.1°F7.3°C 39.3°F4.1°C 80% 12.0 mph NW19.3 kmh NW 14.0 mph22.5 kmh 30.19 in1022.4 mb 0.00 in0.0 mm 0.00 in0.0 mm 0.00 in0.0 mm
04:46 PM 45.0°F7.2°C 39.5°F4.2°C 81% 13.0 mph NW20.9 kmh NW 14.0 mph22.5 kmh 30.19 in1022.4 mb 0.00 in0.0 mm 0.00 in0.0 mm 0.00 in0.0 mm
04:45 PM 45.0°F7.2°C 39.2°F4.0°C 80% 13.0 mph NW20.9 kmh NW 14.0 mph22.5 kmh 30.19 in1022.4 mb 0.00 in0.0 mm 0.00 in0.0 mm 0.00 in0.0 mm
04:44 PM 45.0°F7.2°C 39.2°F4.0°C 80% 13.0 mph NW20.9 kmh NW 14.0 mph22.5 kmh 30.19 in1022.4 mb 0.00 in0.0 mm 0.00 in0.0 mm 0.00 in0.0 mm
04:43 PM 45.1°F7.3°C 39.3°F4.1°C 80% 12.0 mph NW19.3 kmh NW 14.0 mph22.5 kmh 30.19 in1022.4 mb 0.00 in0.0 mm 0.00 in0.0 mm 0.00 in0.0 mm
04:42 PM 45.1°F7.3°C 39.3°F4.1°C 80% 14.0 mph NW22.5 kmh NW 15.0 mph24.1 kmh 30.19 in1022.4 mb 0.00 in0.0 mm 0.00 in0.0 mm 0.00 in0.0 mm
04:41 PM 45.1°F7.3°C 39.0°F3.9°C 79% 13.0 mph NW20.9 kmh NW 15.0 mph24.1 kmh 30.19 in1022.4 mb 0.00 in0.0 mm 0.00 in0.0 mm 0.00 in0.0 mm
04:40 PM 45.1°F7.3°C 39.0°F3.9°C 79% 12.0 mph NW19.3 kmh NW 14.0 mph22.5 kmh 30.19 in1022.4 mb 0.00 in0.0 mm 0.00 in0.0 mm 0.00 in0.0 mm
04:39 PM 45.1°F7.3°C 39.0°F3.9°C 79% 12.0 mph NW19.3 kmh NW 13.0 mph20.9 kmh 30.19 in1022.4 mb 0.00 in0.0 mm 0.00 in0.0 mm 0.00 in0.0 mm
04:38 PM 45.1°F7.3°C 39.0°F3.9°C 79% 13.0 mph NW20.9 kmh NW 14.0 mph22.5 kmh 30.19 in1022.4 mb 0.00 in0.0 mm 0.00 in0.0 mm 0.00 in0.0 mm
04:37 PM 45.1°F7.3°C 39.0°F3.9°C 79% 11.0 mph NW17.7 kmh NW 13.0 mph20.9 kmh 30.19 in1022.4 mb 0.00 in0.0 mm 0.00 in0.0 mm 0.00 in0.0 mm
04:36 PM 45.1°F7.3°C 38.7°F3.7°C 78% 12.0 mph NW19.3 kmh NW 14.0 mph22.5 kmh 30.19 in1022.4 mb 0.00 in0.0 mm 0.00 in0.0 mm 0.00 in0.0 mm
04:35 PM 45.1°F7.3°C 38.7°F3.7°C 78% 14.0 mph NW22.5 kmh NW 15.0 mph24.1 kmh 30.19 in1022.4 mb 0.00 in0.0 mm 0.00 in0.0 mm 0.00 in0.0 mm
04:34 PM 45.1°F7.3°C 38.7°F3.7°C 78% 14.0 mph NW22.5 kmh NW 15.0 mph24.1 kmh 30.19 in1022.4 mb 0.00 in0.0 mm 0.00 in0.0 mm 0.00 in0.0 mm
04:33 PM 45.1°F7.3°C 38.7°F3.7°C 78% 14.0 mph NW22.5 kmh NW 16.0 mph25.7 kmh 30.19 in1022.4 mb 0.00 in0.0 mm 0.00 in0.0 mm 0.00 in0.0 mm
04:32 PM 45.1°F7.3°C 38.7°F3.7°C 78% 14.0 mph NW22.5 kmh NW 16.0 mph25.7 kmh 30.19 in1022.4 mb 0.00 in0.0 mm 0.00 in0.0 mm 0.00 in0.0 mm
04:31 PM 45.2°F7.3°C 39.1°F3.9°C 79% 13.0 mph NW20.9 kmh NW 14.0 mph22.5 kmh 30.19 in1022.4 mb 0.00 in0.0 mm 0.00 in0.0 mm 0.00 in0.0 mm
04:30 PM 45.1°F7.3°C 38.7°F3.7°C 78% 14.0 mph NW22.5 kmh NW 15.0 mph24.1 kmh 30.19 in1022.4 mb 0.00 in0.0 mm 0.00 in0.0 mm 0.00 in0.0 mm
04:29 PM 45.2°F7.3°C 38.8°F3.8°C 78% 14.0 mph NW22.5 kmh NW 16.0 mph25.7 kmh 30.19 in1022.4 mb 0.00 in0.0 mm 0.00 in0.0 mm 0.00 in0.0 mm
04:28 PM 45.2°F7.3°C 38.8°F3.8°C 78% 12.0 mph NW19.3 kmh NW 14.0 mph22.5 kmh 30.19 in1022.4 mb 0.00 in0.0 mm 0.00 in0.0 mm 0.00 in0.0 mm
04:27 PM 45.2°F7.3°C 38.8°F3.8°C 78% 12.0 mph NW19.3 kmh NW 15.0 mph24.1 kmh 30.19 in1022.4 mb 0.00 in0.0 mm 0.00 in0.0 mm 0.00 in0.0 mm
04:26 PM 45.3°F7.4°C 38.9°F3.8°C 78% 12.0 mph NW19.3 kmh NW 14.0 mph22.5 kmh 30.19 in1022.4 mb 0.00 in0.0 mm 0.00 in0.0 mm 0.00 in0.0 mm
04:25 PM 45.3°F7.4°C 38.9°F3.8°C 78% 14.0 mph NW22.5 kmh NW 16.0 mph25.7 kmh 30.19 in1022.4 mb 0.00 in0.0 mm 0.00 in0.0 mm 0.00 in0.0 mm
04:24 PM 45.3°F7.4°C 38.5°F3.6°C 77% 14.0 mph NW22.5 kmh NW 15.0 mph24.1 kmh 30.19 in1022.4 mb 0.00 in0.0 mm 0.00 in0.0 mm 0.00 in0.0 mm
04:23 PM 45.2°F7.3°C 38.1°F3.4°C 76% 12.0 mph NW19.3 kmh NW 13.0 mph20.9 kmh 30.19 in1022.4 mb 0.00 in0.0 mm 0.00 in0.0 mm 0.00 in0.0 mm
04:22 PM 45.2°F7.3°C 38.1°F3.4°C 76% 14.0 mph NW22.5 kmh NW 15.0 mph24.1 kmh 30.19 in1022.4 mb 0.00 in0.0 mm 0.00 in0.0 mm 0.00 in0.0 mm
04:21 PM 45.2°F7.3°C 38.1°F3.4°C 76% 13.0 mph NW20.9 kmh NW 14.0 mph22.5 kmh 30.19 in1022.4 mb 0.00 in0.0 mm 0.00 in0.0 mm 0.00 in0.0 mm
04:20 PM 45.2°F7.3°C 37.8°F3.2°C 75% 14.0 mph NW22.5 kmh NW 15.0 mph24.1 kmh 30.19 in1022.4 mb 0.00 in0.0 mm 0.00 in0.0 mm 0.00 in0.0 mm
04:19 PM 45.2°F7.3°C 37.8°F3.2°C 75% 15.0 mph NW24.1 kmh NW 16.0 mph25.7 kmh 30.19 in1022.4 mb 0.00 in0.0 mm 0.00 in0.0 mm 0.00 in0.0 mm
04:18 PM 45.2°F7.3°C 38.1°F3.4°C 76% 15.0 mph NW24.1 kmh NW 16.0 mph25.7 kmh 30.19 in1022.4 mb 0.00 in0.0 mm 0.00 in0.0 mm 0.00 in0.0 mm
04:17 PM 45.2°F7.3°C 37.8°F3.2°C 75% 14.0 mph NW22.5 kmh NW 16.0 mph25.7 kmh 30.19 in1022.4 mb 0.00 in0.0 mm 0.00 in0.0 mm 0.00 in0.0 mm
04:16 PM 45.2°F7.3°C 37.8°F3.2°C 75% 15.0 mph NW24.1 kmh NW 17.0 mph27.4 kmh 30.19 in1022.4 mb 0.00 in0.0 mm 0.00 in0.0 mm 0.00 in0.0 mm
04:15 PM 45.2°F7.3°C 37.4°F3.0°C 74% 15.0 mph NW24.1 kmh NW 16.0 mph25.7 kmh 30.19 in1022.4 mb 0.00 in0.0 mm 0.00 in0.0 mm 0.00 in0.0 mm
04:14 PM 45.1°F7.3°C 37.3°F2.9°C 74% 14.0 mph NW22.5 kmh NW 15.0 mph24.1 kmh 30.19 in1022.4 mb 0.00 in0.0 mm 0.00 in0.0 mm 0.00 in0.0 mm
04:13 PM 45.0°F7.2°C 37.2°F2.9°C 74% 15.0 mph NW24.1 kmh NW 17.0 mph27.4 kmh 30.19 in1022.4 mb 0.00 in0.0 mm 0.00 in0.0 mm 0.00 in0.0 mm
04:12 PM 45.0°F7.2°C 37.6°F3.1°C 75% 15.0 mph NW24.1 kmh NW 17.0 mph27.4 kmh 30.19 in1022.4 mb 0.00 in0.0 mm 0.00 in0.0 mm 0.00 in0.0 mm
04:11 PM 45.0°F7.2°C 37.6°F3.1°C 75% 14.0 mph NW22.5 kmh NW 16.0 mph25.7 kmh 30.18 in1022.0 mb 0.00 in0.0 mm 0.00 in0.0 mm 0.00 in0.0 mm
04:10 PM 44.9°F7.2°C 37.5°F3.1°C 75% 15.0 mph NW24.1 kmh NW 16.0 mph25.7 kmh 30.19 in1022.4 mb 0.00 in0.0 mm 0.00 in0.0 mm 0.00 in0.0 mm
04:09 PM 44.8°F7.1°C 37.4°F3.0°C 75% 15.0 mph NW24.1 kmh NW 16.0 mph25.7 kmh 30.19 in1022.4 mb 0.00 in0.0 mm 0.00 in0.0 mm 0.00 in0.0 mm
04:08 PM 44.8°F7.1°C 38.0°F3.3°C 77% 13.0 mph NW20.9 kmh NW 15.0 mph24.1 kmh 30.19 in1022.4 mb 0.00 in0.0 mm 0.00 in0.0 mm 0.00 in0.0 mm
04:07 PM 44.7°F7.1°C 38.3°F3.5°C 78% 11.0 mph NW17.7 kmh NW 12.0 mph19.3 kmh 30.18 in1022.0 mb 0.00 in0.0 mm 0.00 in0.0 mm 0.00 in0.0 mm
04:06 PM 44.7°F7.1°C 38.6°F3.7°C 79% 11.0 mph NW17.7 kmh NW 13.0 mph20.9 kmh 30.19 in1022.4 mb 0.00 in0.0 mm 0.00 in0.0 mm 0.00 in0.0 mm
04:05 PM 44.8°F7.1°C 38.4°F3.6°C 78% 8.0 mph NNW12.9 kmh NNW 9.0 mph14.5 kmh 30.18 in1022.0 mb 0.00 in0.0 mm 0.00 in0.0 mm 0.00 in0.0 mm
04:04 PM 44.8°F7.1°C 38.7°F3.7°C 79% 8.0 mph NNW12.9 kmh NNW 9.0 mph14.5 kmh 30.18 in1022.0 mb 0.00 in0.0 mm 0.00 in0.0 mm 0.00 in0.0 mm
04:03 PM 44.9°F7.2°C 38.5°F3.6°C 78% 9.0 mph NNW14.5 kmh NNW 10.0 mph16.1 kmh 30.18 in1022.0 mb 0.00 in0.0 mm 0.00 in0.0 mm 0.00 in0.0 mm
04:02 PM 44.9°F7.2°C 38.5°F3.6°C 78% 8.0 mph NW12.9 kmh NW 9.0 mph14.5 kmh 30.18 in1022.0 mb 0.00 in0.0 mm 0.00 in0.0 mm 0.00 in0.0 mm
04:01 PM 45.1°F7.3°C 38.7°F3.7°C 78% 9.0 mph NW14.5 kmh NW 9.0 mph14.5 kmh 30.18 in1022.0 mb 0.00 in0.0 mm 0.00 in0.0 mm 0.00 in0.0 mm
04:00 PM 45.1°F7.3°C 38.7°F3.7°C 78% 9.0 mph NNW14.5 kmh NNW 10.0 mph16.1 kmh 30.18 in1022.0 mb 0.00 in0.0 mm 0.00 in0.0 mm 0.00 in0.0 mm
03:59 PM 45.3°F7.4°C 38.5°F3.6°C 77% 9.0 mph NNW14.5 kmh NNW 10.0 mph16.1 kmh 30.18 in1022.0 mb 0.00 in0.0 mm 0.00 in0.0 mm 0.00 in0.0 mm
03:58 PM 45.3°F7.4°C 38.5°F3.6°C 77% 10.0 mph NNW16.1 kmh NNW 11.0 mph17.7 kmh 30.18 in1022.0 mb 0.00 in0.0 mm 0.00 in0.0 mm 0.00 in0.0 mm
03:57 PM 45.4°F7.4°C 38.6°F3.7°C 77% 11.0 mph NNW17.7 kmh NNW 11.0 mph17.7 kmh 30.18 in1022.0 mb 0.00 in0.0 mm 0.00 in0.0 mm 0.00 in0.0 mm
03:56 PM 45.4°F7.4°C 38.6°F3.7°C 77% 9.0 mph NNW14.5 kmh NNW 11.0 mph17.7 kmh 30.18 in1022.0 mb 0.00 in0.0 mm 0.00 in0.0 mm 0.00 in0.0 mm
03:55 PM 45.5°F7.5°C 38.7°F3.7°C 77% 9.0 mph NNW14.5 kmh NNW 10.0 mph16.1 kmh 30.18 in1022.0 mb 0.00 in0.0 mm 0.00 in0.0 mm 0.00 in0.0 mm
03:54 PM 45.5°F7.5°C 38.7°F3.7°C 77% 10.0 mph NNW16.1 kmh NNW 11.0 mph17.7 kmh 30.18 in1022.0 mb 0.00 in0.0 mm 0.00 in0.0 mm 0.00 in0.0 mm
03:53 PM 45.6°F7.6°C 38.8°F3.8°C 77% 10.0 mph NNW16.1 kmh NNW 12.0 mph19.3 kmh 30.18 in1022.0 mb 0.00 in0.0 mm 0.00 in0.0 mm 0.00 in0.0 mm
03:52 PM 45.5°F7.5°C 38.7°F3.7°C 77% 10.0 mph NNW16.1 kmh NNW 12.0 mph19.3 kmh 30.18 in1022.0 mb 0.00 in0.0 mm 0.00 in0.0 mm 0.00 in0.0 mm
03:51 PM 45.5°F7.5°C 38.7°F3.7°C 77% 10.0 mph NNW16.1 kmh NNW 11.0 mph17.7 kmh 30.18 in1022.0 mb 0.00 in0.0 mm 0.00 in0.0 mm 0.00 in0.0 mm
03:50 PM 45.4°F7.4°C 38.3°F3.5°C 76% 10.0 mph NNW16.1 kmh NNW 12.0 mph19.3 kmh 30.18 in1022.0 mb 0.00 in0.0 mm 0.00 in0.0 mm 0.00 in0.0 mm
03:49 PM 45.4°F7.4°C 38.6°F3.7°C 77% 11.0 mph NNW17.7 kmh NNW 13.0 mph20.9 kmh 30.18 in1022.0 mb 0.00 in0.0 mm 0.00 in0.0 mm 0.00 in0.0 mm
03:48 PM 45.5°F7.5°C 38.7°F3.7°C 77% 10.0 mph NNW16.1 kmh NNW 12.0 mph19.3 kmh 30.18 in1022.0 mb 0.00 in0.0 mm 0.00 in0.0 mm 0.00 in0.0 mm
03:47 PM 45.4°F7.4°C 38.3°F3.5°C 76% 10.0 mph NNW16.1 kmh NNW 11.0 mph17.7 kmh 30.18 in1022.0 mb 0.00 in0.0 mm 0.00 in0.0 mm 0.00 in0.0 mm
03:46 PM 45.4°F7.4°C 38.3°F3.5°C 76% 9.0 mph NNW14.5 kmh NNW 10.0 mph16.1 kmh 30.18 in1022.0 mb 0.00 in0.0 mm 0.00 in0.0 mm 0.00 in0.0 mm
03:45 PM 45.3°F7.4°C 38.2°F3.4°C 76% 10.0 mph NNW16.1 kmh NNW 13.0 mph20.9 kmh 30.18 in1022.0 mb 0.00 in0.0 mm 0.00 in0.0 mm 0.00 in0.0 mm
03:44 PM 45.3°F7.4°C 38.5°F3.6°C 77% 11.0 mph NNW17.7 kmh NNW 12.0 mph19.3 kmh 30.18 in1022.0 mb 0.00 in0.0 mm 0.00 in0.0 mm 0.00 in0.0 mm
03:43 PM 45.3°F7.4°C 38.2°F3.4°C 76% 10.0 mph NNW16.1 kmh NNW 12.0 mph19.3 kmh 30.18 in1022.0 mb 0.00 in0.0 mm 0.00 in0.0 mm 0.00 in0.0 mm
03:42 PM 45.2°F7.3°C 38.1°F3.4°C 76% 11.0 mph NNW17.7 kmh NNW 13.0 mph20.9 kmh 30.18 in1022.0 mb 0.00 in0.0 mm 0.00 in0.0 mm 0.00 in0.0 mm
03:41 PM 45.2°F7.3°C 38.1°F3.4°C 76% 10.0 mph NNW16.1 kmh NNW 14.0 mph22.5 kmh 30.18 in1022.0 mb 0.00 in0.0 mm 0.00 in0.0 mm 0.00 in0.0 mm
03:40 PM 45.2°F7.3°C 38.1°F3.4°C 76% 11.0 mph 17.7 kmh 12.0 mph19.3 kmh 30.18 in1022.0 mb 0.00 in0.0 mm 0.00 in0.0 mm 0.00 in0.0 mm
03:39 PM 45.3°F7.4°C 38.2°F3.4°C 76% 10.0 mph 16.1 kmh 13.0 mph20.9 kmh 30.18 in1022.0 mb 0.00 in0.0 mm 0.00 in0.0 mm 0.00 in0.0 mm
03:38 PM 45.2°F7.3°C 38.1°F3.4°C 76% 9.0 mph NNW14.5 kmh NNW 11.0 mph17.7 kmh 30.18 in1022.0 mb 0.00 in0.0 mm 0.00 in0.0 mm 0.00 in0.0 mm
03:37 PM 45.3°F7.4°C 38.2°F3.4°C 76% 10.0 mph 16.1 kmh 11.0 mph17.7 kmh 30.18 in1022.0 mb 0.00 in0.0 mm 0.00 in0.0 mm 0.00 in0.0 mm
03:36 PM 45.2°F7.3°C 38.1°F3.4°C 76% 10.0 mph NNW16.1 kmh NNW 11.0 mph17.7 kmh 30.18 in1022.0 mb 0.00 in0.0 mm 0.00 in0.0 mm 0.00 in0.0 mm
03:35 PM 45.2°F7.3°C 38.1°F3.4°C 76% 11.0 mph NNW17.7 kmh NNW 13.0 mph20.9 kmh 30.18 in1022.0 mb 0.00 in0.0 mm 0.00 in0.0 mm 0.00 in0.0 mm
03:34 PM 45.2°F7.3°C 38.1°F3.4°C 76% 11.0 mph NNW17.7 kmh NNW 12.0 mph19.3 kmh 30.18 in1022.0 mb 0.00 in0.0 mm 0.00 in0.0 mm 0.00 in0.0 mm
03:33 PM 45.1°F7.3°C 38.0°F3.3°C 76% 13.0 mph NNW20.9 kmh NNW 14.0 mph22.5 kmh 30.18 in1022.0 mb 0.00 in0.0 mm 0.00 in0.0 mm 0.00 in0.0 mm
03:32 PM 45.2°F7.3°C 38.1°F3.4°C 76% 13.0 mph NNW20.9 kmh NNW 15.0 mph24.1 kmh 30.18 in1022.0 mb 0.00 in0.0 mm 0.00 in0.0 mm 0.00 in0.0 mm
03:31 PM 45.2°F7.3°C 38.1°F3.4°C 76% 13.0 mph NNW20.9 kmh NNW 14.0 mph22.5 kmh 30.18 in1022.0 mb 0.00 in0.0 mm 0.00 in0.0 mm 0.00 in0.0 mm
03:30 PM 45.2°F7.3°C 38.4°F3.6°C 77% 13.0 mph NNW20.9 kmh NNW 15.0 mph24.1 kmh 30.18 in1022.0 mb 0.00 in0.0 mm 0.00 in0.0 mm 0.00 in0.0 mm
03:29 PM 45.2°F7.3°C 38.1°F3.4°C 76% 11.0 mph NNW17.7 kmh NNW 13.0 mph20.9 kmh 30.18 in1022.0 mb 0.00 in0.0 mm 0.00 in0.0 mm 0.00 in0.0 mm
03:28 PM 45.2°F7.3°C 38.1°F3.4°C 76% 12.0 mph NNW19.3 kmh NNW 14.0 mph22.5 kmh 30.18 in1022.0 mb 0.00 in0.0 mm 0.00 in0.0 mm 0.00 in0.0 mm
03:27 PM 45.2°F7.3°C 38.4°F3.6°C 77% 12.0 mph NNW19.3 kmh NNW 13.0 mph20.9 kmh 30.18 in1022.0 mb 0.00 in0.0 mm 0.00 in0.0 mm 0.00 in0.0 mm
03:26 PM 45.2°F7.3°C 38.4°F3.6°C 77% 11.0 mph NNW17.7 kmh NNW 14.0 mph22.5 kmh 30.18 in1022.0 mb 0.00 in0.0 mm 0.00 in0.0 mm 0.00 in0.0 mm
03:25 PM 45.1°F7.3°C 38.3°F3.5°C 77% 13.0 mph NNW20.9 kmh NNW 15.0 mph24.1 kmh 30.18 in1022.0 mb 0.00 in0.0 mm 0.00 in0.0 mm 0.00 in0.0 mm
03:24 PM 45.1°F7.3°C 38.3°F3.5°C 77% 13.0 mph NNW20.9 kmh NNW 14.0 mph22.5 kmh 30.18 in1022.0 mb 0.00 in0.0 mm 0.00 in0.0 mm 0.00 in0.0 mm
03:23 PM 45.1°F7.3°C 38.0°F3.3°C 76% 14.0 mph NNW22.5 kmh NNW 16.0 mph25.7 kmh 30.18 in1022.0 mb 0.00 in0.0 mm 0.00 in0.0 mm 0.00 in0.0 mm
03:22 PM 45.1°F7.3°C 38.0°F3.3°C 76% 14.0 mph NNW22.5 kmh NNW 15.0 mph24.1 kmh 30.18 in1022.0 mb 0.00 in0.0 mm 0.00 in0.0 mm 0.00 in0.0 mm
03:21 PM 45.1°F7.3°C 38.0°F3.3°C 76% 14.0 mph NNW22.5 kmh NNW 15.0 mph24.1 kmh 30.18 in1022.0 mb 0.00 in0.0 mm 0.00 in0.0 mm 0.00 in0.0 mm
03:20 PM 45.1°F7.3°C 38.0°F3.3°C 76% 15.0 mph NNW24.1 kmh NNW 16.0 mph25.7 kmh 30.18 in1022.0 mb 0.00 in0.0 mm 0.00 in0.0 mm 0.00 in0.0 mm
03:19 PM 45.1°F7.3°C 38.0°F3.3°C 76% 14.0 mph NNW22.5 kmh NNW 15.0 mph24.1 kmh 30.18 in1022.0 mb 0.00 in0.0 mm 0.00 in0.0 mm 0.00 in0.0 mm
03:18 PM 45.1°F7.3°C 38.0°F3.3°C 76% 15.0 mph NNW24.1 kmh NNW 16.0 mph25.7 kmh 30.18 in1022.0 mb 0.00 in0.0 mm 0.00 in0.0 mm 0.00 in0.0 mm
03:17 PM 45.2°F7.3°C 38.1°F3.4°C 76% 15.0 mph NNW24.1 kmh NNW 17.0 mph27.4 kmh 30.18 in1022.0 mb 0.00 in0.0 mm 0.00 in0.0 mm 0.00 in0.0 mm
03:16 PM 45.2°F7.3°C 38.1°F3.4°C 76% 14.0 mph NNW22.5 kmh NNW 16.0 mph25.7 kmh 30.18 in1022.0 mb 0.00 in0.0 mm 0.00 in0.0 mm 0.00 in0.0 mm
03:15 PM 45.2°F7.3°C 38.4°F3.6°C 77% 12.0 mph NNW19.3 kmh NNW 15.0 mph24.1 kmh 30.18 in1022.0 mb 0.00 in0.0 mm 0.00 in0.0 mm 0.00 in0.0 mm
03:14 PM 45.2°F7.3°C 38.4°F3.6°C 77% 12.0 mph NNW19.3 kmh NNW 14.0 mph22.5 kmh 30.18 in1022.0 mb 0.00 in0.0 mm 0.00 in0.0 mm 0.00 in0.0 mm
03:13 PM 45.0°F7.2°C 38.2°F3.4°C 77% 12.0 mph NNW19.3 kmh NNW 15.0 mph24.1 kmh 30.18 in1022.0 mb 0.00 in0.0 mm 0.00 in0.0 mm 0.00 in0.0 mm
03:12 PM 45.0°F7.2°C 37.9°F3.3°C 76% 13.0 mph NNW20.9 kmh NNW 15.0 mph24.1 kmh 30.18 in1022.0 mb 0.00 in0.0 mm 0.00 in0.0 mm 0.00 in0.0 mm
03:11 PM 44.9°F7.2°C 37.8°F3.2°C 76% 13.0 mph NNW20.9 kmh NNW 15.0 mph24.1 kmh 30.18 in1022.0 mb 0.00 in0.0 mm 0.00 in0.0 mm 0.00 in0.0 mm
03:10 PM 44.9°F7.2°C 38.1°F3.4°C 77% 13.0 mph NNW20.9 kmh NNW 15.0 mph24.1 kmh 30.18 in1022.0 mb 0.00 in0.0 mm 0.00 in0.0 mm 0.00 in0.0 mm
03:09 PM 44.9°F7.2°C 37.8°F3.2°C 76% 14.0 mph NNW22.5 kmh NNW 15.0 mph24.1 kmh 30.18 in1022.0 mb 0.00 in0.0 mm 0.00 in0.0 mm 0.00 in0.0 mm
03:08 PM 44.9°F7.2°C 37.8°F3.2°C 76% 13.0 mph NNW20.9 kmh NNW 15.0 mph24.1 kmh 30.18 in1022.0 mb 0.00 in0.0 mm 0.00 in0.0 mm 0.00 in0.0 mm
03:07 PM 44.9°F7.2°C 37.8°F3.2°C 76% 13.0 mph NNW20.9 kmh NNW 14.0 mph22.5 kmh 30.18 in1022.0 mb 0.00 in0.0 mm 0.00 in0.0 mm 0.00 in0.0 mm
03:06 PM 45.0°F7.2°C 37.9°F3.3°C 76% 14.0 mph NNW22.5 kmh NNW 15.0 mph24.1 kmh 30.18 in1022.0 mb 0.00 in0.0 mm 0.00 in0.0 mm 0.00 in0.0 mm
03:05 PM 45.0°F7.2°C 37.9°F3.3°C 76% 12.0 mph NNW19.3 kmh NNW 13.0 mph20.9 kmh 30.18 in1022.0 mb 0.00 in0.0 mm 0.00 in0.0 mm 0.00 in0.0 mm
03:04 PM 45.0°F7.2°C 37.9°F3.3°C 76% 12.0 mph NNW19.3 kmh NNW 15.0 mph24.1 kmh 30.18 in1022.0 mb 0.00 in0.0 mm 0.00 in0.0 mm 0.00 in0.0 mm
03:03 PM 45.0°F7.2°C 37.9°F3.3°C 76% 11.0 mph NNW17.7 kmh NNW 14.0 mph22.5 kmh 30.18 in1022.0 mb 0.00 in0.0 mm 0.00 in0.0 mm 0.00 in0.0 mm
03:02 PM 45.0°F7.2°C 37.6°F3.1°C 75% 11.0 mph NNW17.7 kmh NNW 12.0 mph19.3 kmh 30.18 in1022.0 mb 0.00 in0.0 mm 0.00 in0.0 mm 0.00 in0.0 mm
03:01 PM 45.0°F7.2°C 37.6°F3.1°C 75% 12.0 mph NNW19.3 kmh NNW 13.0 mph20.9 kmh 30.18 in1022.0 mb 0.00 in0.0 mm 0.00 in0.0 mm 0.00 in0.0 mm
03:00 PM 45.0°F7.2°C 37.2°F2.9°C 74% 12.0 mph NNW19.3 kmh NNW 14.0 mph22.5 kmh 30.18 in1022.0 mb 0.00 in0.0 mm 0.00 in0.0 mm 0.00 in0.0 mm
02:59 PM 44.9°F7.2°C 37.1°F2.8°C 74% 13.0 mph NNW20.9 kmh NNW 15.0 mph24.1 kmh 30.18 in1022.0 mb 0.00 in0.0 mm 0.00 in0.0 mm 0.00 in0.0 mm
02:58 PM 45.1°F7.3°C 37.3°F2.9°C 74% 13.0 mph NNW20.9 kmh NNW 15.0 mph24.1 kmh 30.18 in1022.0 mb 0.00 in0.0 mm 0.00 in0.0 mm 0.00 in0.0 mm
02:57 PM 45.0°F7.2°C 37.2°F2.9°C 74% 12.0 mph NNW19.3 kmh NNW 14.0 mph22.5 kmh 30.18 in1022.0 mb 0.00 in0.0 mm 0.00 in0.0 mm 0.00 in0.0 mm
02:56 PM 45.1°F7.3°C 37.3°F2.9°C 74% 13.0 mph NNW20.9 kmh NNW 14.0 mph22.5 kmh 30.18 in1022.0 mb 0.00 in0.0 mm 0.00 in0.0 mm 0.00 in0.0 mm
02:55 PM 45.2°F7.3°C 37.4°F3.0°C 74% 12.0 mph NNW19.3 kmh NNW 14.0 mph22.5 kmh 30.18 in1022.0 mb 0.00 in0.0 mm 0.00 in0.0 mm 0.00 in0.0 mm
02:54 PM 45.2°F7.3°C 37.4°F3.0°C 74% 13.0 mph NNW20.9 kmh NNW 14.0 mph22.5 kmh 30.18 in1022.0 mb 0.00 in0.0 mm 0.00 in0.0 mm 0.00 in0.0 mm
02:53 PM 45.2°F7.3°C 37.4°F3.0°C 74% 11.0 mph NNW17.7 kmh NNW 14.0 mph22.5 kmh 30.18 in1022.0 mb 0.00 in0.0 mm 0.00 in0.0 mm 0.00 in0.0 mm
02:52 PM 45.2°F7.3°C 37.4°F3.0°C 74% 11.0 mph NNW17.7 kmh NNW 13.0 mph20.9 kmh 30.18 in1022.0 mb 0.00 in0.0 mm 0.00 in0.0 mm 0.00 in0.0 mm
02:51 PM 45.1°F7.3°C 37.3°F2.9°C 74% 12.0 mph NNW19.3 kmh NNW 14.0 mph22.5 kmh 30.18 in1022.0 mb 0.00 in0.0 mm 0.00 in0.0 mm 0.00 in0.0 mm
02:50 PM 45.1°F7.3°C 37.3°F2.9°C 74% 13.0 mph NNW20.9 kmh NNW 15.0 mph24.1 kmh 30.18 in1022.0 mb 0.00 in0.0 mm 0.00 in0.0 mm 0.00 in0.0 mm
02:49 PM 45.1°F7.3°C 37.3°F2.9°C 74% 11.0 mph NNW17.7 kmh NNW 12.0 mph19.3 kmh 30.18 in1022.0 mb 0.00 in0.0 mm 0.00 in0.0 mm 0.00 in0.0 mm
02:48 PM 45.1°F7.3°C 37.3°F2.9°C 74% 9.0 mph 14.5 kmh 11.0 mph17.7 kmh 30.18 in1022.0 mb 0.00 in0.0 mm 0.00 in0.0 mm 0.00 in0.0 mm
02:47 PM 45.1°F7.3°C 37.0°F2.8°C 73% 12.0 mph NNW19.3 kmh NNW 13.0 mph20.9 kmh 30.18 in1022.0 mb 0.00 in0.0 mm 0.00 in0.0 mm 0.00 in0.0 mm
02:46 PM 45.1°F7.3°C 37.3°F2.9°C 74% 11.0 mph NNW17.7 kmh NNW 13.0 mph20.9 kmh 30.18 in1022.0 mb 0.00 in0.0 mm 0.00 in0.0 mm 0.00 in0.0 mm
02:45 PM 45.1°F7.3°C 37.3°F2.9°C 74% 11.0 mph 17.7 kmh 14.0 mph22.5 kmh 30.18 in1022.0 mb 0.00 in0.0 mm 0.00 in0.0 mm 0.00 in0.0 mm
02:44 PM 45.2°F7.3°C 37.4°F3.0°C 74% 12.0 mph NNW19.3 kmh NNW 14.0 mph22.5 kmh 30.18 in1022.0 mb 0.00 in0.0 mm 0.00 in0.0 mm 0.00 in0.0 mm
02:43 PM 45.2°F7.3°C 37.4°F3.0°C 74% 11.0 mph NNW17.7 kmh NNW 13.0 mph20.9 kmh 30.18 in1022.0 mb 0.00 in0.0 mm 0.00 in0.0 mm 0.00 in0.0 mm
02:42 PM 45.2°F7.3°C 37.4°F3.0°C 74% 11.0 mph NNW17.7 kmh NNW 13.0 mph20.9 kmh 30.18 in1022.0 mb 0.00 in0.0 mm 0.00 in0.0 mm 0.00 in0.0 mm
02:41 PM 45.2°F7.3°C 37.4°F3.0°C 74% 12.0 mph NNW19.3 kmh NNW 13.0 mph20.9 kmh 30.18 in1022.0 mb 0.00 in0.0 mm 0.00 in0.0 mm 0.00 in0.0 mm
02:40 PM 45.2°F7.3°C 37.4°F3.0°C 74% 12.0 mph NNW19.3 kmh NNW 14.0 mph22.5 kmh 30.18 in1022.0 mb 0.00 in0.0 mm 0.00 in0.0 mm 0.00 in0.0 mm
02:39 PM 45.1°F7.3°C 37.3°F2.9°C 74% 13.0 mph NNW20.9 kmh NNW 14.0 mph22.5 kmh 30.18 in1022.0 mb 0.00 in0.0 mm 0.00 in0.0 mm 0.00 in0.0 mm
02:38 PM 45.2°F7.3°C 37.4°F3.0°C 74% 14.0 mph NNW22.5 kmh NNW 15.0 mph24.1 kmh 30.18 in1022.0 mb 0.00 in0.0 mm 0.00 in0.0 mm 0.00 in0.0 mm
02:37 PM 45.1°F7.3°C 37.3°F2.9°C 74% 14.0 mph NNW22.5 kmh NNW 15.0 mph24.1 kmh 30.18 in1022.0 mb 0.00 in0.0 mm 0.00 in0.0 mm 0.00 in0.0 mm
02:36 PM 45.2°F7.3°C 37.4°F3.0°C 74% 13.0 mph NNW20.9 kmh NNW 15.0 mph24.1 kmh 30.18 in1022.0 mb 0.00 in0.0 mm 0.00 in0.0 mm 0.00 in0.0 mm
02:35 PM 45.2°F7.3°C 37.4°F3.0°C 74% 13.0 mph NNW20.9 kmh NNW 14.0 mph22.5 kmh 30.18 in1022.0 mb 0.00 in0.0 mm 0.00 in0.0 mm 0.00 in0.0 mm
02:34 PM 45.2°F7.3°C 37.4°F3.0°C 74% 13.0 mph NNW20.9 kmh NNW 15.0 mph24.1 kmh 30.18 in1022.0 mb 0.00 in0.0 mm 0.00 in0.0 mm 0.00 in0.0 mm
02:33 PM 45.2°F7.3°C 37.4°F3.0°C 74% 13.0 mph NNW20.9 kmh NNW 15.0 mph24.1 kmh 30.18 in1022.0 mb 0.00 in0.0 mm 0.00 in0.0 mm 0.00 in0.0 mm
02:32 PM 45.2°F7.3°C 37.4°F3.0°C 74% 13.0 mph NNW20.9 kmh NNW 14.0 mph22.5 kmh 30.18 in1022.0 mb 0.00 in0.0 mm 0.00 in0.0 mm 0.00 in0.0 mm
02:31 PM 45.2°F7.3°C 37.4°F3.0°C 74% 12.0 mph NNW19.3 kmh NNW 14.0 mph22.5 kmh 30.18 in1022.0 mb 0.00 in0.0 mm 0.00 in0.0 mm 0.00 in0.0 mm
02:30 PM 45.2°F7.3°C 37.8°F3.2°C 75% 11.0 mph NNW17.7 kmh NNW 13.0 mph20.9 kmh 30.18 in1022.0 mb 0.00 in0.0 mm 0.00 in0.0 mm 0.00 in0.0 mm
02:29 PM 45.2°F7.3°C 37.8°F3.2°C 75% 11.0 mph NNW17.7 kmh NNW 13.0 mph20.9 kmh 30.18 in1022.0 mb 0.00 in0.0 mm 0.00 in0.0 mm 0.00 in0.0 mm
02:28 PM 45.1°F7.3°C 37.3°F2.9°C 74% 11.0 mph NNW17.7 kmh NNW 13.0 mph20.9 kmh 30.18 in1022.0 mb 0.00 in0.0 mm 0.00 in0.0 mm 0.00 in0.0 mm
02:27 PM 45.1°F7.3°C 37.3°F2.9°C 74% 12.0 mph NNW19.3 kmh NNW 14.0 mph22.5 kmh 30.18 in1022.0 mb 0.00 in0.0 mm 0.00 in0.0 mm 0.00 in0.0 mm
02:26 PM 45.1°F7.3°C 37.7°F3.2°C 75% 12.0 mph NNW19.3 kmh NNW 14.0 mph22.5 kmh 30.18 in1022.0 mb 0.00 in0.0 mm 0.00 in0.0 mm 0.00 in0.0 mm
02:25 PM 45.2°F7.3°C 37.8°F3.2°C 75% 11.0 mph NNW17.7 kmh NNW 13.0 mph20.9 kmh 30.18 in1022.0 mb 0.00 in0.0 mm 0.00 in0.0 mm 0.00 in0.0 mm
02:24 PM 45.2°F7.3°C 37.8°F3.2°C 75% 10.0 mph NNW16.1 kmh NNW 12.0 mph19.3 kmh 30.18 in1022.0 mb 0.00 in0.0 mm 0.00 in0.0 mm 0.00 in0.0 mm
02:23 PM 45.2°F7.3°C 37.8°F3.2°C 75% 10.0 mph NNW16.1 kmh NNW 12.0 mph19.3 kmh 30.18 in1022.0 mb 0.00 in0.0 mm 0.00 in0.0 mm 0.00 in0.0 mm
02:22 PM 45.2°F7.3°C 38.1°F3.4°C 76% 11.0 mph NNW17.7 kmh NNW 13.0 mph20.9 kmh 30.18 in1022.0 mb 0.00 in0.0 mm 0.00 in0.0 mm 0.00 in0.0 mm
02:21 PM 45.2°F7.3°C 38.1°F3.4°C 76% 11.0 mph NNW17.7 kmh NNW 13.0 mph20.9 kmh 30.18 in1022.0 mb 0.00 in0.0 mm 0.00 in0.0 mm 0.00 in0.0 mm
02:20 PM 45.1°F7.3°C 37.7°F3.2°C 75% 12.0 mph NNW19.3 kmh NNW 13.0 mph20.9 kmh 30.18 in1022.0 mb 0.00 in0.0 mm 0.00 in0.0 mm 0.00 in0.0 mm
02:19 PM 45.1°F7.3°C 37.7°F3.2°C 75% 13.0 mph NNW20.9 kmh NNW 15.0 mph24.1 kmh 30.18 in1022.0 mb 0.00 in0.0 mm 0.00 in0.0 mm 0.00 in0.0 mm
02:18 PM 45.1°F7.3°C 37.7°F3.2°C 75% 13.0 mph NNW20.9 kmh NNW 15.0 mph24.1 kmh 30.18 in1022.0 mb 0.00 in0.0 mm 0.00 in0.0 mm 0.00 in0.0 mm
02:17 PM 45.2°F7.3°C 37.8°F3.2°C 75% 11.0 mph NNW17.7 kmh NNW 13.0 mph20.9 kmh 30.18 in1022.0 mb 0.00 in0.0 mm 0.00 in0.0 mm 0.00 in0.0 mm
02:16 PM 45.2°F7.3°C 37.8°F3.2°C 75% 13.0 mph NNW20.9 kmh NNW 15.0 mph24.1 kmh 30.18 in1022.0 mb 0.00 in0.0 mm 0.00 in0.0 mm 0.00 in0.0 mm
02:15 PM 45.2°F7.3°C 37.8°F3.2°C 75% 13.0 mph NNW20.9 kmh NNW 14.0 mph22.5 kmh 30.18 in1022.0 mb 0.00 in0.0 mm 0.00 in0.0 mm 0.00 in0.0 mm
02:14 PM 45.2°F7.3°C 37.8°F3.2°C 75% 13.0 mph NNW20.9 kmh NNW 14.0 mph22.5 kmh 30.18 in1022.0 mb 0.00 in0.0 mm 0.00 in0.0 mm 0.00 in0.0 mm
02:13 PM 45.2°F7.3°C 37.8°F3.2°C 75% 13.0 mph NNW20.9 kmh NNW 14.0 mph22.5 kmh 30.18 in1022.0 mb 0.00 in0.0 mm 0.00 in0.0 mm 0.00 in0.0 mm
02:12 PM 45.2°F7.3°C 37.8°F3.2°C 75% 13.0 mph NNW20.9 kmh NNW 15.0 mph24.1 kmh 30.18 in1022.0 mb 0.00 in0.0 mm 0.00 in0.0 mm 0.00 in0.0 mm
02:11 PM 45.3°F7.4°C 37.9°F3.3°C 75% 13.0 mph NNW20.9 kmh NNW 14.0 mph22.5 kmh 30.18 in1022.0 mb 0.00 in0.0 mm 0.00 in0.0 mm 0.00 in0.0 mm
02:10 PM 45.2°F7.3°C 38.1°F3.4°C 76% 12.0 mph NNW19.3 kmh NNW 13.0 mph20.9 kmh 30.18 in1022.0 mb 0.00 in0.0 mm 0.00 in0.0 mm 0.00 in0.0 mm
02:09 PM 45.2°F7.3°C 37.8°F3.2°C 75% 13.0 mph NNW20.9 kmh NNW 14.0 mph22.5 kmh 30.18 in1022.0 mb 0.00 in0.0 mm 0.00 in0.0 mm 0.00 in0.0 mm
02:08 PM 45.2°F7.3°C 37.8°F3.2°C 75% 12.0 mph NNW19.3 kmh NNW 13.0 mph20.9 kmh 30.18 in1022.0 mb 0.00 in0.0 mm 0.00 in0.0 mm 0.00 in0.0 mm
02:07 PM 45.2°F7.3°C 37.8°F3.2°C 75% 12.0 mph NNW19.3 kmh NNW 14.0 mph22.5 kmh 30.18 in1022.0 mb 0.00 in0.0 mm 0.00 in0.0 mm 0.00 in0.0 mm
02:06 PM 45.2°F7.3°C 37.8°F3.2°C 75% 12.0 mph NNW19.3 kmh NNW 14.0 mph22.5 kmh 30.18 in1022.0 mb 0.00 in0.0 mm 0.00 in0.0 mm 0.00 in0.0 mm
02:05 PM 45.2°F7.3°C 38.1°F3.4°C 76% 13.0 mph NNW20.9 kmh NNW 14.0 mph22.5 kmh 30.18 in1022.0 mb 0.00 in0.0 mm 0.00 in0.0 mm 0.00 in0.0 mm
02:04 PM 45.1°F7.3°C 38.0°F3.3°C 76% 10.0 mph NNW16.1 kmh NNW 12.0 mph19.3 kmh 30.18 in1022.0 mb 0.00 in0.0 mm 0.00 in0.0 mm 0.00 in0.0 mm
02:03 PM 45.0°F7.2°C 37.6°F3.1°C 75% 11.0 mph NNW17.7 kmh NNW 12.0 mph19.3 kmh 30.18 in1022.0 mb 0.00 in0.0 mm 0.00 in0.0 mm 0.00 in0.0 mm
02:02 PM 45.0°F7.2°C 37.6°F3.1°C 75% 12.0 mph NNW19.3 kmh NNW 14.0 mph22.5 kmh 30.18 in1022.0 mb 0.00 in0.0 mm 0.00 in0.0 mm 0.00 in0.0 mm
02:01 PM 45.0°F7.2°C 37.6°F3.1°C 75% 12.0 mph NNW19.3 kmh NNW 14.0 mph22.5 kmh 30.18 in1022.0 mb 0.00 in0.0 mm 0.00 in0.0 mm 0.00 in0.0 mm
02:00 PM 45.0°F7.2°C 37.6°F3.1°C 75% 11.0 mph NNW17.7 kmh NNW 13.0 mph20.9 kmh 30.18 in1022.0 mb 0.00 in0.0 mm 0.00 in0.0 mm 0.00 in0.0 mm
01:59 PM 45.0°F7.2°C 37.9°F3.3°C 76% 11.0 mph NNW17.7 kmh NNW 12.0 mph19.3 kmh 30.18 in1022.0 mb 0.00 in0.0 mm 0.00 in0.0 mm 0.00 in0.0 mm
01:58 PM 45.0°F7.2°C 37.9°F3.3°C 76% 12.0 mph NNW19.3 kmh NNW 13.0 mph20.9 kmh 30.18 in1022.0 mb 0.00 in0.0 mm 0.00 in0.0 mm 0.00 in0.0 mm
01:57 PM 45.0°F7.2°C 37.9°F3.3°C 76% 11.0 mph NNW17.7 kmh NNW 12.0 mph19.3 kmh 30.18 in1022.0 mb 0.00 in0.0 mm 0.00 in0.0 mm 0.00 in0.0 mm
01:56 PM 45.0°F7.2°C 37.9°F3.3°C 76% 11.0 mph NNW17.7 kmh NNW 12.0 mph19.3 kmh 30.18 in1022.0 mb 0.00 in0.0 mm 0.00 in0.0 mm 0.00 in0.0 mm
01:55 PM 44.9°F7.2°C 37.8°F3.2°C 76% 12.0 mph NNW19.3 kmh NNW 13.0 mph20.9 kmh 30.18 in1022.0 mb 0.00 in0.0 mm 0.00 in0.0 mm 0.00 in0.0 mm
01:54 PM 44.9°F7.2°C 37.8°F3.2°C 76% 12.0 mph NNW19.3 kmh NNW 13.0 mph20.9 kmh 30.18 in1022.0 mb 0.00 in0.0 mm 0.00 in0.0 mm 0.00 in0.0 mm
01:53 PM 44.9°F7.2°C 37.8°F3.2°C 76% 13.0 mph NNW20.9 kmh NNW 14.0 mph22.5 kmh 30.17 in1021.7 mb 0.00 in0.0 mm 0.00 in0.0 mm 0.00 in0.0 mm
01:52 PM 44.9°F7.2°C 37.8°F3.2°C 76% 13.0 mph NNW20.9 kmh NNW 15.0 mph24.1 kmh 30.18 in1022.0 mb 0.00 in0.0 mm 0.00 in0.0 mm 0.00 in0.0 mm
01:51 PM 44.9°F7.2°C 37.5°F3.1°C 75% 13.0 mph NNW20.9 kmh NNW 14.0 mph22.5 kmh 30.17 in1021.7 mb 0.00 in0.0 mm 0.00 in0.0 mm 0.00 in0.0 mm
01:50 PM 44.9°F7.2°C 37.5°F3.1°C 75% 14.0 mph NNW22.5 kmh NNW 15.0 mph24.1 kmh 30.17 in1021.7 mb 0.00 in0.0 mm 0.00 in0.0 mm 0.00 in0.0 mm
01:49 PM 44.9°F7.2°C 37.5°F3.1°C 75% 13.0 mph NNW20.9 kmh NNW 14.0 mph22.5 kmh 30.17 in1021.7 mb 0.00 in0.0 mm 0.00 in0.0 mm 0.00 in0.0 mm
01:48 PM 44.9°F7.2°C 37.5°F3.1°C 75% 14.0 mph NNW22.5 kmh NNW 16.0 mph25.7 kmh 30.17 in1021.7 mb 0.00 in0.0 mm 0.00 in0.0 mm 0.00 in0.0 mm
01:47 PM 45.1°F7.3°C 37.7°F3.2°C 75% 13.0 mph NNW20.9 kmh NNW 14.0 mph22.5 kmh 30.17 in1021.7 mb 0.00 in0.0 mm 0.00 in0.0 mm 0.00 in0.0 mm
01:46 PM 45.1°F7.3°C 37.7°F3.2°C 75% 13.0 mph NNW20.9 kmh NNW 15.0 mph24.1 kmh 30.18 in1022.0 mb 0.00 in0.0 mm 0.00 in0.0 mm 0.00 in0.0 mm
01:45 PM 45.1°F7.3°C 37.7°F3.2°C 75% 14.0 mph NNW22.5 kmh NNW 16.0 mph25.7 kmh 30.18 in1022.0 mb 0.00 in0.0 mm 0.00 in0.0 mm 0.00 in0.0 mm
01:44 PM 45.2°F7.3°C 37.8°F3.2°C 75% 13.0 mph NNW20.9 kmh NNW 15.0 mph24.1 kmh 30.18 in1022.0 mb 0.00 in0.0 mm 0.00 in0.0 mm 0.00 in0.0 mm
01:43 PM 45.1°F7.3°C 37.7°F3.2°C 75% 12.0 mph NNW19.3 kmh NNW 13.0 mph20.9 kmh 30.18 in1022.0 mb 0.00 in0.0 mm 0.00 in0.0 mm 0.00 in0.0 mm
01:42 PM 45.1°F7.3°C 37.3°F2.9°C 74% 12.0 mph NNW19.3 kmh NNW 14.0 mph22.5 kmh 30.18 in1022.0 mb 0.00 in0.0 mm 0.00 in0.0 mm 0.00 in0.0 mm
01:41 PM 45.1°F7.3°C 37.7°F3.2°C 75% 13.0 mph NNW20.9 kmh NNW 14.0 mph22.5 kmh 30.18 in1022.0 mb 0.00 in0.0 mm 0.00 in0.0 mm 0.00 in0.0 mm
01:40 PM 45.1°F7.3°C 37.7°F3.2°C 75% 12.0 mph NNW19.3 kmh NNW 13.0 mph20.9 kmh 30.18 in1022.0 mb 0.00 in0.0 mm 0.00 in0.0 mm 0.00 in0.0 mm
01:39 PM 45.0°F7.2°C 37.2°F2.9°C 74% 12.0 mph NNW19.3 kmh NNW 14.0 mph22.5 kmh 30.18 in1022.0 mb 0.00 in0.0 mm 0.00 in0.0 mm 0.00 in0.0 mm
01:38 PM 45.0°F7.2°C 37.2°F2.9°C 74% 13.0 mph NNW20.9 kmh NNW 14.0 mph22.5 kmh 30.18 in1022.0 mb 0.00 in0.0 mm 0.00 in0.0 mm 0.00 in0.0 mm
01:37 PM 44.9°F7.2°C 37.5°F3.1°C 75% 14.0 mph NNW22.5 kmh NNW 15.0 mph24.1 kmh 30.18 in1022.0 mb 0.00 in0.0 mm 0.00 in0.0 mm 0.00 in0.0 mm
01:36 PM 45.0°F7.2°C 37.6°F3.1°C 75% 14.0 mph NNW22.5 kmh NNW 15.0 mph24.1 kmh 30.18 in1022.0 mb 0.00 in0.0 mm 0.00 in0.0 mm 0.00 in0.0 mm
01:35 PM 44.9°F7.2°C 37.1°F2.8°C 74% 15.0 mph NNW24.1 kmh NNW 17.0 mph27.4 kmh 30.18 in1022.0 mb 0.00 in0.0 mm 0.00 in0.0 mm 0.00 in0.0 mm
01:34 PM 44.9°F7.2°C 37.1°F2.8°C 74% 15.0 mph NNW24.1 kmh NNW 16.0 mph25.7 kmh 30.18 in1022.0 mb 0.00 in0.0 mm 0.00 in0.0 mm 0.00 in0.0 mm
01:33 PM 44.9°F7.2°C 37.1°F2.8°C 74% 16.0 mph NNW25.7 kmh NNW 17.0 mph27.4 kmh 30.18 in1022.0 mb 0.00 in0.0 mm 0.00 in0.0 mm 0.00 in0.0 mm
01:32 PM 44.9°F7.2°C 37.5°F3.1°C 75% 14.0 mph NNW22.5 kmh NNW 16.0 mph25.7 kmh 30.18 in1022.0 mb 0.00 in0.0 mm 0.00 in0.0 mm 0.00 in0.0 mm
01:31 PM 44.9°F7.2°C 37.5°F3.1°C 75% 16.0 mph NNW25.7 kmh NNW 17.0 mph27.4 kmh 30.18 in1022.0 mb 0.00 in0.0 mm 0.00 in0.0 mm 0.00 in0.0 mm
01:30 PM 45.0°F7.2°C 37.6°F3.1°C 75% 14.0 mph NNW22.5 kmh NNW 16.0 mph25.7 kmh 30.18 in1022.0 mb 0.00 in0.0 mm 0.00 in0.0 mm 0.00 in0.0 mm
01:29 PM 45.0°F7.2°C 37.6°F3.1°C 75% 15.0 mph NNW24.1 kmh NNW 16.0 mph25.7 kmh 30.18 in1022.0 mb 0.00 in0.0 mm 0.00 in0.0 mm 0.00 in0.0 mm
01:28 PM 45.0°F7.2°C 37.2°F2.9°C 74% 14.0 mph NNW22.5 kmh NNW 16.0 mph25.7 kmh 30.18 in1022.0 mb 0.00 in0.0 mm 0.00 in0.0 mm 0.00 in0.0 mm
01:27 PM 45.0°F7.2°C 37.2°F2.9°C 74% 15.0 mph NNW24.1 kmh NNW 17.0 mph27.4 kmh 30.18 in1022.0 mb 0.00 in0.0 mm 0.00 in0.0 mm 0.00 in0.0 mm
01:26 PM 45.1°F7.3°C 37.7°F3.2°C 75% 15.0 mph NNW24.1 kmh NNW 16.0 mph25.7 kmh 30.18 in1022.0 mb 0.00 in0.0 mm 0.00 in0.0 mm 0.00 in0.0 mm
01:25 PM 45.0°F7.2°C 37.6°F3.1°C 75% 13.0 mph NNW20.9 kmh NNW 15.0 mph24.1 kmh 30.18 in1022.0 mb 0.00 in0.0 mm 0.00 in0.0 mm 0.00 in0.0 mm
01:24 PM 45.0°F7.2°C 37.9°F3.3°C 76% 14.0 mph NNW22.5 kmh NNW 16.0 mph25.7 kmh 30.18 in1022.0 mb 0.00 in0.0 mm 0.00 in0.0 mm 0.00 in0.0 mm
01:23 PM 44.9°F7.2°C 37.5°F3.1°C 75% 14.0 mph NNW22.5 kmh NNW 16.0 mph25.7 kmh 30.18 in1022.0 mb 0.00 in0.0 mm 0.00 in0.0 mm 0.00 in0.0 mm
01:22 PM 44.9°F7.2°C 37.8°F3.2°C 76% 15.0 mph NNW24.1 kmh NNW 17.0 mph27.4 kmh 30.18 in1022.0 mb 0.00 in0.0 mm 0.00 in0.0 mm 0.00 in0.0 mm
01:21 PM 44.9°F7.2°C 37.8°F3.2°C 76% 14.0 mph NNW22.5 kmh NNW 17.0 mph27.4 kmh 30.18 in1022.0 mb 0.00 in0.0 mm 0.00 in0.0 mm 0.00 in0.0 mm
01:20 PM 44.9°F7.2°C 37.8°F3.2°C 76% 14.0 mph NNW22.5 kmh NNW 16.0 mph25.7 kmh 30.18 in1022.0 mb 0.00 in0.0 mm 0.00 in0.0 mm 0.00 in0.0 mm
01:19 PM 44.9°F7.2°C 37.8°F3.2°C 76% 14.0 mph NNW22.5 kmh NNW 16.0 mph25.7 kmh 30.18 in1022.0 mb 0.00 in0.0 mm 0.00 in0.0 mm 0.00 in0.0 mm
01:18 PM 44.8°F7.1°C 37.7°F3.2°C 76% 15.0 mph NNW24.1 kmh NNW 16.0 mph25.7 kmh 30.18 in1022.0 mb 0.00 in0.0 mm 0.00 in0.0 mm 0.00 in0.0 mm
01:17 PM 44.8°F7.1°C 37.4°F3.0°C 75% 15.0 mph NNW24.1 kmh NNW 17.0 mph27.4 kmh 30.18 in1022.0 mb 0.00 in0.0 mm 0.00 in0.0 mm 0.00 in0.0 mm
01:16 PM 44.8°F7.1°C 37.4°F3.0°C 75% 14.0 mph NNW22.5 kmh NNW 15.0 mph24.1 kmh 30.18 in1022.0 mb 0.00 in0.0 mm 0.00 in0.0 mm 0.00 in0.0 mm
01:15 PM 44.7°F7.1°C 37.3°F2.9°C 75% 14.0 mph NNW22.5 kmh NNW 15.0 mph24.1 kmh 30.18 in1022.0 mb 0.00 in0.0 mm 0.00 in0.0 mm 0.00 in0.0 mm
01:14 PM 44.7°F7.1°C 37.3°F2.9°C 75% 16.0 mph NNW25.7 kmh NNW 17.0 mph27.4 kmh 30.18 in1022.0 mb 0.00 in0.0 mm 0.00 in0.0 mm 0.00 in0.0 mm
01:13 PM 44.7°F7.1°C 37.3°F2.9°C 75% 16.0 mph NNW25.7 kmh NNW 18.0 mph29.0 kmh 30.18 in1022.0 mb 0.00 in0.0 mm 0.00 in0.0 mm 0.00 in0.0 mm
01:12 PM 44.8°F7.1°C 37.4°F3.0°C 75% 15.0 mph NNW24.1 kmh NNW 17.0 mph27.4 kmh 30.17 in1021.7 mb 0.00 in0.0 mm 0.00 in0.0 mm 0.00 in0.0 mm
01:11 PM 44.8°F7.1°C 37.4°F3.0°C 75% 16.0 mph NNW25.7 kmh NNW 17.0 mph27.4 kmh 30.17 in1021.7 mb 0.00 in0.0 mm 0.00 in0.0 mm 0.00 in0.0 mm
01:10 PM 44.7°F7.1°C 37.3°F2.9°C 75% 15.0 mph NNW24.1 kmh NNW 17.0 mph27.4 kmh 30.17 in1021.7 mb 0.00 in0.0 mm 0.00 in0.0 mm 0.00 in0.0 mm
01:09 PM 44.7°F7.1°C 37.3°F2.9°C 75% 15.0 mph NNW24.1 kmh NNW 16.0 mph25.7 kmh 30.18 in1022.0 mb 0.00 in0.0 mm 0.00 in0.0 mm 0.00 in0.0 mm
01:08 PM 44.6°F7.0°C 37.2°F2.9°C 75% 15.0 mph NNW24.1 kmh NNW 17.0 mph27.4 kmh 30.17 in1021.7 mb 0.00 in0.0 mm 0.00 in0.0 mm 0.00 in0.0 mm
01:07 PM 44.7°F7.1°C 37.3°F2.9°C 75% 16.0 mph NNW25.7 kmh NNW 17.0 mph27.4 kmh 30.17 in1021.7 mb 0.00 in0.0 mm 0.00 in0.0 mm 0.00 in0.0 mm
01:06 PM 44.7°F7.1°C 37.3°F2.9°C 75% 15.0 mph NNW24.1 kmh NNW 17.0 mph27.4 kmh 30.17 in1021.7 mb 0.00 in0.0 mm 0.00 in0.0 mm 0.00 in0.0 mm
01:05 PM 44.6°F7.0°C 37.2°F2.9°C 75% 15.0 mph NNW24.1 kmh NNW 16.0 mph25.7 kmh 30.17 in1021.7 mb 0.00 in0.0 mm 0.00 in0.0 mm 0.00 in0.0 mm
01:04 PM 44.6°F7.0°C 37.2°F2.9°C 75% 15.0 mph NNW24.1 kmh NNW 17.0 mph27.4 kmh 30.17 in1021.7 mb 0.00 in0.0 mm 0.00 in0.0 mm 0.00 in0.0 mm
01:03 PM 44.5°F6.9°C 36.7°F2.6°C 74% 15.0 mph NNW24.1 kmh NNW 17.0 mph27.4 kmh 30.17 in1021.7 mb 0.00 in0.0 mm 0.00 in0.0 mm 0.00 in0.0 mm
01:02 PM 44.5°F6.9°C 36.7°F2.6°C 74% 16.0 mph NNW25.7 kmh NNW 17.0 mph27.4 kmh 30.17 in1021.7 mb 0.00 in0.0 mm 0.00 in0.0 mm 0.00 in0.0 mm
01:01 PM 44.5°F6.9°C 36.7°F2.6°C 74% 16.0 mph NNW25.7 kmh NNW 17.0 mph27.4 kmh 30.17 in1021.7 mb 0.00 in0.0 mm 0.00 in0.0 mm 0.00 in0.0 mm
01:00 PM 44.5°F6.9°C 36.7°F2.6°C 74% 14.0 mph NNW22.5 kmh NNW 15.0 mph24.1 kmh 30.17 in1021.7 mb 0.00 in0.0 mm 0.00 in0.0 mm 0.00 in0.0 mm
12:59 PM 44.6°F7.0°C 37.2°F2.9°C 75% 13.0 mph NNW20.9 kmh NNW 15.0 mph24.1 kmh 30.17 in1021.7 mb 0.00 in0.0 mm 0.00 in0.0 mm 0.00 in0.0 mm
12:58 PM 44.6°F7.0°C 37.5°F3.1°C 76% 15.0 mph NNW24.1 kmh NNW 16.0 mph25.7 kmh 30.17 in1021.7 mb 0.00 in0.0 mm 0.00 in0.0 mm 0.00 in0.0 mm
12:57 PM 44.6°F7.0°C 37.5°F3.1°C 76% 14.0 mph NNW22.5 kmh NNW 16.0 mph25.7 kmh 30.17 in1021.7 mb 0.00 in0.0 mm 0.00 in0.0 mm 0.00 in0.0 mm
12:56 PM 44.6°F7.0°C 37.5°F3.1°C 76% 14.0 mph NNW22.5 kmh NNW 15.0 mph24.1 kmh 30.17 in1021.7 mb 0.00 in0.0 mm 0.00 in0.0 mm 0.00 in0.0 mm
12:55 PM 44.4°F6.9°C 37.0°F2.8°C 75% 15.0 mph NNW24.1 kmh NNW 16.0 mph25.7 kmh 30.17 in1021.7 mb 0.00 in0.0 mm 0.00 in0.0 mm 0.00 in0.0 mm
12:54 PM 44.4°F6.9°C 37.0°F2.8°C 75% 14.0 mph NNW22.5 kmh NNW 16.0 mph25.7 kmh 30.17 in1021.7 mb 0.00 in0.0 mm 0.00 in0.0 mm 0.00 in0.0 mm
12:53 PM 44.3°F6.8°C 37.2°F2.9°C 76% 14.0 mph NNW22.5 kmh NNW 15.0 mph24.1 kmh 30.17 in1021.7 mb 0.00 in0.0 mm 0.00 in0.0 mm 0.00 in0.0 mm
12:52 PM 44.4°F6.9°C 37.3°F2.9°C 76% 14.0 mph NNW22.5 kmh NNW 16.0 mph25.7 kmh 30.17 in1021.7 mb 0.00 in0.0 mm 0.00 in0.0 mm 0.00 in0.0 mm
12:51 PM 44.4°F6.9°C 37.3°F2.9°C 76% 13.0 mph NNW20.9 kmh NNW 15.0 mph24.1 kmh 30.17 in1021.7 mb 0.00 in0.0 mm 0.00 in0.0 mm 0.00 in0.0 mm
12:50 PM 44.4°F6.9°C 37.3°F2.9°C 76% 14.0 mph NNW22.5 kmh NNW 15.0 mph24.1 kmh 30.17 in1021.7 mb 0.00 in0.0 mm 0.00 in0.0 mm 0.00 in0.0 mm
12:49 PM 44.5°F6.9°C 37.4°F3.0°C 76% 14.0 mph NNW22.5 kmh NNW 16.0 mph25.7 kmh 30.17 in1021.7 mb 0.00 in0.0 mm 0.00 in0.0 mm 0.00 in0.0 mm
12:48 PM 44.5°F6.9°C 37.4°F3.0°C 76% 14.0 mph NNW22.5 kmh NNW 16.0 mph25.7 kmh 30.17 in1021.7 mb 0.00 in0.0 mm 0.00 in0.0 mm 0.00 in0.0 mm
12:47 PM 44.5°F6.9°C 37.4°F3.0°C 76% 15.0 mph NNW24.1 kmh NNW 17.0 mph27.4 kmh 30.17 in1021.7 mb 0.00 in0.0 mm 0.00 in0.0 mm 0.00 in0.0 mm
12:46 PM 44.6°F7.0°C 37.5°F3.1°C 76% 14.0 mph NNW22.5 kmh NNW 16.0 mph25.7 kmh 30.17 in1021.7 mb 0.00 in0.0 mm 0.00 in0.0 mm 0.00 in0.0 mm
12:45 PM 44.6°F7.0°C 37.5°F3.1°C 76% 14.0 mph NNW22.5 kmh NNW 16.0 mph25.7 kmh 30.17 in1021.7 mb 0.00 in0.0 mm 0.00 in0.0 mm 0.00 in0.0 mm
12:44 PM 44.5°F6.9°C 37.4°F3.0°C 76% 14.0 mph NNW22.5 kmh NNW 16.0 mph25.7 kmh 30.17 in1021.7 mb 0.00 in0.0 mm 0.00 in0.0 mm 0.00 in0.0 mm
12:43 PM 44.5°F6.9°C 37.1°F2.8°C 75% 13.0 mph NNW20.9 kmh NNW 15.0 mph24.1 kmh 30.17 in1021.7 mb 0.00 in0.0 mm 0.00 in0.0 mm 0.00 in0.0 mm
12:42 PM 44.4°F6.9°C 37.0°F2.8°C 75% 15.0 mph NNW24.1 kmh NNW 16.0 mph25.7 kmh 30.17 in1021.7 mb 0.00 in0.0 mm 0.00 in0.0 mm 0.00 in0.0 mm
12:41 PM 44.4°F6.9°C 37.0°F2.8°C 75% 15.0 mph NNW24.1 kmh NNW 16.0 mph25.7 kmh 30.17 in1021.7 mb 0.00 in0.0 mm 0.00 in0.0 mm 0.00 in0.0 mm
12:40 PM 44.5°F6.9°C 37.1°F2.8°C 75% 13.0 mph NNW20.9 kmh NNW 16.0 mph25.7 kmh 30.17 in1021.7 mb 0.00 in0.0 mm 0.00 in0.0 mm 0.00 in0.0 mm
12:39 PM 44.4°F6.9°C 36.6°F2.6°C 74% 14.0 mph NNW22.5 kmh NNW 15.0 mph24.1 kmh 30.17 in1021.7 mb 0.00 in0.0 mm 0.00 in0.0 mm 0.00 in0.0 mm
12:38 PM 44.4°F6.9°C 37.0°F2.8°C 75% 14.0 mph NNW22.5 kmh NNW 16.0 mph25.7 kmh 30.17 in1021.7 mb 0.00 in0.0 mm 0.00 in0.0 mm 0.00 in0.0 mm
12:37 PM 44.5°F6.9°C 37.1°F2.8°C 75% 13.0 mph NNW20.9 kmh NNW 15.0 mph24.1 kmh 30.17 in1021.7 mb 0.00 in0.0 mm 0.00 in0.0 mm 0.00 in0.0 mm
12:36 PM 44.5°F6.9°C 37.1°F2.8°C 75% 14.0 mph NNW22.5 kmh NNW 15.0 mph24.1 kmh 30.17 in1021.7 mb 0.00 in0.0 mm 0.00 in0.0 mm 0.00 in0.0 mm
12:35 PM 44.5°F6.9°C 37.4°F3.0°C 76% 14.0 mph NNW22.5 kmh NNW 16.0 mph25.7 kmh 30.17 in1021.7 mb 0.00 in0.0 mm 0.00 in0.0 mm 0.00 in0.0 mm
12:34 PM 44.6°F7.0°C 37.5°F3.1°C 76% 14.0 mph NNW22.5 kmh NNW 16.0 mph25.7 kmh 30.17 in1021.7 mb 0.00 in0.0 mm 0.00 in0.0 mm 0.00 in0.0 mm
12:33 PM 44.5°F6.9°C 37.1°F2.8°C 75% 14.0 mph NNW22.5 kmh NNW 15.0 mph24.1 kmh 30.17 in1021.7 mb 0.00 in0.0 mm 0.00 in0.0 mm 0.00 in0.0 mm
12:32 PM 44.5°F6.9°C 37.1°F2.8°C 75% 14.0 mph NNW22.5 kmh NNW 16.0 mph25.7 kmh 30.17 in1021.7 mb 0.00 in0.0 mm 0.00 in0.0 mm 0.00 in0.0 mm
12:31 PM 44.4°F6.9°C 36.6°F2.6°C 74% 14.0 mph NNW22.5 kmh NNW 16.0 mph25.7 kmh 30.16 in1021.3 mb 0.00 in0.0 mm 0.00 in0.0 mm 0.00 in0.0 mm
12:30 PM 44.4°F6.9°C 37.0°F2.8°C 75% 15.0 mph NNW24.1 kmh NNW 16.0 mph25.7 kmh 30.17 in1021.7 mb 0.00 in0.0 mm 0.00 in0.0 mm 0.00 in0.0 mm
12:29 PM 44.4°F6.9°C 37.3°F2.9°C 76% 14.0 mph NNW22.5 kmh NNW 16.0 mph25.7 kmh 30.17 in1021.7 mb 0.00 in0.0 mm 0.00 in0.0 mm 0.00 in0.0 mm
12:28 PM 44.4°F6.9°C 37.0°F2.8°C 75% 14.0 mph NNW22.5 kmh NNW 16.0 mph25.7 kmh 30.16 in1021.3 mb 0.00 in0.0 mm 0.00 in0.0 mm 0.00 in0.0 mm
12:27 PM 44.4°F6.9°C 37.0°F2.8°C 75% 15.0 mph NNW24.1 kmh NNW 16.0 mph25.7 kmh 30.17 in1021.7 mb 0.00 in0.0 mm 0.00 in0.0 mm 0.00 in0.0 mm
12:26 PM 44.4°F6.9°C 37.0°F2.8°C 75% 16.0 mph NNW25.7 kmh NNW 19.0 mph30.6 kmh 30.17 in1021.7 mb 0.00 in0.0 mm 0.00 in0.0 mm 0.00 in0.0 mm
12:25 PM 44.4°F6.9°C 37.3°F2.9°C 76% 15.0 mph NNW24.1 kmh NNW 18.0 mph29.0 kmh 30.17 in1021.7 mb 0.00 in0.0 mm 0.00 in0.0 mm 0.00 in0.0 mm
12:24 PM 44.5°F6.9°C 37.4°F3.0°C 76% 13.0 mph NNW20.9 kmh NNW 16.0 mph25.7 kmh 30.16 in1021.3 mb 0.00 in0.0 mm 0.00 in0.0 mm 0.00 in0.0 mm
12:23 PM 44.5°F6.9°C 37.1°F2.8°C 75% 15.0 mph NNW24.1 kmh NNW 17.0 mph27.4 kmh 30.16 in1021.3 mb 0.00 in0.0 mm 0.00 in0.0 mm 0.00 in0.0 mm
12:22 PM 44.4°F6.9°C 37.0°F2.8°C 75% 15.0 mph NNW24.1 kmh NNW 17.0 mph27.4 kmh 30.17 in1021.7 mb 0.00 in0.0 mm 0.00 in0.0 mm 0.00 in0.0 mm
12:21 PM 44.3°F6.8°C 36.5°F2.5°C 74% 15.0 mph NNW24.1 kmh NNW 17.0 mph27.4 kmh 30.16 in1021.3 mb 0.00 in0.0 mm 0.00 in0.0 mm 0.00 in0.0 mm
12:20 PM 44.3°F6.8°C 36.5°F2.5°C 74% 16.0 mph NNW25.7 kmh NNW 17.0 mph27.4 kmh 30.17 in1021.7 mb 0.00 in0.0 mm 0.00 in0.0 mm 0.00 in0.0 mm
12:19 PM 44.3°F6.8°C 36.5°F2.5°C 74% 15.0 mph NNW24.1 kmh NNW 17.0 mph27.4 kmh 30.16 in1021.3 mb 0.00 in0.0 mm 0.00 in0.0 mm 0.00 in0.0 mm
12:18 PM 44.2°F6.8°C 36.8°F2.7°C 75% 16.0 mph NNW25.7 kmh NNW 18.0 mph29.0 kmh 30.16 in1021.3 mb 0.00 in0.0 mm 0.00 in0.0 mm 0.00 in0.0 mm
12:17 PM 44.2°F6.8°C 36.8°F2.7°C 75% 15.0 mph NNW24.1 kmh NNW 17.0 mph27.4 kmh 30.16 in1021.3 mb 0.00 in0.0 mm 0.00 in0.0 mm 0.00 in0.0 mm
12:16 PM 44.3°F6.8°C 36.9°F2.7°C 75% 15.0 mph NNW24.1 kmh NNW 18.0 mph29.0 kmh 30.16 in1021.3 mb 0.00 in0.0 mm 0.00 in0.0 mm 0.00 in0.0 mm
12:15 PM 44.3°F6.8°C 36.9°F2.7°C 75% 17.0 mph NNW27.4 kmh NNW 18.0 mph29.0 kmh 30.16 in1021.3 mb 0.00 in0.0 mm 0.00 in0.0 mm 0.00 in0.0 mm
12:14 PM 44.2°F6.8°C 36.8°F2.7°C 75% 17.0 mph NNW27.4 kmh NNW 18.0 mph29.0 kmh 30.16 in1021.3 mb 0.00 in0.0 mm 0.00 in0.0 mm 0.00 in0.0 mm
12:13 PM 44.2°F6.8°C 36.8°F2.7°C 75% 17.0 mph NNW27.4 kmh NNW 19.0 mph30.6 kmh 30.16 in1021.3 mb 0.00 in0.0 mm 0.00 in0.0 mm 0.00 in0.0 mm
12:12 PM 44.2°F6.8°C 37.1°F2.8°C 76% 16.0 mph NNW25.7 kmh NNW 18.0 mph29.0 kmh 30.16 in1021.3 mb 0.00 in0.0 mm 0.00 in0.0 mm 0.00 in0.0 mm
12:11 PM 44.3°F6.8°C 37.2°F2.9°C 76% 15.0 mph NNW24.1 kmh NNW 18.0 mph29.0 kmh 30.16 in1021.3 mb 0.00 in0.0 mm 0.00 in0.0 mm 0.00 in0.0 mm
12:10 PM 44.3°F6.8°C 37.2°F2.9°C 76% 16.0 mph NNW25.7 kmh NNW 18.0 mph29.0 kmh 30.16 in1021.3 mb 0.00 in0.0 mm 0.00 in0.0 mm 0.00 in0.0 mm
12:09 PM 44.2°F6.8°C 37.1°F2.8°C 76% 15.0 mph NNW24.1 kmh NNW 17.0 mph27.4 kmh 30.16 in1021.3 mb 0.00 in0.0 mm 0.00 in0.0 mm 0.00 in0.0 mm
12:08 PM 44.2°F6.8°C 36.8°F2.7°C 75% 16.0 mph NNW25.7 kmh NNW 18.0 mph29.0 kmh 30.17 in1021.7 mb 0.00 in0.0 mm 0.00 in0.0 mm 0.00 in0.0 mm
12:07 PM 44.2°F6.8°C 36.8°F2.7°C 75% 18.0 mph NNW29.0 kmh NNW 20.0 mph32.2 kmh 30.17 in1021.7 mb 0.00 in0.0 mm 0.00 in0.0 mm 0.00 in0.0 mm
12:06 PM 44.2°F6.8°C 36.8°F2.7°C 75% 17.0 mph NNW27.4 kmh NNW 18.0 mph29.0 kmh 30.17 in1021.7 mb 0.00 in0.0 mm 0.00 in0.0 mm 0.00 in0.0 mm
12:05 PM 44.1°F6.7°C 36.7°F2.6°C 75% 17.0 mph NNW27.4 kmh NNW 18.0 mph29.0 kmh 30.17 in1021.7 mb 0.00 in0.0 mm 0.00 in0.0 mm 0.00 in0.0 mm
12:04 PM 44.0°F6.7°C 36.6°F2.6°C 75% 18.0 mph NNW29.0 kmh NNW 20.0 mph32.2 kmh 30.16 in1021.3 mb 0.00 in0.0 mm 0.00 in0.0 mm 0.00 in0.0 mm
12:03 PM 44.0°F6.7°C 36.6°F2.6°C 75% 17.0 mph NNW27.4 kmh NNW 19.0 mph30.6 kmh 30.16 in1021.3 mb 0.00 in0.0 mm 0.00 in0.0 mm 0.00 in0.0 mm
12:02 PM 44.0°F6.7°C 36.6°F2.6°C 75% 17.0 mph NW27.4 kmh NW 20.0 mph32.2 kmh 30.16 in1021.3 mb 0.00 in0.0 mm 0.00 in0.0 mm 0.00 in0.0 mm
12:01 PM 44.0°F6.7°C 36.6°F2.6°C 75% 17.0 mph NNW27.4 kmh NNW 20.0 mph32.2 kmh 30.16 in1021.3 mb 0.00 in0.0 mm 0.00 in0.0 mm 0.00 in0.0 mm
12:00 PM 44.0°F6.7°C 36.9°F2.7°C 76% 18.0 mph NW29.0 kmh NW 20.0 mph32.2 kmh 30.16 in1021.3 mb 0.00 in0.0 mm 0.00 in0.0 mm 0.00 in0.0 mm
11:59 AM 44.0°F6.7°C 36.6°F2.6°C 75% 18.0 mph NNW29.0 kmh NNW 19.0 mph30.6 kmh 30.16 in1021.3 mb 0.00 in0.0 mm 0.00 in0.0 mm 0.00 in0.0 mm
11:58 AM 44.0°F6.7°C 36.9°F2.7°C 76% 19.0 mph NNW30.6 kmh NNW 21.0 mph33.8 kmh 30.16 in1021.3 mb 0.00 in0.0 mm 0.00 in0.0 mm 0.00 in0.0 mm
11:57 AM 44.0°F6.7°C 36.9°F2.7°C 76% 17.0 mph NNW27.4 kmh NNW 19.0 mph30.6 kmh 30.16 in1021.3 mb 0.00 in0.0 mm 0.00 in0.0 mm 0.00 in0.0 mm
11:56 AM 44.0°F6.7°C 36.9°F2.7°C 76% 18.0 mph NNW29.0 kmh NNW 20.0 mph32.2 kmh 30.16 in1021.3 mb 0.00 in0.0 mm 0.00 in0.0 mm 0.00 in0.0 mm
11:55 AM 43.9°F6.6°C 36.8°F2.7°C 76% 18.0 mph NNW29.0 kmh NNW 20.0 mph32.2 kmh 30.16 in1021.3 mb 0.00 in0.0 mm 0.00 in0.0 mm 0.00 in0.0 mm
11:54 AM 43.9°F6.6°C 36.8°F2.7°C 76% 18.0 mph NW29.0 kmh NW 19.0 mph30.6 kmh 30.16 in1021.3 mb 0.00 in0.0 mm 0.00 in0.0 mm 0.00 in0.0 mm
11:53 AM 43.9°F6.6°C 36.8°F2.7°C 76% 19.0 mph NNW30.6 kmh NNW 20.0 mph32.2 kmh 30.16 in1021.3 mb 0.00 in0.0 mm 0.00 in0.0 mm 0.00 in0.0 mm
11:52 AM 43.9°F6.6°C 36.8°F2.7°C 76% 19.0 mph NNW30.6 kmh NNW 21.0 mph33.8 kmh 30.16 in1021.3 mb 0.00 in0.0 mm 0.00 in0.0 mm 0.00 in0.0 mm
11:51 AM 43.9°F6.6°C 36.8°F2.7°C 76% 18.0 mph NNW29.0 kmh NNW 20.0 mph32.2 kmh 30.17 in1021.7 mb 0.00 in0.0 mm 0.00 in0.0 mm 0.00 in0.0 mm
11:50 AM 43.9°F6.6°C 36.8°F2.7°C 76% 19.0 mph NNW30.6 kmh NNW 21.0 mph33.8 kmh 30.16 in1021.3 mb 0.00 in0.0 mm 0.00 in0.0 mm 0.00 in0.0 mm
11:49 AM 43.9°F6.6°C 36.8°F2.7°C 76% 19.0 mph NNW30.6 kmh NNW 21.0 mph33.8 kmh 30.16 in1021.3 mb 0.00 in0.0 mm 0.00 in0.0 mm 0.00 in0.0 mm
11:48 AM 43.9°F6.6°C 37.2°F2.9°C 77% 19.0 mph NNW30.6 kmh NNW 20.0 mph32.2 kmh 30.16 in1021.3 mb 0.00 in0.0 mm 0.00 in0.0 mm 0.00 in0.0 mm
11:47 AM 43.9°F6.6°C 36.8°F2.7°C 76% 18.0 mph NNW29.0 kmh NNW 20.0 mph32.2 kmh 30.16 in1021.3 mb 0.00 in0.0 mm 0.00 in0.0 mm 0.00 in0.0 mm
11:46 AM 43.9°F6.6°C 37.2°F2.9°C 77% 17.0 mph NNW27.4 kmh NNW 19.0 mph30.6 kmh 30.16 in1021.3 mb 0.00 in0.0 mm 0.00 in0.0 mm 0.00 in0.0 mm
11:45 AM 43.9°F6.6°C 36.8°F2.7°C 76% 19.0 mph NNW30.6 kmh NNW 21.0 mph33.8 kmh 30.16 in1021.3 mb 0.00 in0.0 mm 0.00 in0.0 mm 0.00 in0.0 mm
11:44 AM 43.9°F6.6°C 36.8°F2.7°C 76% 20.0 mph NNW32.2 kmh NNW 22.0 mph35.4 kmh 30.16 in1021.3 mb 0.00 in0.0 mm 0.00 in0.0 mm 0.00 in0.0 mm
11:43 AM 43.9°F6.6°C 36.5°F2.5°C 75% 19.0 mph NNW30.6 kmh NNW 20.0 mph32.2 kmh 30.16 in1021.3 mb 0.00 in0.0 mm 0.00 in0.0 mm 0.00 in0.0 mm
11:42 AM 43.9°F6.6°C 36.5°F2.5°C 75% 20.0 mph NNW32.2 kmh NNW 22.0 mph35.4 kmh 30.16 in1021.3 mb 0.00 in0.0 mm 0.00 in0.0 mm 0.00 in0.0 mm
11:41 AM 43.8°F6.6°C 36.7°F2.6°C 76% 20.0 mph NNW32.2 kmh NNW 22.0 mph35.4 kmh 30.16 in1021.3 mb 0.00 in0.0 mm 0.00 in0.0 mm 0.00 in0.0 mm
11:40 AM 43.8°F6.6°C 37.1°F2.8°C 77% 18.0 mph NNW29.0 kmh NNW 20.0 mph32.2 kmh 30.16 in1021.3 mb 0.00 in0.0 mm 0.00 in0.0 mm 0.00 in0.0 mm
11:39 AM 43.9°F6.6°C 36.8°F2.7°C 76% 17.0 mph NNW27.4 kmh NNW 20.0 mph32.2 kmh 30.16 in1021.3 mb 0.00 in0.0 mm 0.00 in0.0 mm 0.00 in0.0 mm
11:38 AM 43.8°F6.6°C 36.7°F2.6°C 76% 19.0 mph NNW30.6 kmh NNW 21.0 mph33.8 kmh 30.16 in1021.3 mb 0.00 in0.0 mm 0.00 in0.0 mm 0.00 in0.0 mm
11:37 AM 43.8°F6.6°C 36.7°F2.6°C 76% 20.0 mph NNW32.2 kmh NNW 22.0 mph35.4 kmh 30.16 in1021.3 mb 0.00 in0.0 mm 0.00 in0.0 mm 0.00 in0.0 mm
11:36 AM 43.8°F6.6°C 36.7°F2.6°C 76% 20.0 mph NNW32.2 kmh NNW 22.0 mph35.4 kmh 30.16 in1021.3 mb 0.00 in0.0 mm 0.00 in0.0 mm 0.00 in0.0 mm
11:35 AM 43.8°F6.6°C 36.7°F2.6°C 76% 18.0 mph NNW29.0 kmh NNW 20.0 mph32.2 kmh 30.16 in1021.3 mb 0.00 in0.0 mm 0.00 in0.0 mm 0.00 in0.0 mm
11:34 AM 43.8°F6.6°C 36.7°F2.6°C 76% 19.0 mph NNW30.6 kmh NNW 21.0 mph33.8 kmh 30.16 in1021.3 mb 0.00 in0.0 mm 0.00 in0.0 mm 0.00 in0.0 mm
11:33 AM 43.8°F6.6°C 36.7°F2.6°C 76% 17.0 mph NNW27.4 kmh NNW 19.0 mph30.6 kmh 30.16 in1021.3 mb 0.00 in0.0 mm 0.00 in0.0 mm 0.00 in0.0 mm
11:32 AM 43.7°F6.5°C 36.6°F2.6°C 76% 18.0 mph NNW29.0 kmh NNW 20.0 mph32.2 kmh 30.16 in1021.3 mb 0.00 in0.0 mm 0.00 in0.0 mm 0.00 in0.0 mm
11:31 AM 43.7°F6.5°C 37.0°F2.8°C 77% 19.0 mph NNW30.6 kmh NNW 21.0 mph33.8 kmh 30.16 in1021.3 mb 0.00 in0.0 mm 0.00 in0.0 mm 0.00 in0.0 mm
11:30 AM 43.7°F6.5°C 36.6°F2.6°C 76% 19.0 mph NNW30.6 kmh NNW 21.0 mph33.8 kmh 30.16 in1021.3 mb 0.00 in0.0 mm 0.00 in0.0 mm 0.00 in0.0 mm
11:29 AM 43.7°F6.5°C 37.0°F2.8°C 77% 19.0 mph NNW30.6 kmh NNW 21.0 mph33.8 kmh 30.16 in1021.3 mb 0.00 in0.0 mm 0.00 in0.0 mm 0.00 in0.0 mm
11:28 AM 43.7°F6.5°C 37.0°F2.8°C 77% 17.0 mph NNW27.4 kmh NNW 19.0 mph30.6 kmh 30.16 in1021.3 mb 0.00 in0.0 mm 0.00 in0.0 mm 0.00 in0.0 mm
11:27 AM 43.7°F6.5°C 36.6°F2.6°C 76% 19.0 mph NNW30.6 kmh NNW 21.0 mph33.8 kmh 30.16 in1021.3 mb 0.00 in0.0 mm 0.00 in0.0 mm 0.00 in0.0 mm
11:26 AM 43.7°F6.5°C 37.0°F2.8°C 77% 19.0 mph NNW30.6 kmh NNW 22.0 mph35.4 kmh 30.16 in1021.3 mb 0.00 in0.0 mm 0.00 in0.0 mm 0.00 in0.0 mm
11:25 AM 43.7°F6.5°C 36.6°F2.6°C 76% 20.0 mph NNW32.2 kmh NNW 22.0 mph35.4 kmh 30.16 in1021.3 mb 0.00 in0.0 mm 0.00 in0.0 mm 0.00 in0.0 mm
11:24 AM 43.6°F6.4°C 36.5°F2.5°C 76% 20.0 mph NNW32.2 kmh NNW 21.0 mph33.8 kmh 30.16 in1021.3 mb 0.00 in0.0 mm 0.00 in0.0 mm 0.00 in0.0 mm
11:23 AM 43.6°F6.4°C 36.5°F2.5°C 76% 21.0 mph NNW33.8 kmh NNW 22.0 mph35.4 kmh 30.16 in1021.3 mb 0.00 in0.0 mm 0.00 in0.0 mm 0.00 in0.0 mm
11:22 AM 43.7°F6.5°C 36.6°F2.6°C 76% 22.0 mph NNW35.4 kmh NNW 24.0 mph38.6 kmh 30.16 in1021.3 mb 0.00 in0.0 mm 0.00 in0.0 mm 0.00 in0.0 mm
11:21 AM 43.7°F6.5°C 36.6°F2.6°C 76% 20.0 mph NNW32.2 kmh NNW 23.0 mph37.0 kmh 30.16 in1021.3 mb 0.00 in0.0 mm 0.00 in0.0 mm 0.00 in0.0 mm
11:20 AM 43.8°F6.6°C 36.7°F2.6°C 76% 20.0 mph NNW32.2 kmh NNW 23.0 mph37.0 kmh 30.16 in1021.3 mb 0.00 in0.0 mm 0.00 in0.0 mm 0.00 in0.0 mm
11:19 AM 43.7°F6.5°C 37.0°F2.8°C 77% 21.0 mph NNW33.8 kmh NNW 22.0 mph35.4 kmh 30.16 in1021.3 mb 0.00 in0.0 mm 0.00 in0.0 mm 0.00 in0.0 mm
11:18 AM 43.7°F6.5°C 37.0°F2.8°C 77% 18.0 mph NNW29.0 kmh NNW 21.0 mph33.8 kmh 30.16 in1021.3 mb 0.00 in0.0 mm 0.00 in0.0 mm 0.00 in0.0 mm
11:17 AM 43.7°F6.5°C 37.0°F2.8°C 77% 18.0 mph NNW29.0 kmh NNW 20.0 mph32.2 kmh 30.16 in1021.3 mb 0.00 in0.0 mm 0.00 in0.0 mm 0.00 in0.0 mm
11:16 AM 43.7°F6.5°C 36.6°F2.6°C 76% 18.0 mph NNW29.0 kmh NNW 21.0 mph33.8 kmh 30.16 in1021.3 mb 0.00 in0.0 mm 0.00 in0.0 mm 0.00 in0.0 mm
11:15 AM 43.7°F6.5°C 36.6°F2.6°C 76% 19.0 mph NNW30.6 kmh NNW 20.0 mph32.2 kmh 30.16 in1021.3 mb 0.00 in0.0 mm 0.00 in0.0 mm 0.00 in0.0 mm
11:14 AM 43.7°F6.5°C 36.6°F2.6°C 76% 19.0 mph NNW30.6 kmh NNW 22.0 mph35.4 kmh 30.16 in1021.3 mb 0.00 in0.0 mm 0.00 in0.0 mm 0.00 in0.0 mm
11:13 AM 43.7°F6.5°C 36.6°F2.6°C 76% 20.0 mph NNW32.2 kmh NNW 22.0 mph35.4 kmh 30.16 in1021.3 mb 0.00 in0.0 mm 0.00 in0.0 mm 0.00 in0.0 mm
11:12 AM 43.7°F6.5°C 36.6°F2.6°C 76% 21.0 mph NNW33.8 kmh NNW 24.0 mph38.6 kmh 30.16 in1021.3 mb 0.00 in0.0 mm 0.00 in0.0 mm 0.00 in0.0 mm
11:11 AM 43.6°F6.4°C 36.5°F2.5°C 76% 22.0 mph NNW35.4 kmh NNW 24.0 mph38.6 kmh 30.16 in1021.3 mb 0.00 in0.0 mm 0.00 in0.0 mm 0.00 in0.0 mm
11:10 AM 43.6°F6.4°C 36.5°F2.5°C 76% 22.0 mph NNW35.4 kmh NNW 24.0 mph38.6 kmh 30.16 in1021.3 mb 0.00 in0.0 mm 0.00 in0.0 mm 0.00 in0.0 mm
11:09 AM 43.7°F6.5°C 37.0°F2.8°C 77% 19.0 mph NNW30.6 kmh NNW 23.0 mph37.0 kmh 30.16 in1021.3 mb 0.00 in0.0 mm 0.00 in0.0 mm 0.00 in0.0 mm
11:08 AM 43.6°F6.4°C 36.5°F2.5°C 76% 19.0 mph NNW30.6 kmh NNW 21.0 mph33.8 kmh 30.16 in1021.3 mb 0.00 in0.0 mm 0.00 in0.0 mm 0.00 in0.0 mm
11:07 AM 43.7°F6.5°C 37.0°F2.8°C 77% 19.0 mph NNW30.6 kmh NNW 21.0 mph33.8 kmh 30.16 in1021.3 mb 0.00 in0.0 mm 0.00 in0.0 mm 0.00 in0.0 mm
11:06 AM 43.7°F6.5°C 37.0°F2.8°C 77% 18.0 mph NNW29.0 kmh NNW 19.0 mph30.6 kmh 30.16 in1021.3 mb 0.00 in0.0 mm 0.00 in0.0 mm 0.00 in0.0 mm
11:05 AM 43.7°F6.5°C 36.6°F2.6°C 76% 19.0 mph NNW30.6 kmh NNW 21.0 mph33.8 kmh 30.16 in1021.3 mb 0.00 in0.0 mm 0.00 in0.0 mm 0.00 in0.0 mm
11:04 AM 43.6°F6.4°C 36.5°F2.5°C 76% 20.0 mph NNW32.2 kmh NNW 24.0 mph38.6 kmh 30.16 in1021.3 mb 0.00 in0.0 mm 0.00 in0.0 mm 0.00 in0.0 mm
11:03 AM 43.6°F6.4°C 36.5°F2.5°C 76% 18.0 mph NNW29.0 kmh NNW 20.0 mph32.2 kmh 30.16 in1021.3 mb 0.00 in0.0 mm 0.00 in0.0 mm 0.00 in0.0 mm
11:02 AM 43.6°F6.4°C 36.5°F2.5°C 76% 21.0 mph NNW33.8 kmh NNW 22.0 mph35.4 kmh 30.16 in1021.3 mb 0.00 in0.0 mm 0.00 in0.0 mm 0.00 in0.0 mm
11:01 AM 43.6°F6.4°C 36.5°F2.5°C 76% 21.0 mph NNW33.8 kmh NNW 23.0 mph37.0 kmh 30.16 in1021.3 mb 0.00 in0.0 mm 0.00 in0.0 mm 0.00 in0.0 mm
11:00 AM 43.6°F6.4°C 36.5°F2.5°C 76% 20.0 mph NNW32.2 kmh NNW 21.0 mph33.8 kmh 30.16 in1021.3 mb 0.00 in0.0 mm 0.00 in0.0 mm 0.00 in0.0 mm
10:59 AM 43.6°F6.4°C 36.5°F2.5°C 76% 20.0 mph NNW32.2 kmh NNW 22.0 mph35.4 kmh 30.16 in1021.3 mb 0.00 in0.0 mm 0.00 in0.0 mm 0.00 in0.0 mm
10:58 AM 43.6°F6.4°C 36.5°F2.5°C 76% 21.0 mph NNW33.8 kmh NNW 25.0 mph40.2 kmh 30.16 in1021.3 mb 0.00 in0.0 mm 0.00 in0.0 mm 0.00 in0.0 mm
10:57 AM 43.6°F6.4°C 36.5°F2.5°C 76% 20.0 mph NNW32.2 kmh NNW 24.0 mph38.6 kmh 30.16 in1021.3 mb 0.00 in0.0 mm 0.00 in0.0 mm 0.00 in0.0 mm
10:56 AM 43.6°F6.4°C 36.5°F2.5°C 76% 22.0 mph NNW35.4 kmh NNW 24.0 mph38.6 kmh 30.16 in1021.3 mb 0.00 in0.0 mm 0.00 in0.0 mm 0.00 in0.0 mm
10:55 AM 43.6°F6.4°C 36.5°F2.5°C 76% 20.0 mph NNW32.2 kmh NNW 23.0 mph37.0 kmh 30.16 in1021.3 mb 0.00 in0.0 mm 0.00 in0.0 mm 0.00 in0.0 mm
10:54 AM 43.6°F6.4°C 36.5°F2.5°C 76% 21.0 mph NNW33.8 kmh NNW 24.0 mph38.6 kmh 30.16 in1021.3 mb 0.00 in0.0 mm 0.00 in0.0 mm 0.00 in0.0 mm
10:53 AM 43.6°F6.4°C 36.5°F2.5°C 76% 21.0 mph NNW33.8 kmh NNW 23.0 mph37.0 kmh 30.16 in1021.3 mb 0.00 in0.0 mm 0.00 in0.0 mm 0.00 in0.0 mm
10:52 AM 43.6°F6.4°C 36.5°F2.5°C 76% 20.0 mph NNW32.2 kmh NNW 24.0 mph38.6 kmh 30.16 in1021.3 mb 0.00 in0.0 mm 0.00 in0.0 mm 0.00 in0.0 mm
10:51 AM 43.6°F6.4°C 36.5°F2.5°C 76% 22.0 mph NNW35.4 kmh NNW 24.0 mph38.6 kmh 30.16 in1021.3 mb 0.00 in0.0 mm 0.00 in0.0 mm 0.00 in0.0 mm
10:50 AM 43.6°F6.4°C 36.5°F2.5°C 76% 22.0 mph NNW35.4 kmh NNW 24.0 mph38.6 kmh 30.16 in1021.3 mb 0.00 in0.0 mm 0.00 in0.0 mm 0.00 in0.0 mm
10:49 AM 43.6°F6.4°C 36.5°F2.5°C 76% 20.0 mph NNW32.2 kmh NNW 22.0 mph35.4 kmh 30.16 in1021.3 mb 0.00 in0.0 mm 0.00 in0.0 mm 0.00 in0.0 mm
10:48 AM 43.6°F6.4°C 36.5°F2.5°C 76% 21.0 mph NNW33.8 kmh NNW 24.0 mph38.6 kmh 30.16 in1021.3 mb 0.00 in0.0 mm 0.00 in0.0 mm 0.00 in0.0 mm
10:47 AM 43.5°F6.4°C 36.4°F2.4°C 76% 23.0 mph NNW37.0 kmh NNW 25.0 mph40.2 kmh 30.16 in1021.3 mb 0.00 in0.0 mm 0.00 in0.0 mm 0.00 in0.0 mm
10:46 AM 43.5°F6.4°C 36.4°F2.4°C 76% 23.0 mph NNW37.0 kmh NNW 25.0 mph40.2 kmh 30.16 in1021.3 mb 0.00 in0.0 mm 0.00 in0.0 mm 0.00 in0.0 mm
10:45 AM 43.6°F6.4°C 36.5°F2.5°C 76% 21.0 mph NNW33.8 kmh NNW 24.0 mph38.6 kmh 30.16 in1021.3 mb 0.00 in0.0 mm 0.00 in0.0 mm 0.00 in0.0 mm
10:44 AM 43.6°F6.4°C 36.5°F2.5°C 76% 22.0 mph NNW35.4 kmh NNW 24.0 mph38.6 kmh 30.16 in1021.3 mb 0.00 in0.0 mm 0.00 in0.0 mm 0.00 in0.0 mm
10:43 AM 43.5°F6.4°C 36.4°F2.4°C 76% 22.0 mph NNW35.4 kmh NNW 24.0 mph38.6 kmh 30.16 in1021.3 mb 0.00 in0.0 mm 0.00 in0.0 mm 0.00 in0.0 mm
10:42 AM 43.5°F6.4°C 36.4°F2.4°C 76% 22.0 mph NNW35.4 kmh NNW 25.0 mph40.2 kmh 30.16 in1021.3 mb 0.00 in0.0 mm 0.00 in0.0 mm 0.00 in0.0 mm
10:41 AM 43.6°F6.4°C 36.5°F2.5°C 76% 22.0 mph NNW35.4 kmh NNW 24.0 mph38.6 kmh 30.16 in1021.3 mb 0.00 in0.0 mm 0.00 in0.0 mm 0.00 in0.0 mm
10:40 AM 43.6°F6.4°C 36.5°F2.5°C 76% 22.0 mph NNW35.4 kmh NNW 25.0 mph40.2 kmh 30.16 in1021.3 mb 0.00 in0.0 mm 0.00 in0.0 mm 0.00 in0.0 mm
10:39 AM 43.6°F6.4°C 36.9°F2.7°C 77% 19.0 mph NNW30.6 kmh NNW 22.0 mph35.4 kmh 30.16 in1021.3 mb 0.00 in0.0 mm 0.00 in0.0 mm 0.00 in0.0 mm
10:38 AM 43.6°F6.4°C 36.5°F2.5°C 76% 19.0 mph NNW30.6 kmh NNW 21.0 mph33.8 kmh 30.16 in1021.3 mb 0.00 in0.0 mm 0.00 in0.0 mm 0.00 in0.0 mm
10:37 AM 43.6°F6.4°C 36.5°F2.5°C 76% 20.0 mph NNW32.2 kmh NNW 23.0 mph37.0 kmh 30.16 in1021.3 mb 0.00 in0.0 mm 0.00 in0.0 mm 0.00 in0.0 mm
10:36 AM 43.6°F6.4°C 36.5°F2.5°C 76% 20.0 mph NNW32.2 kmh NNW 23.0 mph37.0 kmh 30.16 in1021.3 mb 0.00 in0.0 mm 0.00 in0.0 mm 0.00 in0.0 mm
10:35 AM 43.5°F6.4°C 36.4°F2.4°C 76% 21.0 mph NNW33.8 kmh NNW 24.0 mph38.6 kmh 30.16 in1021.3 mb 0.00 in0.0 mm 0.00 in0.0 mm 0.00 in0.0 mm
10:34 AM 43.5°F6.4°C 36.4°F2.4°C 76% 22.0 mph NNW35.4 kmh NNW 25.0 mph40.2 kmh 30.16 in1021.3 mb 0.00 in0.0 mm 0.00 in0.0 mm 0.00 in0.0 mm
10:33 AM 43.5°F6.4°C 36.4°F2.4°C 76% 22.0 mph NNW35.4 kmh NNW 24.0 mph38.6 kmh 30.16 in1021.3 mb 0.00 in0.0 mm 0.00 in0.0 mm 0.00 in0.0 mm
10:32 AM 43.5°F6.4°C 36.4°F2.4°C 76% 22.0 mph NNW35.4 kmh NNW 24.0 mph38.6 kmh 30.16 in1021.3 mb 0.00 in0.0 mm 0.00 in0.0 mm 0.00 in0.0 mm
10:31 AM 43.4°F6.3°C 36.7°F2.6°C 77% 22.0 mph NNW35.4 kmh NNW 24.0 mph38.6 kmh 30.16 in1021.3 mb 0.00 in0.0 mm 0.00 in0.0 mm 0.00 in0.0 mm
10:30 AM 43.5°F6.4°C 36.8°F2.7°C 77% 21.0 mph NNW33.8 kmh NNW 24.0 mph38.6 kmh 30.16 in1021.3 mb 0.00 in0.0 mm 0.00 in0.0 mm 0.00 in0.0 mm
10:29 AM 43.5°F6.4°C 36.4°F2.4°C 76% 22.0 mph NNW35.4 kmh NNW 24.0 mph38.6 kmh 30.16 in1021.3 mb 0.00 in0.0 mm 0.00 in0.0 mm 0.00 in0.0 mm
10:28 AM 43.5°F6.4°C 36.8°F2.7°C 77% 20.0 mph NNW32.2 kmh NNW 22.0 mph35.4 kmh 30.16 in1021.3 mb 0.00 in0.0 mm 0.00 in0.0 mm 0.00 in0.0 mm
10:27 AM 43.6°F6.4°C 36.9°F2.7°C 77% 20.0 mph NNW32.2 kmh NNW 23.0 mph37.0 kmh 30.16 in1021.3 mb 0.00 in0.0 mm 0.00 in0.0 mm 0.00 in0.0 mm
10:26 AM 43.5°F6.4°C 36.4°F2.4°C 76% 19.0 mph NNW30.6 kmh NNW 21.0 mph33.8 kmh 30.16 in1021.3 mb 0.00 in0.0 mm 0.00 in0.0 mm 0.00 in0.0 mm
10:25 AM 43.4°F6.3°C 36.7°F2.6°C 77% 22.0 mph NNW35.4 kmh NNW 24.0 mph38.6 kmh 30.16 in1021.3 mb 0.00 in0.0 mm 0.00 in0.0 mm 0.00 in0.0 mm
10:24 AM 43.4°F6.3°C 36.3°F2.4°C 76% 21.0 mph NNW33.8 kmh NNW 24.0 mph38.6 kmh 30.16 in1021.3 mb 0.00 in0.0 mm 0.00 in0.0 mm 0.00 in0.0 mm
10:23 AM 43.4°F6.3°C 36.3°F2.4°C 76% 23.0 mph NNW37.0 kmh NNW 25.0 mph40.2 kmh 30.16 in1021.3 mb 0.00 in0.0 mm 0.00 in0.0 mm 0.00 in0.0 mm
10:22 AM 43.4°F6.3°C 36.3°F2.4°C 76% 22.0 mph NNW35.4 kmh NNW 25.0 mph40.2 kmh 30.16 in1021.3 mb 0.00 in0.0 mm 0.00 in0.0 mm 0.00 in0.0 mm
10:21 AM 43.4°F6.3°C 36.7°F2.6°C 77% 20.0 mph NNW32.2 kmh NNW 23.0 mph37.0 kmh 30.15 in1021.0 mb 0.00 in0.0 mm 0.00 in0.0 mm 0.00 in0.0 mm
10:20 AM 43.4°F6.3°C 36.7°F2.6°C 77% 21.0 mph NNW33.8 kmh NNW 23.0 mph37.0 kmh 30.15 in1021.0 mb 0.00 in0.0 mm 0.00 in0.0 mm 0.00 in0.0 mm
10:19 AM 43.3°F6.3°C 36.3°F2.4°C 76% 20.0 mph NNW32.2 kmh NNW 23.0 mph37.0 kmh 30.16 in1021.3 mb 0.00 in0.0 mm 0.00 in0.0 mm 0.00 in0.0 mm
10:18 AM 43.3°F6.3°C 36.3°F2.4°C 76% 23.0 mph NNW37.0 kmh NNW 25.0 mph40.2 kmh 30.16 in1021.3 mb 0.00 in0.0 mm 0.00 in0.0 mm 0.00 in0.0 mm
10:17 AM 43.3°F6.3°C 36.3°F2.4°C 76% 20.0 mph NNW32.2 kmh NNW 23.0 mph37.0 kmh 30.15 in1021.0 mb 0.00 in0.0 mm 0.00 in0.0 mm 0.00 in0.0 mm
10:16 AM 43.3°F6.3°C 36.3°F2.4°C 76% 23.0 mph NNW37.0 kmh NNW 26.0 mph41.8 kmh 30.15 in1021.0 mb 0.00 in0.0 mm 0.00 in0.0 mm 0.00 in0.0 mm
10:15 AM 43.2°F6.2°C 36.2°F2.3°C 76% 23.0 mph NNW37.0 kmh NNW 25.0 mph40.2 kmh 30.15 in1021.0 mb 0.00 in0.0 mm 0.00 in0.0 mm 0.00 in0.0 mm
10:14 AM 43.3°F6.3°C 36.6°F2.6°C 77% 23.0 mph NNW37.0 kmh NNW 24.0 mph38.6 kmh 30.15 in1021.0 mb 0.00 in0.0 mm 0.00 in0.0 mm 0.00 in0.0 mm
10:13 AM 43.3°F6.3°C 36.3°F2.4°C 76% 21.0 mph NNW33.8 kmh NNW 23.0 mph37.0 kmh 30.15 in1021.0 mb 0.00 in0.0 mm 0.00 in0.0 mm 0.00 in0.0 mm
10:12 AM 43.3°F6.3°C 36.3°F2.4°C 76% 22.0 mph NNW35.4 kmh NNW 26.0 mph41.8 kmh 30.15 in1021.0 mb 0.00 in0.0 mm 0.00 in0.0 mm 0.00 in0.0 mm
10:11 AM 43.3°F6.3°C 36.3°F2.4°C 76% 23.0 mph NNW37.0 kmh NNW 25.0 mph40.2 kmh 30.15 in1021.0 mb 0.00 in0.0 mm 0.00 in0.0 mm 0.00 in0.0 mm
10:10 AM 43.3°F6.3°C 36.3°F2.4°C 76% 22.0 mph NNW35.4 kmh NNW 25.0 mph40.2 kmh 30.15 in1021.0 mb 0.00 in0.0 mm 0.00 in0.0 mm 0.00 in0.0 mm
10:09 AM 43.3°F6.3°C 36.3°F2.4°C 76% 22.0 mph NNW35.4 kmh NNW 24.0 mph38.6 kmh 30.15 in1021.0 mb 0.00 in0.0 mm 0.00 in0.0 mm 0.00 in0.0 mm
10:08 AM 43.2°F6.2°C 36.5°F2.5°C 77% 23.0 mph NNW37.0 kmh NNW 26.0 mph41.8 kmh 30.15 in1021.0 mb 0.00 in0.0 mm 0.00 in0.0 mm 0.00 in0.0 mm
10:07 AM 43.3°F6.3°C 36.6°F2.6°C 77% 23.0 mph NNW37.0 kmh NNW 25.0 mph40.2 kmh 30.15 in1021.0 mb 0.00 in0.0 mm 0.00 in0.0 mm 0.00 in0.0 mm
10:06 AM 43.3°F6.3°C 36.6°F2.6°C 77% 21.0 mph NNW33.8 kmh NNW 25.0 mph40.2 kmh 30.15 in1021.0 mb 0.00 in0.0 mm 0.00 in0.0 mm 0.00 in0.0 mm
10:05 AM 43.3°F6.3°C 36.6°F2.6°C 77% 22.0 mph NNW35.4 kmh NNW 23.0 mph37.0 kmh 30.15 in1021.0 mb 0.00 in0.0 mm 0.00 in0.0 mm 0.00 in0.0 mm
10:04 AM 43.2°F6.2°C 36.2°F2.3°C 76% 24.0 mph NNW38.6 kmh NNW 27.0 mph43.5 kmh 30.15 in1021.0 mb 0.00 in0.0 mm 0.00 in0.0 mm 0.00 in0.0 mm
10:03 AM 43.2°F6.2°C 36.2°F2.3°C 76% 24.0 mph NNW38.6 kmh NNW 26.0 mph41.8 kmh 30.15 in1021.0 mb 0.00 in0.0 mm 0.00 in0.0 mm 0.00 in0.0 mm
10:02 AM 43.2°F6.2°C 36.5°F2.5°C 77% 23.0 mph NNW37.0 kmh NNW 26.0 mph41.8 kmh 30.15 in1021.0 mb 0.00 in0.0 mm 0.00 in0.0 mm 0.00 in0.0 mm
10:01 AM 43.3°F6.3°C 36.6°F2.6°C 77% 22.0 mph NNW35.4 kmh NNW 25.0 mph40.2 kmh 30.15 in1021.0 mb 0.00 in0.0 mm 0.00 in0.0 mm 0.00 in0.0 mm
10:00 AM 43.2°F6.2°C 36.2°F2.3°C 76% 24.0 mph NNW38.6 kmh NNW 26.0 mph41.8 kmh 30.15 in1021.0 mb 0.00 in0.0 mm 0.00 in0.0 mm 0.00 in0.0 mm
09:59 AM 43.2°F6.2°C 36.5°F2.5°C 77% 21.0 mph NNW33.8 kmh NNW 24.0 mph38.6 kmh 30.15 in1021.0 mb 0.00 in0.0 mm 0.00 in0.0 mm 0.00 in0.0 mm
09:58 AM 43.3°F6.3°C 36.6°F2.6°C 77% 19.0 mph NNW30.6 kmh NNW 23.0 mph37.0 kmh 30.15 in1021.0 mb 0.00 in0.0 mm 0.00 in0.0 mm 0.00 in0.0 mm
09:57 AM 43.2°F6.2°C 36.2°F2.3°C 76% 21.0 mph NNW33.8 kmh NNW 23.0 mph37.0 kmh 30.14 in1020.7 mb 0.00 in0.0 mm 0.00 in0.0 mm 0.00 in0.0 mm
09:56 AM 43.1°F6.2°C 36.4°F2.4°C 77% 23.0 mph NNW37.0 kmh NNW 26.0 mph41.8 kmh 30.15 in1021.0 mb 0.00 in0.0 mm 0.00 in0.0 mm 0.00 in0.0 mm
09:55 AM 43.2°F6.2°C 36.2°F2.3°C 76% 20.0 mph NNW32.2 kmh NNW 25.0 mph40.2 kmh 30.14 in1020.7 mb 0.00 in0.0 mm 0.00 in0.0 mm 0.00 in0.0 mm
09:54 AM 43.2°F6.2°C 36.2°F2.3°C 76% 24.0 mph NNW38.6 kmh NNW 27.0 mph43.5 kmh 30.15 in1021.0 mb 0.00 in0.0 mm 0.00 in0.0 mm 0.00 in0.0 mm
09:53 AM 43.1°F6.2°C 36.1°F2.3°C 76% 24.0 mph NNW38.6 kmh NNW 27.0 mph43.5 kmh 30.15 in1021.0 mb 0.00 in0.0 mm 0.00 in0.0 mm 0.00 in0.0 mm
09:52 AM 43.2°F6.2°C 36.5°F2.5°C 77% 21.0 mph NNW33.8 kmh NNW 23.0 mph37.0 kmh 30.15 in1021.0 mb 0.00 in0.0 mm 0.00 in0.0 mm 0.00 in0.0 mm
09:51 AM 43.2°F6.2°C 36.5°F2.5°C 77% 20.0 mph NNW32.2 kmh NNW 23.0 mph37.0 kmh 30.15 in1021.0 mb 0.00 in0.0 mm 0.00 in0.0 mm 0.00 in0.0 mm
09:50 AM 43.2°F6.2°C 36.5°F2.5°C 77% 21.0 mph NNW33.8 kmh NNW 24.0 mph38.6 kmh 30.14 in1020.7 mb 0.00 in0.0 mm 0.00 in0.0 mm 0.00 in0.0 mm
09:49 AM 43.2°F6.2°C 36.2°F2.3°C 76% 22.0 mph NNW35.4 kmh NNW 25.0 mph40.2 kmh 30.14 in1020.7 mb 0.00 in0.0 mm 0.00 in0.0 mm 0.00 in0.0 mm
09:48 AM 43.2°F6.2°C 36.2°F2.3°C 76% 22.0 mph NNW35.4 kmh NNW 25.0 mph40.2 kmh 30.14 in1020.7 mb 0.00 in0.0 mm 0.00 in0.0 mm 0.00 in0.0 mm
09:47 AM 43.3°F6.3°C 36.6°F2.6°C 77% 22.0 mph NNW35.4 kmh NNW 25.0 mph40.2 kmh 30.14 in1020.7 mb 0.00 in0.0 mm 0.00 in0.0 mm 0.00 in0.0 mm
09:46 AM 43.2°F6.2°C 36.2°F2.3°C 76% 22.0 mph NNW35.4 kmh NNW 24.0 mph38.6 kmh 30.14 in1020.7 mb 0.00 in0.0 mm 0.00 in0.0 mm 0.00 in0.0 mm
09:45 AM 43.2°F6.2°C 35.8°F2.1°C 75% 24.0 mph NNW38.6 kmh NNW 26.0 mph41.8 kmh 30.14 in1020.7 mb 0.00 in0.0 mm 0.00 in0.0 mm 0.00 in0.0 mm
09:44 AM 43.2°F6.2°C 35.8°F2.1°C 75% 24.0 mph NNW38.6 kmh NNW 28.0 mph45.1 kmh 30.14 in1020.7 mb 0.00 in0.0 mm 0.00 in0.0 mm 0.00 in0.0 mm
09:43 AM 43.2°F6.2°C 36.2°F2.3°C 76% 25.0 mph NNW40.2 kmh NNW 27.0 mph43.5 kmh 30.15 in1021.0 mb 0.00 in0.0 mm 0.00 in0.0 mm 0.00 in0.0 mm
09:42 AM 43.1°F6.2°C 36.1°F2.3°C 76% 26.0 mph NNW41.8 kmh NNW 28.0 mph45.1 kmh 30.14 in1020.7 mb 0.00 in0.0 mm 0.00 in0.0 mm 0.00 in0.0 mm
09:41 AM 43.2°F6.2°C 36.5°F2.5°C 77% 23.0 mph NNW37.0 kmh NNW 28.0 mph45.1 kmh 30.14 in1020.7 mb 0.00 in0.0 mm 0.00 in0.0 mm 0.00 in0.0 mm
09:40 AM 43.2°F6.2°C 36.5°F2.5°C 77% 22.0 mph NNW35.4 kmh NNW 24.0 mph38.6 kmh 30.14 in1020.7 mb 0.00 in0.0 mm 0.00 in0.0 mm 0.00 in0.0 mm
09:39 AM 43.1°F6.2°C 36.4°F2.4°C 77% 22.0 mph NNW35.4 kmh NNW 25.0 mph40.2 kmh 30.14 in1020.7 mb 0.00 in0.0 mm 0.00 in0.0 mm 0.00 in0.0 mm
09:38 AM 43.2°F6.2°C 36.5°F2.5°C 77% 21.0 mph NNW33.8 kmh NNW 22.0 mph35.4 kmh 30.14 in1020.7 mb 0.00 in0.0 mm 0.00 in0.0 mm 0.00 in0.0 mm
09:37 AM 43.1°F6.2°C 36.1°F2.3°C 76% 21.0 mph NNW33.8 kmh NNW 23.0 mph37.0 kmh 30.14 in1020.7 mb 0.00 in0.0 mm 0.00 in0.0 mm 0.00 in0.0 mm
09:36 AM 43.1°F6.2°C 36.1°F2.3°C 76% 24.0 mph NNW38.6 kmh NNW 27.0 mph43.5 kmh 30.14 in1020.7 mb 0.00 in0.0 mm 0.00 in0.0 mm 0.00 in0.0 mm
09:35 AM 43.2°F6.2°C 36.5°F2.5°C 77% 23.0 mph NNW37.0 kmh NNW 28.0 mph45.1 kmh 30.14 in1020.7 mb 0.00 in0.0 mm 0.00 in0.0 mm 0.00 in0.0 mm
09:34 AM 43.1°F6.2°C 36.1°F2.3°C 76% 24.0 mph NNW38.6 kmh NNW 26.0 mph41.8 kmh 30.14 in1020.7 mb 0.00 in0.0 mm 0.00 in0.0 mm 0.00 in0.0 mm
09:33 AM 43.2°F6.2°C 36.2°F2.3°C 76% 23.0 mph NNW37.0 kmh NNW 26.0 mph41.8 kmh 30.14 in1020.7 mb 0.00 in0.0 mm 0.00 in0.0 mm 0.00 in0.0 mm
09:32 AM 43.2°F6.2°C 36.2°F2.3°C 76% 23.0 mph NNW37.0 kmh NNW 25.0 mph40.2 kmh 30.14 in1020.7 mb 0.00 in0.0 mm 0.00 in0.0 mm 0.00 in0.0 mm
09:31 AM 43.1°F6.2°C 36.1°F2.3°C 76% 25.0 mph NNW40.2 kmh NNW 27.0 mph43.5 kmh 30.14 in1020.7 mb 0.00 in0.0 mm 0.00 in0.0 mm 0.00 in0.0 mm
09:30 AM 43.1°F6.2°C 36.1°F2.3°C 76% 25.0 mph NNW40.2 kmh NNW 27.0 mph43.5 kmh 30.14 in1020.7 mb 0.00 in0.0 mm 0.00 in0.0 mm 0.00 in0.0 mm
09:29 AM 43.1°F6.2°C 35.7°F2.1°C 75% 24.0 mph NNW38.6 kmh NNW 28.0 mph45.1 kmh 30.14 in1020.7 mb 0.00 in0.0 mm 0.00 in0.0 mm 0.00 in0.0 mm
09:28 AM 43.2°F6.2°C 36.2°F2.3°C 76% 22.0 mph NNW35.4 kmh NNW 25.0 mph40.2 kmh 30.14 in1020.7 mb 0.00 in0.0 mm 0.00 in0.0 mm 0.00 in0.0 mm
09:27 AM 43.1°F6.2°C 35.7°F2.1°C 75% 23.0 mph NNW37.0 kmh NNW 26.0 mph41.8 kmh 30.14 in1020.7 mb 0.00 in0.0 mm 0.00 in0.0 mm 0.00 in0.0 mm
09:26 AM 43.1°F6.2°C 36.1°F2.3°C 76% 26.0 mph NNW41.8 kmh NNW 28.0 mph45.1 kmh 30.14 in1020.7 mb 0.00 in0.0 mm 0.00 in0.0 mm 0.00 in0.0 mm
09:25 AM 43.1°F6.2°C 36.1°F2.3°C 76% 25.0 mph NNW40.2 kmh NNW 28.0 mph45.1 kmh 30.14 in1020.7 mb 0.00 in0.0 mm 0.00 in0.0 mm 0.00 in0.0 mm
09:24 AM 43.1°F6.2°C 36.1°F2.3°C 76% 24.0 mph NNW38.6 kmh NNW 28.0 mph45.1 kmh 30.14 in1020.7 mb 0.00 in0.0 mm 0.00 in0.0 mm 0.00 in0.0 mm
09:23 AM 43.1°F6.2°C 35.7°F2.1°C 75% 26.0 mph NNW41.8 kmh NNW 29.0 mph46.7 kmh 30.14 in1020.7 mb 0.00 in0.0 mm 0.00 in0.0 mm 0.00 in0.0 mm
09:22 AM 43.1°F6.2°C 36.1°F2.3°C 76% 25.0 mph NNW40.2 kmh NNW 28.0 mph45.1 kmh 30.14 in1020.7 mb 0.00 in0.0 mm 0.00 in0.0 mm 0.00 in0.0 mm
09:21 AM 43.2°F6.2°C 36.2°F2.3°C 76% 22.0 mph NNW35.4 kmh NNW 25.0 mph40.2 kmh 30.14 in1020.7 mb 0.00 in0.0 mm 0.00 in0.0 mm 0.00 in0.0 mm
09:20 AM 43.1°F6.2°C 36.1°F2.3°C 76% 25.0 mph NNW40.2 kmh NNW 29.0 mph46.7 kmh 30.13 in1020.3 mb 0.00 in0.0 mm 0.00 in0.0 mm 0.00 in0.0 mm
09:19 AM 43.1°F6.2°C 36.1°F2.3°C 76% 25.0 mph NNW40.2 kmh NNW 28.0 mph45.1 kmh 30.13 in1020.3 mb 0.00 in0.0 mm 0.00 in0.0 mm 0.00 in0.0 mm
09:18 AM 43.0°F6.1°C 35.6°F2.0°C 75% 27.0 mph NNW43.5 kmh NNW 30.0 mph48.3 kmh 30.13 in1020.3 mb 0.00 in0.0 mm 0.00 in0.0 mm 0.00 in0.0 mm
09:17 AM 43.0°F6.1°C 36.0°F2.2°C 76% 26.0 mph NNW41.8 kmh NNW 29.0 mph46.7 kmh 30.13 in1020.3 mb 0.00 in0.0 mm 0.00 in0.0 mm 0.00 in0.0 mm
09:16 AM 43.1°F6.2°C 36.1°F2.3°C 76% 26.0 mph NNW41.8 kmh NNW 27.0 mph43.5 kmh 30.13 in1020.3 mb 0.00 in0.0 mm 0.00 in0.0 mm 0.00 in0.0 mm
09:15 AM 43.0°F6.1°C 36.3°F2.4°C 77% 25.0 mph NNW40.2 kmh NNW 30.0 mph48.3 kmh 30.14 in1020.7 mb 0.00 in0.0 mm 0.00 in0.0 mm 0.00 in0.0 mm
09:14 AM 43.0°F6.1°C 36.0°F2.2°C 76% 21.0 mph NNW33.8 kmh NNW 23.0 mph37.0 kmh 30.13 in1020.3 mb 0.00 in0.0 mm 0.00 in0.0 mm 0.00 in0.0 mm
09:13 AM 43.0°F6.1°C 36.0°F2.2°C 76% 25.0 mph NNW40.2 kmh NNW 28.0 mph45.1 kmh 30.13 in1020.3 mb 0.00 in0.0 mm 0.00 in0.0 mm 0.00 in0.0 mm
09:12 AM 42.9°F6.1°C 35.9°F2.2°C 76% 26.0 mph NNW41.8 kmh NNW 31.0 mph49.9 kmh 30.13 in1020.3 mb 0.00 in0.0 mm 0.00 in0.0 mm 0.00 in0.0 mm
09:11 AM 43.0°F6.1°C 36.0°F2.2°C 76% 27.0 mph NNW43.5 kmh NNW 31.0 mph49.9 kmh 30.13 in1020.3 mb 0.00 in0.0 mm 0.00 in0.0 mm 0.00 in0.0 mm
09:10 AM 42.9°F6.1°C 35.9°F2.2°C 76% 26.0 mph NNW41.8 kmh NNW 30.0 mph48.3 kmh 30.13 in1020.3 mb 0.00 in0.0 mm 0.00 in0.0 mm 0.00 in0.0 mm
09:09 AM 42.9°F6.1°C 36.2°F2.3°C 77% 27.0 mph NNW43.5 kmh NNW 31.0 mph49.9 kmh 30.13 in1020.3 mb 0.00 in0.0 mm 0.00 in0.0 mm 0.00 in0.0 mm
09:08 AM 42.9°F6.1°C 36.2°F2.3°C 77% 25.0 mph NNW40.2 kmh NNW 29.0 mph46.7 kmh 30.13 in1020.3 mb 0.00 in0.0 mm 0.00 in0.0 mm 0.00 in0.0 mm
09:07 AM 42.9°F6.1°C 36.2°F2.3°C 77% 26.0 mph NNW41.8 kmh NNW 28.0 mph45.1 kmh 30.13 in1020.3 mb 0.00 in0.0 mm 0.00 in0.0 mm 0.00 in0.0 mm
09:06 AM 42.9°F6.1°C 36.2°F2.3°C 77% 25.0 mph NNW40.2 kmh NNW 28.0 mph45.1 kmh 30.13 in1020.3 mb 0.00 in0.0 mm 0.00 in0.0 mm 0.00 in0.0 mm
09:05 AM 42.9°F6.1°C 36.5°F2.5°C 78% 24.0 mph NNW38.6 kmh NNW 28.0 mph45.1 kmh 30.13 in1020.3 mb 0.00 in0.0 mm 0.00 in0.0 mm 0.00 in0.0 mm
09:04 AM 43.0°F6.1°C 36.6°F2.6°C 78% 22.0 mph NNW35.4 kmh NNW 24.0 mph38.6 kmh 30.13 in1020.3 mb 0.00 in0.0 mm 0.00 in0.0 mm 0.00 in0.0 mm
09:03 AM 42.9°F6.1°C 36.2°F2.3°C 77% 22.0 mph NNW35.4 kmh NNW 25.0 mph40.2 kmh 30.13 in1020.3 mb 0.00 in0.0 mm 0.00 in0.0 mm 0.00 in0.0 mm
09:02 AM 42.9°F6.1°C 35.9°F2.2°C 76% 24.0 mph NNW38.6 kmh NNW 26.0 mph41.8 kmh 30.13 in1020.3 mb 0.00 in0.0 mm 0.00 in0.0 mm 0.00 in0.0 mm
09:01 AM 42.9°F6.1°C 35.9°F2.2°C 76% 27.0 mph NW43.5 kmh NW 30.0 mph48.3 kmh 30.13 in1020.3 mb 0.00 in0.0 mm 0.00 in0.0 mm 0.00 in0.0 mm
09:00 AM 42.9°F6.1°C 35.9°F2.2°C 76% 26.0 mph NW41.8 kmh NW 30.0 mph48.3 kmh 30.13 in1020.3 mb 0.00 in0.0 mm 0.00 in0.0 mm 0.00 in0.0 mm
08:59 AM 42.9°F6.1°C 36.2°F2.3°C 77% 25.0 mph NNW40.2 kmh NNW 28.0 mph45.1 kmh 30.13 in1020.3 mb 0.00 in0.0 mm 0.00 in0.0 mm 0.00 in0.0 mm
08:58 AM 42.9°F6.1°C 35.9°F2.2°C 76% 24.0 mph NNW38.6 kmh NNW 28.0 mph45.1 kmh 30.13 in1020.3 mb 0.00 in0.0 mm 0.00 in0.0 mm 0.00 in0.0 mm
08:57 AM 42.8°F6.0°C 35.8°F2.1°C 76% 28.0 mph NNW45.1 kmh NNW 31.0 mph49.9 kmh 30.13 in1020.3 mb 0.00 in0.0 mm 0.00 in0.0 mm 0.00 in0.0 mm
08:56 AM 42.8°F6.0°C 35.8°F2.1°C 76% 27.0 mph NNW43.5 kmh NNW 31.0 mph49.9 kmh 30.13 in1020.3 mb 0.00 in0.0 mm 0.00 in0.0 mm 0.00 in0.0 mm
08:55 AM 42.8°F6.0°C 36.1°F2.3°C 77% 27.0 mph NW43.5 kmh NW 32.0 mph51.5 kmh 30.13 in1020.3 mb 0.00 in0.0 mm 0.00 in0.0 mm 0.00 in0.0 mm
08:54 AM 42.8°F6.0°C 36.1°F2.3°C 77% 25.0 mph NNW40.2 kmh NNW 27.0 mph43.5 kmh 30.13 in1020.3 mb 0.00 in0.0 mm 0.00 in0.0 mm 0.00 in0.0 mm
08:53 AM 42.8°F6.0°C 36.1°F2.3°C 77% 27.0 mph NNW43.5 kmh NNW 28.0 mph45.1 kmh 30.13 in1020.3 mb 0.00 in0.0 mm 0.00 in0.0 mm 0.00 in0.0 mm
08:52 AM 42.8°F6.0°C 36.4°F2.4°C 78% 27.0 mph NNW43.5 kmh NNW 31.0 mph49.9 kmh 30.13 in1020.3 mb 0.00 in0.0 mm 0.00 in0.0 mm 0.00 in0.0 mm
08:51 AM 42.7°F5.9°C 36.0°F2.2°C 77% 27.0 mph NNW43.5 kmh NNW 30.0 mph48.3 kmh 30.13 in1020.3 mb 0.00 in0.0 mm 0.00 in0.0 mm 0.00 in0.0 mm
08:50 AM 42.7°F5.9°C 36.0°F2.2°C 77% 27.0 mph NNW43.5 kmh NNW 31.0 mph49.9 kmh 30.13 in1020.3 mb 0.00 in0.0 mm 0.00 in0.0 mm 0.00 in0.0 mm
08:49 AM 42.7°F5.9°C 36.3°F2.4°C 78% 27.0 mph NNW43.5 kmh NNW 31.0 mph49.9 kmh 30.13 in1020.3 mb 0.00 in0.0 mm 0.00 in0.0 mm 0.00 in0.0 mm
08:48 AM 42.7°F5.9°C 36.3°F2.4°C 78% 25.0 mph NNW40.2 kmh NNW 29.0 mph46.7 kmh 30.13 in1020.3 mb 0.00 in0.0 mm 0.00 in0.0 mm 0.00 in0.0 mm
08:47 AM 42.7°F5.9°C 36.3°F2.4°C 78% 24.0 mph NW38.6 kmh NW 28.0 mph45.1 kmh 30.13 in1020.3 mb 0.00 in0.0 mm 0.00 in0.0 mm 0.00 in0.0 mm
08:46 AM 42.7°F5.9°C 36.3°F2.4°C 78% 24.0 mph NNW38.6 kmh NNW 27.0 mph43.5 kmh 30.13 in1020.3 mb 0.00 in0.0 mm 0.00 in0.0 mm 0.00 in0.0 mm
08:45 AM 42.7°F5.9°C 36.0°F2.2°C 77% 25.0 mph NNW40.2 kmh NNW 28.0 mph45.1 kmh 30.13 in1020.3 mb 0.00 in0.0 mm 0.00 in0.0 mm 0.00 in0.0 mm
08:44 AM 42.7°F5.9°C 36.0°F2.2°C 77% 27.0 mph NNW43.5 kmh NNW 29.0 mph46.7 kmh 30.13 in1020.3 mb 0.00 in0.0 mm 0.00 in0.0 mm 0.00 in0.0 mm
08:43 AM 42.6°F5.9°C 35.9°F2.2°C 77% 30.0 mph NNW48.3 kmh NNW 32.0 mph51.5 kmh 30.12 in1020.0 mb 0.00 in0.0 mm 0.00 in0.0 mm 0.00 in0.0 mm
08:42 AM 42.6°F5.9°C 35.9°F2.2°C 77% 28.0 mph NNW45.1 kmh NNW 31.0 mph49.9 kmh 30.13 in1020.3 mb 0.00 in0.0 mm 0.00 in0.0 mm 0.00 in0.0 mm
08:41 AM 42.6°F5.9°C 35.9°F2.2°C 77% 29.0 mph NNW46.7 kmh NNW 33.0 mph53.1 kmh 30.12 in1020.0 mb 0.00 in0.0 mm 0.00 in0.0 mm 0.00 in0.0 mm
08:40 AM 42.6°F5.9°C 35.9°F2.2°C 77% 29.0 mph NNW46.7 kmh NNW 32.0 mph51.5 kmh 30.12 in1020.0 mb 0.00 in0.0 mm 0.00 in0.0 mm 0.00 in0.0 mm
08:39 AM 42.6°F5.9°C 36.2°F2.3°C 78% 28.0 mph NW45.1 kmh NW 32.0 mph51.5 kmh 30.12 in1020.0 mb 0.00 in0.0 mm 0.00 in0.0 mm 0.00 in0.0 mm
08:38 AM 42.6°F5.9°C 36.2°F2.3°C 78% 25.0 mph NNW40.2 kmh NNW 28.0 mph45.1 kmh 30.12 in1020.0 mb 0.00 in0.0 mm 0.00 in0.0 mm 0.00 in0.0 mm
08:37 AM 42.5°F5.8°C 35.8°F2.1°C 77% 28.0 mph NNW45.1 kmh NNW 31.0 mph49.9 kmh 30.12 in1020.0 mb 0.00 in0.0 mm 0.00 in0.0 mm 0.00 in0.0 mm
08:36 AM 42.5°F5.8°C 36.1°F2.3°C 78% 27.0 mph NNW43.5 kmh NNW 31.0 mph49.9 kmh 30.12 in1020.0 mb 0.00 in0.0 mm 0.00 in0.0 mm 0.00 in0.0 mm
08:35 AM 42.6°F5.9°C 36.2°F2.3°C 78% 28.0 mph NNW45.1 kmh NNW 31.0 mph49.9 kmh 30.12 in1020.0 mb 0.00 in0.0 mm 0.00 in0.0 mm 0.00 in0.0 mm
08:34 AM 42.6°F5.9°C 36.2°F2.3°C 78% 25.0 mph NNW40.2 kmh NNW 31.0 mph49.9 kmh 30.12 in1020.0 mb 0.00 in0.0 mm 0.00 in0.0 mm 0.00 in0.0 mm
08:33 AM 42.5°F5.8°C 36.1°F2.3°C 78% 26.0 mph NW41.8 kmh NW 30.0 mph48.3 kmh 30.12 in1020.0 mb 0.00 in0.0 mm 0.00 in0.0 mm 0.00 in0.0 mm
08:32 AM 42.5°F5.8°C 35.8°F2.1°C 77% 29.0 mph NW46.7 kmh NW 31.0 mph49.9 kmh 30.12 in1020.0 mb 0.00 in0.0 mm 0.00 in0.0 mm 0.00 in0.0 mm
08:31 AM 42.5°F5.8°C 36.1°F2.3°C 78% 28.0 mph NW45.1 kmh NW 32.0 mph51.5 kmh 30.12 in1020.0 mb 0.00 in0.0 mm 0.00 in0.0 mm 0.00 in0.0 mm
08:30 AM 42.5°F5.8°C 35.8°F2.1°C 77% 28.0 mph NNW45.1 kmh NNW 33.0 mph53.1 kmh 30.12 in1020.0 mb 0.00 in0.0 mm 0.00 in0.0 mm 0.00 in0.0 mm
08:29 AM 42.4°F5.8°C 35.7°F2.1°C 77% 29.0 mph NW46.7 kmh NW 34.0 mph54.7 kmh 30.12 in1020.0 mb 0.00 in0.0 mm 0.00 in0.0 mm 0.00 in0.0 mm
08:28 AM 42.5°F5.8°C 35.8°F2.1°C 77% 28.0 mph NNW45.1 kmh NNW 33.0 mph53.1 kmh 30.12 in1020.0 mb 0.00 in0.0 mm 0.00 in0.0 mm 0.00 in0.0 mm
08:27 AM 42.5°F5.8°C 35.8°F2.1°C 77% 31.0 mph NNW49.9 kmh NNW 33.0 mph53.1 kmh 30.11 in1019.6 mb 0.00 in0.0 mm 0.00 in0.0 mm 0.00 in0.0 mm
08:26 AM 42.4°F5.8°C 35.7°F2.1°C 77% 30.0 mph NW48.3 kmh NW 31.0 mph49.9 kmh 30.11 in1019.6 mb 0.00 in0.0 mm 0.00 in0.0 mm 0.00 in0.0 mm
08:25 AM 42.5°F5.8°C 36.1°F2.3°C 78% 25.0 mph NW40.2 kmh NW 31.0 mph49.9 kmh 30.11 in1019.6 mb 0.00 in0.0 mm 0.00 in0.0 mm 0.00 in0.0 mm
08:24 AM 42.5°F5.8°C 35.8°F2.1°C 77% 26.0 mph NNW41.8 kmh NNW 31.0 mph49.9 kmh 30.11 in1019.6 mb 0.00 in0.0 mm 0.00 in0.0 mm 0.00 in0.0 mm
08:23 AM 42.4°F5.8°C 36.0°F2.2°C 78% 27.0 mph NW43.5 kmh NW 32.0 mph51.5 kmh 30.11 in1019.6 mb 0.00 in0.0 mm 0.00 in0.0 mm 0.00 in0.0 mm
08:22 AM 42.4°F5.8°C 36.0°F2.2°C 78% 25.0 mph NW40.2 kmh NW 28.0 mph45.1 kmh 30.11 in1019.6 mb 0.00 in0.0 mm 0.00 in0.0 mm 0.00 in0.0 mm
08:21 AM 42.5°F5.8°C 36.1°F2.3°C 78% 23.0 mph NW37.0 kmh NW 25.0 mph40.2 kmh 30.11 in1019.6 mb 0.00 in0.0 mm 0.00 in0.0 mm 0.00 in0.0 mm
08:20 AM 42.4°F5.8°C 35.7°F2.1°C 77% 26.0 mph NW41.8 kmh NW 29.0 mph46.7 kmh 30.11 in1019.6 mb 0.00 in0.0 mm 0.00 in0.0 mm 0.00 in0.0 mm
08:19 AM 42.4°F5.8°C 35.7°F2.1°C 77% 26.0 mph NW41.8 kmh NW 30.0 mph48.3 kmh 30.11 in1019.6 mb 0.00 in0.0 mm 0.00 in0.0 mm 0.00 in0.0 mm
08:18 AM 42.5°F5.8°C 36.1°F2.3°C 78% 26.0 mph NNW41.8 kmh NNW 29.0 mph46.7 kmh 30.11 in1019.6 mb 0.00 in0.0 mm 0.00 in0.0 mm 0.00 in0.0 mm
08:17 AM 42.4°F5.8°C 36.0°F2.2°C 78% 25.0 mph NW40.2 kmh NW 28.0 mph45.1 kmh 30.11 in1019.6 mb 0.00 in0.0 mm 0.00 in0.0 mm 0.00 in0.0 mm
08:16 AM 42.5°F5.8°C 36.1°F2.3°C 78% 27.0 mph NNW43.5 kmh NNW 28.0 mph45.1 kmh 30.11 in1019.6 mb 0.00 in0.0 mm 0.00 in0.0 mm 0.00 in0.0 mm
08:15 AM 42.5°F5.8°C 36.1°F2.3°C 78% 25.0 mph NW40.2 kmh NW 30.0 mph48.3 kmh 30.11 in1019.6 mb 0.00 in0.0 mm 0.00 in0.0 mm 0.00 in0.0 mm
08:14 AM 42.4°F5.8°C 35.7°F2.1°C 77% 26.0 mph NNW41.8 kmh NNW 32.0 mph51.5 kmh 30.11 in1019.6 mb 0.00 in0.0 mm 0.00 in0.0 mm 0.00 in0.0 mm
08:13 AM 42.4°F5.8°C 35.7°F2.1°C 77% 30.0 mph NW48.3 kmh NW 34.0 mph54.7 kmh 30.11 in1019.6 mb 0.00 in0.0 mm 0.00 in0.0 mm 0.00 in0.0 mm
08:12 AM 42.4°F5.8°C 35.7°F2.1°C 77% 29.0 mph NW46.7 kmh NW 32.0 mph51.5 kmh 30.11 in1019.6 mb 0.00 in0.0 mm 0.00 in0.0 mm 0.00 in0.0 mm
08:11 AM 42.5°F5.8°C 35.8°F2.1°C 77% 29.0 mph NW46.7 kmh NW 33.0 mph53.1 kmh 30.11 in1019.6 mb 0.00 in0.0 mm 0.00 in0.0 mm 0.00 in0.0 mm
08:10 AM 42.4°F5.8°C 35.7°F2.1°C 77% 27.0 mph NW43.5 kmh NW 31.0 mph49.9 kmh 30.11 in1019.6 mb 0.00 in0.0 mm 0.00 in0.0 mm 0.00 in0.0 mm
08:09 AM 42.5°F5.8°C 35.8°F2.1°C 77% 25.0 mph NW40.2 kmh NW 29.0 mph46.7 kmh 30.11 in1019.6 mb 0.00 in0.0 mm 0.00 in0.0 mm 0.00 in0.0 mm
08:08 AM 42.5°F5.8°C 36.1°F2.3°C 78% 22.0 mph NW35.4 kmh NW 25.0 mph40.2 kmh 30.11 in1019.6 mb 0.00 in0.0 mm 0.00 in0.0 mm 0.00 in0.0 mm
08:07 AM 42.5°F5.8°C 35.8°F2.1°C 77% 26.0 mph NW41.8 kmh NW 28.0 mph45.1 kmh 30.11 in1019.6 mb 0.00 in0.0 mm 0.00 in0.0 mm 0.00 in0.0 mm
08:06 AM 42.5°F5.8°C 35.8°F2.1°C 77% 26.0 mph NW41.8 kmh NW 29.0 mph46.7 kmh 30.10 in1019.3 mb 0.00 in0.0 mm 0.00 in0.0 mm 0.00 in0.0 mm
08:05 AM 42.5°F5.8°C 35.5°F1.9°C 76% 24.0 mph NNW38.6 kmh NNW 29.0 mph46.7 kmh 30.10 in1019.3 mb 0.00 in0.0 mm 0.00 in0.0 mm 0.00 in0.0 mm
08:04 AM 42.5°F5.8°C 35.5°F1.9°C 76% 29.0 mph NNW46.7 kmh NNW 33.0 mph53.1 kmh 30.10 in1019.3 mb 0.00 in0.0 mm 0.00 in0.0 mm 0.00 in0.0 mm
08:03 AM 42.5°F5.8°C 35.8°F2.1°C 77% 25.0 mph NW40.2 kmh NW 29.0 mph46.7 kmh 30.10 in1019.3 mb 0.00 in0.0 mm 0.00 in0.0 mm 0.00 in0.0 mm
08:02 AM 42.4°F5.8°C 35.7°F2.1°C 77% 27.0 mph NNW43.5 kmh NNW 31.0 mph49.9 kmh 30.11 in1019.6 mb 0.00 in0.0 mm 0.00 in0.0 mm 0.00 in0.0 mm
08:01 AM 42.4°F5.8°C 35.7°F2.1°C 77% 27.0 mph NNW43.5 kmh NNW 31.0 mph49.9 kmh 30.10 in1019.3 mb 0.00 in0.0 mm 0.00 in0.0 mm 0.00 in0.0 mm
08:00 AM 42.4°F5.8°C 35.7°F2.1°C 77% 26.0 mph NW41.8 kmh NW 30.0 mph48.3 kmh 30.10 in1019.3 mb 0.00 in0.0 mm 0.00 in0.0 mm 0.00 in0.0 mm
07:59 AM 42.4°F5.8°C 35.7°F2.1°C 77% 25.0 mph NW40.2 kmh NW 29.0 mph46.7 kmh 30.10 in1019.3 mb 0.00 in0.0 mm 0.00 in0.0 mm 0.00 in0.0 mm
07:58 AM 42.3°F5.7°C 35.6°F2.0°C 77% 28.0 mph NW45.1 kmh NW 32.0 mph51.5 kmh 30.10 in1019.3 mb 0.00 in0.0 mm 0.00 in0.0 mm 0.00 in0.0 mm
07:57 AM 42.3°F5.7°C 35.6°F2.0°C 77% 27.0 mph NW43.5 kmh NW 34.0 mph54.7 kmh 30.10 in1019.3 mb 0.00 in0.0 mm 0.00 in0.0 mm 0.00 in0.0 mm
07:56 AM 42.2°F5.7°C 35.2°F1.8°C 76% 28.0 mph NW45.1 kmh NW 31.0 mph49.9 kmh 30.10 in1019.3 mb 0.00 in0.0 mm 0.00 in0.0 mm 0.00 in0.0 mm
07:55 AM 42.2°F5.7°C 35.2°F1.8°C 76% 28.0 mph NW45.1 kmh NW 31.0 mph49.9 kmh 30.10 in1019.3 mb 0.00 in0.0 mm 0.00 in0.0 mm 0.00 in0.0 mm
07:54 AM 42.2°F5.7°C 35.2°F1.8°C 76% 28.0 mph NW45.1 kmh NW 30.0 mph48.3 kmh 30.10 in1019.3 mb 0.00 in0.0 mm 0.00 in0.0 mm 0.00 in0.0 mm
07:53 AM 42.2°F5.7°C 35.8°F2.1°C 78% 29.0 mph NW46.7 kmh NW 32.0 mph51.5 kmh 30.10 in1019.3 mb 0.00 in0.0 mm 0.00 in0.0 mm 0.00 in0.0 mm
07:52 AM 42.2°F5.7°C 35.8°F2.1°C 78% 31.0 mph NW49.9 kmh NW 33.0 mph53.1 kmh 30.10 in1019.3 mb 0.00 in0.0 mm 0.00 in0.0 mm 0.00 in0.0 mm
07:51 AM 42.2°F5.7°C 35.8°F2.1°C 78% 26.0 mph NW41.8 kmh NW 29.0 mph46.7 kmh 30.10 in1019.3 mb 0.00 in0.0 mm 0.00 in0.0 mm 0.00 in0.0 mm
07:50 AM 42.2°F5.7°C 35.5°F1.9°C 77% 28.0 mph NW45.1 kmh NW 33.0 mph53.1 kmh 30.10 in1019.3 mb 0.00 in0.0 mm 0.00 in0.0 mm 0.00 in0.0 mm
07:49 AM 42.2°F5.7°C 35.8°F2.1°C 78% 26.0 mph NW41.8 kmh NW 28.0 mph45.1 kmh 30.10 in1019.3 mb 0.00 in0.0 mm 0.00 in0.0 mm 0.00 in0.0 mm
07:48 AM 42.2°F5.7°C 35.8°F2.1°C 78% 24.0 mph NW38.6 kmh NW 29.0 mph46.7 kmh 30.10 in1019.3 mb 0.00 in0.0 mm 0.00 in0.0 mm 0.00 in0.0 mm
07:47 AM 42.1°F5.6°C 35.4°F1.9°C 77% 27.0 mph NNW43.5 kmh NNW 30.0 mph48.3 kmh 30.10 in1019.3 mb 0.00 in0.0 mm 0.00 in0.0 mm 0.00 in0.0 mm
07:46 AM 42.1°F5.6°C 35.4°F1.9°C 77% 29.0 mph NW46.7 kmh NW 31.0 mph49.9 kmh 30.10 in1019.3 mb 0.00 in0.0 mm 0.00 in0.0 mm 0.00 in0.0 mm
07:45 AM 42.1°F5.6°C 35.7°F2.1°C 78% 25.0 mph NW40.2 kmh NW 31.0 mph49.9 kmh 30.10 in1019.3 mb 0.00 in0.0 mm 0.00 in0.0 mm 0.00 in0.0 mm
07:44 AM 42.1°F5.6°C 35.4°F1.9°C 77% 27.0 mph NW43.5 kmh NW 31.0 mph49.9 kmh 30.10 in1019.3 mb 0.00 in0.0 mm 0.00 in0.0 mm 0.00 in0.0 mm
07:43 AM 42.0°F5.6°C 35.6°F2.0°C 78% 29.0 mph NW46.7 kmh NW 33.0 mph53.1 kmh 30.10 in1019.3 mb 0.00 in0.0 mm 0.00 in0.0 mm 0.00 in0.0 mm
07:42 AM 42.0°F5.6°C 35.3°F1.8°C 77% 26.0 mph NW41.8 kmh NW 28.0 mph45.1 kmh 30.10 in1019.3 mb 0.00 in0.0 mm 0.00 in0.0 mm 0.00 in0.0 mm
07:41 AM 42.0°F5.6°C 35.3°F1.8°C 77% 25.0 mph NW40.2 kmh NW 29.0 mph46.7 kmh 30.10 in1019.3 mb 0.00 in0.0 mm 0.00 in0.0 mm 0.00 in0.0 mm
07:40 AM 42.0°F5.6°C 35.3°F1.8°C 77% 28.0 mph NW45.1 kmh NW 30.0 mph48.3 kmh 30.10 in1019.3 mb 0.00 in0.0 mm 0.00 in0.0 mm 0.00 in0.0 mm
07:39 AM 42.0°F5.6°C 35.6°F2.0°C 78% 28.0 mph NW45.1 kmh NW 32.0 mph51.5 kmh 30.10 in1019.3 mb 0.00 in0.0 mm 0.00 in0.0 mm 0.00 in0.0 mm
07:38 AM 42.0°F5.6°C 35.3°F1.8°C 77% 27.0 mph NW43.5 kmh NW 31.0 mph49.9 kmh 30.10 in1019.3 mb 0.00 in0.0 mm 0.00 in0.0 mm 0.00 in0.0 mm
07:37 AM 42.0°F5.6°C 35.3°F1.8°C 77% 28.0 mph NW45.1 kmh NW 32.0 mph51.5 kmh 30.10 in1019.3 mb 0.00 in0.0 mm 0.00 in0.0 mm 0.00 in0.0 mm
07:36 AM 42.0°F5.6°C 36.0°F2.2°C 79% 25.0 mph NW40.2 kmh NW 32.0 mph51.5 kmh 30.10 in1019.3 mb 0.00 in0.0 mm 0.00 in0.0 mm 0.00 in0.0 mm
07:35 AM 41.9°F5.5°C 35.5°F1.9°C 78% 24.0 mph NW38.6 kmh NW 28.0 mph45.1 kmh 30.10 in1019.3 mb 0.00 in0.0 mm 0.00 in0.0 mm 0.00 in0.0 mm
07:34 AM 41.9°F5.5°C 35.2°F1.8°C 77% 25.0 mph NW40.2 kmh NW 28.0 mph45.1 kmh 30.10 in1019.3 mb 0.00 in0.0 mm 0.00 in0.0 mm 0.00 in0.0 mm
07:33 AM 41.8°F5.4°C 35.1°F1.7°C 77% 29.0 mph NW46.7 kmh NW 32.0 mph51.5 kmh 30.10 in1019.3 mb 0.00 in0.0 mm 0.00 in0.0 mm 0.00 in0.0 mm
07:32 AM 41.9°F5.5°C 35.5°F1.9°C 78% 26.0 mph NW41.8 kmh NW 30.0 mph48.3 kmh 30.10 in1019.3 mb 0.00 in0.0 mm 0.00 in0.0 mm 0.00 in0.0 mm
07:31 AM 41.9°F5.5°C 35.9°F2.2°C 79% 25.0 mph NW40.2 kmh NW 28.0 mph45.1 kmh 30.10 in1019.3 mb 0.00 in0.0 mm 0.00 in0.0 mm 0.00 in0.0 mm
07:30 AM 42.0°F5.6°C 35.6°F2.0°C 78% 23.0 mph NW37.0 kmh NW 25.0 mph40.2 kmh 30.10 in1019.3 mb 0.00 in0.0 mm 0.00 in0.0 mm 0.00 in0.0 mm
07:29 AM 41.9°F5.5°C 35.9°F2.2°C 79% 24.0 mph NW38.6 kmh NW 27.0 mph43.5 kmh 30.10 in1019.3 mb 0.00 in0.0 mm 0.00 in0.0 mm 0.00 in0.0 mm
07:28 AM 41.8°F5.4°C 35.5°F1.9°C 78% 27.0 mph NW43.5 kmh NW 32.0 mph51.5 kmh 30.10 in1019.3 mb 0.00 in0.0 mm 0.00 in0.0 mm 0.00 in0.0 mm
07:27 AM 41.9°F5.5°C 35.5°F1.9°C 78% 26.0 mph NW41.8 kmh NW 30.0 mph48.3 kmh 30.10 in1019.3 mb 0.00 in0.0 mm 0.00 in0.0 mm 0.00 in0.0 mm
07:26 AM 41.9°F5.5°C 35.5°F1.9°C 78% 25.0 mph NW40.2 kmh NW 27.0 mph43.5 kmh 30.10 in1019.3 mb 0.00 in0.0 mm 0.00 in0.0 mm 0.00 in0.0 mm
07:25 AM 41.8°F5.4°C 35.1°F1.7°C 77% 26.0 mph NW41.8 kmh NW 30.0 mph48.3 kmh 30.10 in1019.3 mb 0.00 in0.0 mm 0.00 in0.0 mm 0.00 in0.0 mm
07:24 AM 41.9°F5.5°C 35.5°F1.9°C 78% 27.0 mph NW43.5 kmh NW 30.0 mph48.3 kmh 30.10 in1019.3 mb 0.00 in0.0 mm 0.00 in0.0 mm 0.00 in0.0 mm
07:23 AM 41.8°F5.4°C 35.5°F1.9°C 78% 25.0 mph NW40.2 kmh NW 30.0 mph48.3 kmh 30.10 in1019.3 mb 0.00 in0.0 mm 0.00 in0.0 mm 0.00 in0.0 mm
07:22 AM 41.8°F5.4°C 35.5°F1.9°C 78% 25.0 mph NW40.2 kmh NW 27.0 mph43.5 kmh 30.10 in1019.3 mb 0.00 in0.0 mm 0.00 in0.0 mm 0.00 in0.0 mm
07:21 AM 41.9°F5.5°C 35.5°F1.9°C 78% 23.0 mph NW37.0 kmh NW 26.0 mph41.8 kmh 30.10 in1019.3 mb 0.00 in0.0 mm 0.00 in0.0 mm 0.00 in0.0 mm
07:20 AM 41.8°F5.4°C 35.1°F1.7°C 77% 26.0 mph NW41.8 kmh NW 31.0 mph49.9 kmh 30.10 in1019.3 mb 0.00 in0.0 mm 0.00 in0.0 mm 0.00 in0.0 mm
07:19 AM 41.9°F5.5°C 35.5°F1.9°C 78% 26.0 mph NW41.8 kmh NW 31.0 mph49.9 kmh 30.10 in1019.3 mb 0.00 in0.0 mm 0.00 in0.0 mm 0.00 in0.0 mm
07:18 AM 41.8°F5.4°C 35.5°F1.9°C 78% 26.0 mph NW41.8 kmh NW 29.0 mph46.7 kmh 30.10 in1019.3 mb 0.00 in0.0 mm 0.00 in0.0 mm 0.00 in0.0 mm
07:17 AM 41.8°F5.4°C 35.1°F1.7°C 77% 24.0 mph NW38.6 kmh NW 28.0 mph45.1 kmh 30.10 in1019.3 mb 0.00 in0.0 mm 0.00 in0.0 mm 0.00 in0.0 mm
07:16 AM 41.8°F5.4°C 35.1°F1.7°C 77% 28.0 mph NW45.1 kmh NW 30.0 mph48.3 kmh 30.10 in1019.3 mb 0.00 in0.0 mm 0.00 in0.0 mm 0.00 in0.0 mm
07:15 AM 41.8°F5.4°C 35.5°F1.9°C 78% 24.0 mph NW38.6 kmh NW 28.0 mph45.1 kmh 30.11 in1019.6 mb 0.00 in0.0 mm 0.00 in0.0 mm 0.00 in0.0 mm
07:14 AM 41.8°F5.4°C 35.5°F1.9°C 78% 26.0 mph NW41.8 kmh NW 29.0 mph46.7 kmh 30.11 in1019.6 mb 0.00 in0.0 mm 0.00 in0.0 mm 0.00 in0.0 mm
07:13 AM 41.8°F5.4°C 35.1°F1.7°C 77% 26.0 mph NW41.8 kmh NW 28.0 mph45.1 kmh 30.11 in1019.6 mb 0.00 in0.0 mm 0.00 in0.0 mm 0.00 in0.0 mm
07:12 AM 41.8°F5.4°C 35.5°F1.9°C 78% 27.0 mph NW43.5 kmh NW 29.0 mph46.7 kmh 30.10 in1019.3 mb 0.00 in0.0 mm 0.00 in0.0 mm 0.00 in0.0 mm
07:11 AM 41.8°F5.4°C 35.5°F1.9°C 78% 27.0 mph NW43.5 kmh NW 30.0 mph48.3 kmh 30.10 in1019.3 mb 0.00 in0.0 mm 0.00 in0.0 mm 0.00 in0.0 mm
07:10 AM 41.8°F5.4°C 35.5°F1.9°C 78% 24.0 mph NW38.6 kmh NW 27.0 mph43.5 kmh 30.10 in1019.3 mb 0.00 in0.0 mm 0.00 in0.0 mm 0.00 in0.0 mm
07:09 AM 41.7°F5.4°C 35.4°F1.9°C 78% 26.0 mph NW41.8 kmh NW 30.0 mph48.3 kmh 30.10 in1019.3 mb 0.00 in0.0 mm 0.00 in0.0 mm 0.00 in0.0 mm
07:08 AM 41.8°F5.4°C 35.5°F1.9°C 78% 26.0 mph NW41.8 kmh NW 30.0 mph48.3 kmh 30.10 in1019.3 mb 0.00 in0.0 mm 0.00 in0.0 mm 0.00 in0.0 mm
07:07 AM 41.8°F5.4°C 35.5°F1.9°C 78% 26.0 mph NW41.8 kmh NW 29.0 mph46.7 kmh 30.10 in1019.3 mb 0.00 in0.0 mm 0.00 in0.0 mm 0.00 in0.0 mm
07:06 AM 41.8°F5.4°C 35.5°F1.9°C 78% 27.0 mph NW43.5 kmh NW 30.0 mph48.3 kmh 30.10 in1019.3 mb 0.00 in0.0 mm 0.00 in0.0 mm 0.00 in0.0 mm
07:05 AM 41.7°F5.4°C 35.7°F2.1°C 79% 25.0 mph NW40.2 kmh NW 28.0 mph45.1 kmh 30.10 in1019.3 mb 0.00 in0.0 mm 0.00 in0.0 mm 0.00 in0.0 mm
07:04 AM 41.7°F5.4°C 35.4°F1.9°C 78% 25.0 mph NW40.2 kmh NW 28.0 mph45.1 kmh 30.10 in1019.3 mb 0.00 in0.0 mm 0.00 in0.0 mm 0.00 in0.0 mm
07:03 AM 41.7°F5.4°C 35.7°F2.1°C 79% 26.0 mph NW41.8 kmh NW 27.0 mph43.5 kmh 30.10 in1019.3 mb 0.00 in0.0 mm 0.00 in0.0 mm 0.00 in0.0 mm
07:02 AM 41.7°F5.4°C 35.4°F1.9°C 78% 25.0 mph NW40.2 kmh NW 29.0 mph46.7 kmh 30.10 in1019.3 mb 0.00 in0.0 mm 0.00 in0.0 mm 0.00 in0.0 mm
07:01 AM 41.7°F5.4°C 35.4°F1.9°C 78% 25.0 mph NW40.2 kmh NW 29.0 mph46.7 kmh 30.10 in1019.3 mb 0.00 in0.0 mm 0.00 in0.0 mm 0.00 in0.0 mm
07:00 AM 41.7°F5.4°C 35.4°F1.9°C 78% 24.0 mph NW38.6 kmh NW 28.0 mph45.1 kmh 30.10 in1019.3 mb 0.00 in0.0 mm 0.00 in0.0 mm 0.00 in0.0 mm
06:59 AM 41.7°F5.4°C 35.4°F1.9°C 78% 26.0 mph NW41.8 kmh NW 28.0 mph45.1 kmh 30.10 in1019.3 mb 0.00 in0.0 mm 0.00 in0.0 mm 0.00 in0.0 mm
06:58 AM 41.7°F5.4°C 35.4°F1.9°C 78% 24.0 mph NW38.6 kmh NW 26.0 mph41.8 kmh 30.10 in1019.3 mb 0.00 in0.0 mm 0.00 in0.0 mm 0.00 in0.0 mm
06:57 AM 41.6°F5.3°C 35.3°F1.8°C 78% 27.0 mph NW43.5 kmh NW 30.0 mph48.3 kmh 30.10 in1019.3 mb 0.00 in0.0 mm 0.00 in0.0 mm 0.00 in0.0 mm
06:56 AM 41.6°F5.3°C 35.3°F1.8°C 78% 24.0 mph NW38.6 kmh NW 28.0 mph45.1 kmh 30.10 in1019.3 mb 0.00 in0.0 mm 0.00 in0.0 mm 0.00 in0.0 mm
06:55 AM 41.7°F5.4°C 35.4°F1.9°C 78% 23.0 mph NW37.0 kmh NW 26.0 mph41.8 kmh 30.10 in1019.3 mb 0.00 in0.0 mm 0.00 in0.0 mm 0.00 in0.0 mm
06:54 AM 41.6°F5.3°C 35.3°F1.8°C 78% 24.0 mph NW38.6 kmh NW 28.0 mph45.1 kmh 30.10 in1019.3 mb 0.00 in0.0 mm 0.00 in0.0 mm 0.00 in0.0 mm
06:53 AM 41.6°F5.3°C 34.9°F1.6°C 77% 25.0 mph NW40.2 kmh NW 27.0 mph43.5 kmh 30.10 in1019.3 mb 0.00 in0.0 mm 0.00 in0.0 mm 0.00 in0.0 mm
06:52 AM 41.5°F5.3°C 34.8°F1.6°C 77% 25.0 mph NW40.2 kmh NW 27.0 mph43.5 kmh 30.10 in1019.3 mb 0.00 in0.0 mm 0.00 in0.0 mm 0.00 in0.0 mm
06:51 AM 41.6°F5.3°C 34.9°F1.6°C 77% 24.0 mph NW38.6 kmh NW 27.0 mph43.5 kmh 30.09 in1019.0 mb 0.00 in0.0 mm 0.00 in0.0 mm 0.00 in0.0 mm
06:50 AM 41.6°F5.3°C 35.3°F1.8°C 78% 26.0 mph NW41.8 kmh NW 30.0 mph48.3 kmh 30.09 in1019.0 mb 0.00 in0.0 mm 0.00 in0.0 mm 0.00 in0.0 mm
06:49 AM 41.6°F5.3°C 35.3°F1.8°C 78% 24.0 mph NW38.6 kmh NW 28.0 mph45.1 kmh 30.09 in1019.0 mb 0.00 in0.0 mm 0.00 in0.0 mm 0.00 in0.0 mm
06:48 AM 41.6°F5.3°C 34.9°F1.6°C 77% 25.0 mph NW40.2 kmh NW 27.0 mph43.5 kmh 30.09 in1019.0 mb 0.00 in0.0 mm 0.00 in0.0 mm 0.00 in0.0 mm
06:47 AM 41.7°F5.4°C 35.0°F1.7°C 77% 24.0 mph NW38.6 kmh NW 26.0 mph41.8 kmh 30.09 in1019.0 mb 0.00 in0.0 mm 0.00 in0.0 mm 0.00 in0.0 mm
06:46 AM 41.6°F5.3°C 34.9°F1.6°C 77% 27.0 mph NW43.5 kmh NW 30.0 mph48.3 kmh 30.09 in1019.0 mb 0.00 in0.0 mm 0.00 in0.0 mm 0.00 in0.0 mm
06:45 AM 41.6°F5.3°C 34.9°F1.6°C 77% 24.0 mph NW38.6 kmh NW 26.0 mph41.8 kmh 30.09 in1019.0 mb 0.00 in0.0 mm 0.00 in0.0 mm 0.00 in0.0 mm
06:44 AM 41.6°F5.3°C 35.3°F1.8°C 78% 24.0 mph NW38.6 kmh NW 27.0 mph43.5 kmh 30.09 in1019.0 mb 0.00 in0.0 mm 0.00 in0.0 mm 0.00 in0.0 mm
06:43 AM 41.7°F5.4°C 35.0°F1.7°C 77% 23.0 mph NW37.0 kmh NW 26.0 mph41.8 kmh 30.09 in1019.0 mb 0.00 in0.0 mm 0.00 in0.0 mm 0.00 in0.0 mm
06:42 AM 41.7°F5.4°C 35.0°F1.7°C 77% 25.0 mph NW40.2 kmh NW 28.0 mph45.1 kmh 30.09 in1019.0 mb 0.00 in0.0 mm 0.00 in0.0 mm 0.00 in0.0 mm
06:41 AM 41.7°F5.4°C 35.0°F1.7°C 77% 27.0 mph NW43.5 kmh NW 31.0 mph49.9 kmh 30.09 in1019.0 mb 0.00 in0.0 mm 0.00 in0.0 mm 0.00 in0.0 mm
06:40 AM 41.7°F5.4°C 35.0°F1.7°C 77% 24.0 mph NW38.6 kmh NW 26.0 mph41.8 kmh 30.09 in1019.0 mb 0.00 in0.0 mm 0.00 in0.0 mm 0.00 in0.0 mm
06:39 AM 41.7°F5.4°C 34.7°F1.5°C 76% 26.0 mph NW41.8 kmh NW 33.0 mph53.1 kmh 30.09 in1019.0 mb 0.00 in0.0 mm 0.00 in0.0 mm 0.00 in0.0 mm
06:38 AM 41.8°F5.4°C 35.1°F1.7°C 77% 25.0 mph NW40.2 kmh NW 28.0 mph45.1 kmh 30.09 in1019.0 mb 0.00 in0.0 mm 0.00 in0.0 mm 0.00 in0.0 mm
06:37 AM 41.7°F5.4°C 34.7°F1.5°C 76% 25.0 mph NW40.2 kmh NW 28.0 mph45.1 kmh 30.09 in1019.0 mb 0.00 in0.0 mm 0.00 in0.0 mm 0.00 in0.0 mm
06:36 AM 41.7°F5.4°C 34.7°F1.5°C 76% 24.0 mph NW38.6 kmh NW 27.0 mph43.5 kmh 30.09 in1019.0 mb 0.00 in0.0 mm 0.00 in0.0 mm 0.00 in0.0 mm
06:35 AM 41.7°F5.4°C 34.7°F1.5°C 76% 26.0 mph NW41.8 kmh NW 29.0 mph46.7 kmh 30.09 in1019.0 mb 0.00 in0.0 mm 0.00 in0.0 mm 0.00 in0.0 mm
06:34 AM 41.7°F5.4°C 34.4°F1.3°C 75% 28.0 mph NW45.1 kmh NW 33.0 mph53.1 kmh 30.09 in1019.0 mb 0.00 in0.0 mm 0.00 in0.0 mm 0.00 in0.0 mm
06:33 AM 41.8°F5.4°C 34.5°F1.4°C 75% 24.0 mph NW38.6 kmh NW 27.0 mph43.5 kmh 30.09 in1019.0 mb 0.00 in0.0 mm 0.00 in0.0 mm 0.00 in0.0 mm
06:32 AM 41.7°F5.4°C 34.7°F1.5°C 76% 27.0 mph NW43.5 kmh NW 29.0 mph46.7 kmh 30.09 in1019.0 mb 0.00 in0.0 mm 0.00 in0.0 mm 0.00 in0.0 mm
06:31 AM 41.8°F5.4°C 34.8°F1.6°C 76% 25.0 mph NW40.2 kmh NW 29.0 mph46.7 kmh 30.09 in1019.0 mb 0.00 in0.0 mm 0.00 in0.0 mm 0.00 in0.0 mm
06:30 AM 41.8°F5.4°C 34.8°F1.6°C 76% 23.0 mph NW37.0 kmh NW 28.0 mph45.1 kmh 30.09 in1019.0 mb 0.00 in0.0 mm 0.00 in0.0 mm 0.00 in0.0 mm
06:29 AM 41.8°F5.4°C 34.5°F1.4°C 75% 27.0 mph NW43.5 kmh NW 30.0 mph48.3 kmh 30.09 in1019.0 mb 0.00 in0.0 mm 0.00 in0.0 mm 0.00 in0.0 mm
06:28 AM 41.8°F5.4°C 34.5°F1.4°C 75% 29.0 mph NW46.7 kmh NW 33.0 mph53.1 kmh 30.09 in1019.0 mb 0.00 in0.0 mm 0.00 in0.0 mm 0.00 in0.0 mm
06:27 AM 41.8°F5.4°C 34.8°F1.6°C 76% 27.0 mph NW43.5 kmh NW 31.0 mph49.9 kmh 30.09 in1019.0 mb 0.00 in0.0 mm 0.00 in0.0 mm 0.00 in0.0 mm
06:26 AM 41.8°F5.4°C 34.5°F1.4°C 75% 25.0 mph NW40.2 kmh NW 31.0 mph49.9 kmh 30.09 in1019.0 mb 0.00 in0.0 mm 0.00 in0.0 mm 0.00 in0.0 mm
06:25 AM 41.8°F5.4°C 34.8°F1.6°C 76% 24.0 mph NW38.6 kmh NW 28.0 mph45.1 kmh 30.09 in1019.0 mb 0.00 in0.0 mm 0.00 in0.0 mm 0.00 in0.0 mm
06:24 AM 41.8°F5.4°C 34.5°F1.4°C 75% 26.0 mph NW41.8 kmh NW 28.0 mph45.1 kmh 30.09 in1019.0 mb 0.00 in0.0 mm 0.00 in0.0 mm 0.00 in0.0 mm
06:23 AM 41.8°F5.4°C 34.5°F1.4°C 75% 26.0 mph NW41.8 kmh NW 30.0 mph48.3 kmh 30.09 in1019.0 mb 0.00 in0.0 mm 0.00 in0.0 mm 0.00 in0.0 mm
06:22 AM 41.8°F5.4°C 34.5°F1.4°C 75% 27.0 mph NW43.5 kmh NW 31.0 mph49.9 kmh 30.09 in1019.0 mb 0.00 in0.0 mm 0.00 in0.0 mm 0.00 in0.0 mm
06:21 AM 41.9°F5.5°C 34.2°F1.2°C 74% 27.0 mph NW43.5 kmh NW 31.0 mph49.9 kmh 30.09 in1019.0 mb 0.00 in0.0 mm 0.00 in0.0 mm 0.00 in0.0 mm
06:20 AM 41.8°F5.4°C 34.5°F1.4°C 75% 28.0 mph NW45.1 kmh NW 31.0 mph49.9 kmh 30.09 in1019.0 mb 0.00 in0.0 mm 0.00 in0.0 mm 0.00 in0.0 mm
06:19 AM 41.8°F5.4°C 34.5°F1.4°C 75% 27.0 mph NW43.5 kmh NW 31.0 mph49.9 kmh 30.09 in1019.0 mb 0.00 in0.0 mm 0.00 in0.0 mm 0.00 in0.0 mm
06:18 AM 41.8°F5.4°C 34.1°F1.2°C 74% 29.0 mph NW46.7 kmh NW 33.0 mph53.1 kmh 30.09 in1019.0 mb 0.00 in0.0 mm 0.00 in0.0 mm 0.00 in0.0 mm
06:17 AM 41.8°F5.4°C 34.5°F1.4°C 75% 28.0 mph NW45.1 kmh NW 32.0 mph51.5 kmh 30.09 in1019.0 mb 0.00 in0.0 mm 0.00 in0.0 mm 0.00 in0.0 mm
06:16 AM 41.9°F5.5°C 34.9°F1.6°C 76% 23.0 mph NW37.0 kmh NW 26.0 mph41.8 kmh 30.09 in1019.0 mb 0.00 in0.0 mm 0.00 in0.0 mm 0.00 in0.0 mm
06:15 AM 41.8°F5.4°C 34.8°F1.6°C 76% 24.0 mph NW38.6 kmh NW 29.0 mph46.7 kmh 30.09 in1019.0 mb 0.00 in0.0 mm 0.00 in0.0 mm 0.00 in0.0 mm
06:14 AM 41.9°F5.5°C 34.9°F1.6°C 76% 24.0 mph NW38.6 kmh NW 27.0 mph43.5 kmh 30.09 in1019.0 mb 0.00 in0.0 mm 0.00 in0.0 mm 0.00 in0.0 mm
06:13 AM 41.8°F5.4°C 34.5°F1.4°C 75% 26.0 mph NW41.8 kmh NW 30.0 mph48.3 kmh 30.09 in1019.0 mb 0.00 in0.0 mm 0.00 in0.0 mm 0.00 in0.0 mm
06:12 AM 41.9°F5.5°C 34.6°F1.4°C 75% 27.0 mph NW43.5 kmh NW 33.0 mph53.1 kmh 30.09 in1019.0 mb 0.00 in0.0 mm 0.00 in0.0 mm 0.00 in0.0 mm
06:11 AM 41.8°F5.4°C 34.5°F1.4°C 75% 28.0 mph NW45.1 kmh NW 31.0 mph49.9 kmh 30.09 in1019.0 mb 0.00 in0.0 mm 0.00 in0.0 mm 0.00 in0.0 mm
06:10 AM 41.9°F5.5°C 34.6°F1.4°C 75% 25.0 mph NW40.2 kmh NW 29.0 mph46.7 kmh 30.09 in1019.0 mb 0.00 in0.0 mm 0.00 in0.0 mm 0.00 in0.0 mm
06:09 AM 41.8°F5.4°C 34.5°F1.4°C 75% 27.0 mph NW43.5 kmh NW 30.0 mph48.3 kmh 30.09 in1019.0 mb 0.00 in0.0 mm 0.00 in0.0 mm 0.00 in0.0 mm
06:08 AM 41.8°F5.4°C 34.5°F1.4°C 75% 25.0 mph NW40.2 kmh NW 28.0 mph45.1 kmh 30.09 in1019.0 mb 0.00 in0.0 mm 0.00 in0.0 mm 0.00 in0.0 mm
06:07 AM 41.8°F5.4°C 34.5°F1.4°C 75% 22.0 mph NW35.4 kmh NW 28.0 mph45.1 kmh 30.09 in1019.0 mb 0.00 in0.0 mm 0.00 in0.0 mm 0.00 in0.0 mm
06:06 AM 41.8°F5.4°C 34.5°F1.4°C 75% 21.0 mph NW33.8 kmh NW 25.0 mph40.2 kmh 30.09 in1019.0 mb 0.00 in0.0 mm 0.00 in0.0 mm 0.00 in0.0 mm
06:05 AM 41.8°F5.4°C 34.1°F1.2°C 74% 23.0 mph NW37.0 kmh NW 27.0 mph43.5 kmh 30.09 in1019.0 mb 0.00 in0.0 mm 0.00 in0.0 mm 0.00 in0.0 mm
06:04 AM 41.9°F5.5°C 34.2°F1.2°C 74% 27.0 mph NW43.5 kmh NW 31.0 mph49.9 kmh 30.09 in1019.0 mb 0.00 in0.0 mm 0.00 in0.0 mm 0.00 in0.0 mm
06:03 AM 41.9°F5.5°C 34.6°F1.4°C 75% 24.0 mph NW38.6 kmh NW 30.0 mph48.3 kmh 30.09 in1019.0 mb 0.00 in0.0 mm 0.00 in0.0 mm 0.00 in0.0 mm
06:02 AM 41.9°F5.5°C 34.2°F1.2°C 74% 28.0 mph NW45.1 kmh NW 35.0 mph56.3 kmh 30.09 in1019.0 mb 0.00 in0.0 mm 0.00 in0.0 mm 0.00 in0.0 mm
06:01 AM 41.9°F5.5°C 34.6°F1.4°C 75% 27.0 mph NW43.5 kmh NW 29.0 mph46.7 kmh 30.09 in1019.0 mb 0.00 in0.0 mm 0.00 in0.0 mm 0.00 in0.0 mm
06:00 AM 41.8°F5.4°C 34.5°F1.4°C 75% 26.0 mph NW41.8 kmh NW 30.0 mph48.3 kmh 30.09 in1019.0 mb 0.00 in0.0 mm 0.00 in0.0 mm 0.00 in0.0 mm
05:59 AM 41.9°F5.5°C 34.9°F1.6°C 76% 25.0 mph NW40.2 kmh NW 29.0 mph46.7 kmh 30.09 in1019.0 mb 0.00 in0.0 mm 0.00 in0.0 mm 0.00 in0.0 mm
05:58 AM 41.8°F5.4°C 34.8°F1.6°C 76% 26.0 mph NW41.8 kmh NW 31.0 mph49.9 kmh 30.09 in1019.0 mb 0.00 in0.0 mm 0.00 in0.0 mm 0.00 in0.0 mm
05:57 AM 41.8°F5.4°C 34.5°F1.4°C 75% 26.0 mph NW41.8 kmh NW 29.0 mph46.7 kmh 30.09 in1019.0 mb 0.00 in0.0 mm 0.00 in0.0 mm 0.00 in0.0 mm
05:56 AM 42.0°F5.6°C 34.7°F1.5°C 75% 24.0 mph NW38.6 kmh NW 28.0 mph45.1 kmh 30.08 in1018.6 mb 0.00 in0.0 mm 0.00 in0.0 mm 0.00 in0.0 mm
05:55 AM 41.8°F5.4°C 34.8°F1.6°C 76% 27.0 mph NW43.5 kmh NW 31.0 mph49.9 kmh 30.08 in1018.6 mb 0.00 in0.0 mm 0.00 in0.0 mm 0.00 in0.0 mm
05:54 AM 42.0°F5.6°C 35.0°F1.7°C 76% 24.0 mph NW38.6 kmh NW 26.0 mph41.8 kmh 30.08 in1018.6 mb 0.00 in0.0 mm 0.00 in0.0 mm 0.00 in0.0 mm
05:53 AM 42.0°F5.6°C 35.0°F1.7°C 76% 26.0 mph NW41.8 kmh NW 29.0 mph46.7 kmh 30.08 in1018.6 mb 0.00 in0.0 mm 0.00 in0.0 mm 0.00 in0.0 mm
05:52 AM 42.0°F5.6°C 35.0°F1.7°C 76% 25.0 mph NW40.2 kmh NW 28.0 mph45.1 kmh 30.08 in1018.6 mb 0.00 in0.0 mm 0.00 in0.0 mm 0.00 in0.0 mm
05:51 AM 41.9°F5.5°C 34.9°F1.6°C 76% 25.0 mph NW40.2 kmh NW 30.0 mph48.3 kmh 30.08 in1018.6 mb 0.00 in0.0 mm 0.00 in0.0 mm 0.00 in0.0 mm
05:50 AM 41.9°F5.5°C 34.2°F1.2°C 74% 28.0 mph NW45.1 kmh NW 32.0 mph51.5 kmh 30.08 in1018.6 mb 0.00 in0.0 mm 0.00 in0.0 mm 0.00 in0.0 mm
05:49 AM 41.9°F5.5°C 34.6°F1.4°C 75% 27.0 mph NW43.5 kmh NW 30.0 mph48.3 kmh 30.08 in1018.6 mb 0.00 in0.0 mm 0.00 in0.0 mm 0.00 in0.0 mm
05:48 AM 41.9°F5.5°C 34.2°F1.2°C 74% 28.0 mph NW45.1 kmh NW 31.0 mph49.9 kmh 30.08 in1018.6 mb 0.00 in0.0 mm 0.00 in0.0 mm 0.00 in0.0 mm
05:47 AM 42.0°F5.6°C 34.7°F1.5°C 75% 28.0 mph NW45.1 kmh NW 32.0 mph51.5 kmh 30.08 in1018.6 mb 0.00 in0.0 mm 0.00 in0.0 mm 0.00 in0.0 mm
05:46 AM 42.0°F5.6°C 34.3°F1.3°C 74% 28.0 mph NW45.1 kmh NW 37.0 mph59.5 kmh 30.08 in1018.6 mb 0.00 in0.0 mm 0.00 in0.0 mm 0.00 in0.0 mm
05:45 AM 41.9°F5.5°C 33.9°F1.1°C 73% 31.0 mph NW49.9 kmh NW 35.0 mph56.3 kmh 30.08 in1018.6 mb 0.00 in0.0 mm 0.00 in0.0 mm 0.00 in0.0 mm
05:44 AM 41.9°F5.5°C 34.6°F1.4°C 75% 28.0 mph NW45.1 kmh NW 34.0 mph54.7 kmh 30.08 in1018.6 mb 0.00 in0.0 mm 0.00 in0.0 mm 0.00 in0.0 mm
05:43 AM 41.8°F5.4°C 34.1°F1.2°C 74% 30.0 mph NW48.3 kmh NW 33.0 mph53.1 kmh 30.08 in1018.6 mb 0.00 in0.0 mm 0.00 in0.0 mm 0.00 in0.0 mm
05:42 AM 41.9°F5.5°C 34.2°F1.2°C 74% 28.0 mph NW45.1 kmh NW 33.0 mph53.1 kmh 30.08 in1018.6 mb 0.00 in0.0 mm 0.00 in0.0 mm 0.00 in0.0 mm
05:41 AM 41.9°F5.5°C 34.6°F1.4°C 75% 28.0 mph NW45.1 kmh NW 32.0 mph51.5 kmh 30.08 in1018.6 mb 0.00 in0.0 mm 0.00 in0.0 mm 0.00 in0.0 mm
05:40 AM 41.9°F5.5°C 34.2°F1.2°C 74% 28.0 mph NW45.1 kmh NW 35.0 mph56.3 kmh 30.08 in1018.6 mb 0.00 in0.0 mm 0.00 in0.0 mm 0.00 in0.0 mm
05:39 AM 41.9°F5.5°C 33.9°F1.1°C 73% 27.0 mph NW43.5 kmh NW 30.0 mph48.3 kmh 30.08 in1018.6 mb 0.00 in0.0 mm 0.00 in0.0 mm 0.00 in0.0 mm
05:38 AM 41.8°F5.4°C 34.1°F1.2°C 74% 32.0 mph NW51.5 kmh NW 35.0 mph56.3 kmh 30.09 in1019.0 mb 0.00 in0.0 mm 0.00 in0.0 mm 0.00 in0.0 mm
05:37 AM 41.8°F5.4°C 34.1°F1.2°C 74% 29.0 mph NW46.7 kmh NW 34.0 mph54.7 kmh 30.09 in1019.0 mb 0.00 in0.0 mm 0.00 in0.0 mm 0.00 in0.0 mm
05:36 AM 41.8°F5.4°C 34.1°F1.2°C 74% 29.0 mph NW46.7 kmh NW 33.0 mph53.1 kmh 30.09 in1019.0 mb 0.00 in0.0 mm 0.00 in0.0 mm 0.00 in0.0 mm
05:35 AM 41.9°F5.5°C 34.6°F1.4°C 75% 24.0 mph NW38.6 kmh NW 34.0 mph54.7 kmh 30.09 in1019.0 mb 0.00 in0.0 mm 0.00 in0.0 mm 0.00 in0.0 mm
05:34 AM 41.9°F5.5°C 34.6°F1.4°C 75% 30.0 mph NW48.3 kmh NW 34.0 mph54.7 kmh 30.09 in1019.0 mb 0.00 in0.0 mm 0.00 in0.0 mm 0.00 in0.0 mm
05:33 AM 41.8°F5.4°C 34.8°F1.6°C 76% 28.0 mph NW45.1 kmh NW 33.0 mph53.1 kmh 30.09 in1019.0 mb 0.00 in0.0 mm 0.00 in0.0 mm 0.00 in0.0 mm
05:32 AM 41.8°F5.4°C 34.5°F1.4°C 75% 26.0 mph NW41.8 kmh NW 30.0 mph48.3 kmh 30.09 in1019.0 mb 0.00 in0.0 mm 0.00 in0.0 mm 0.00 in0.0 mm
05:31 AM 41.9°F5.5°C 34.9°F1.6°C 76% 27.0 mph NW43.5 kmh NW 31.0 mph49.9 kmh 30.09 in1019.0 mb 0.00 in0.0 mm 0.00 in0.0 mm 0.00 in0.0 mm
05:30 AM 41.9°F5.5°C 34.9°F1.6°C 76% 23.0 mph NW37.0 kmh NW 27.0 mph43.5 kmh 30.09 in1019.0 mb 0.00 in0.0 mm 0.00 in0.0 mm 0.00 in0.0 mm
05:29 AM 41.8°F5.4°C 34.8°F1.6°C 76% 24.0 mph NW38.6 kmh NW 31.0 mph49.9 kmh 30.09 in1019.0 mb 0.00 in0.0 mm 0.00 in0.0 mm 0.00 in0.0 mm
05:28 AM 41.8°F5.4°C 34.8°F1.6°C 76% 28.0 mph NW45.1 kmh NW 31.0 mph49.9 kmh 30.09 in1019.0 mb 0.00 in0.0 mm 0.00 in0.0 mm 0.00 in0.0 mm
05:27 AM 41.8°F5.4°C 34.8°F1.6°C 76% 24.0 mph NW38.6 kmh NW 27.0 mph43.5 kmh 30.09 in1019.0 mb 0.00 in0.0 mm 0.00 in0.0 mm 0.00 in0.0 mm
05:26 AM 41.8°F5.4°C 34.8°F1.6°C 76% 25.0 mph NW40.2 kmh NW 32.0 mph51.5 kmh 30.09 in1019.0 mb 0.00 in0.0 mm 0.00 in0.0 mm 0.00 in0.0 mm
05:25 AM 41.8°F5.4°C 34.5°F1.4°C 75% 27.0 mph NW43.5 kmh NW 32.0 mph51.5 kmh 30.09 in1019.0 mb 0.00 in0.0 mm 0.00 in0.0 mm 0.00 in0.0 mm
05:24 AM 41.8°F5.4°C 35.1°F1.7°C 77% 23.0 mph NW37.0 kmh NW 30.0 mph48.3 kmh 30.09 in1019.0 mb 0.00 in0.0 mm 0.00 in0.0 mm 0.00 in0.0 mm
05:23 AM 41.8°F5.4°C 34.8°F1.6°C 76% 23.0 mph NW37.0 kmh NW 25.0 mph40.2 kmh 30.09 in1019.0 mb 0.00 in0.0 mm 0.00 in0.0 mm 0.00 in0.0 mm
05:22 AM 41.8°F5.4°C 34.8°F1.6°C 76% 24.0 mph NW38.6 kmh NW 28.0 mph45.1 kmh 30.09 in1019.0 mb 0.00 in0.0 mm 0.00 in0.0 mm 0.00 in0.0 mm
05:21 AM 41.7°F5.4°C 34.4°F1.3°C 75% 25.0 mph NW40.2 kmh NW 30.0 mph48.3 kmh 30.09 in1019.0 mb 0.00 in0.0 mm 0.00 in0.0 mm 0.00 in0.0 mm
05:20 AM 41.6°F5.3°C 34.9°F1.6°C 77% 25.0 mph NW40.2 kmh NW 31.0 mph49.9 kmh 30.09 in1019.0 mb 0.00 in0.0 mm 0.00 in0.0 mm 0.00 in0.0 mm
05:19 AM 41.6°F5.3°C 34.9°F1.6°C 77% 24.0 mph WNW38.6 kmh WNW 30.0 mph48.3 kmh 30.09 in1019.0 mb 0.00 in0.0 mm 0.00 in0.0 mm 0.00 in0.0 mm
05:18 AM 41.6°F5.3°C 35.3°F1.8°C 78% 24.0 mph NW38.6 kmh NW 31.0 mph49.9 kmh 30.08 in1018.6 mb 0.00 in0.0 mm 0.00 in0.0 mm 0.00 in0.0 mm
05:17 AM 41.6°F5.3°C 35.6°F2.0°C 79% 22.0 mph NW35.4 kmh NW 25.0 mph40.2 kmh 30.09 in1019.0 mb 0.00 in0.0 mm 0.00 in0.0 mm 0.00 in0.0 mm
05:16 AM 41.6°F5.3°C 35.3°F1.8°C 78% 20.0 mph NW32.2 kmh NW 22.0 mph35.4 kmh 30.09 in1019.0 mb 0.00 in0.0 mm 0.00 in0.0 mm 0.00 in0.0 mm
05:15 AM 41.7°F5.4°C 35.7°F2.1°C 79% 22.0 mph NW35.4 kmh NW 26.0 mph41.8 kmh 30.09 in1019.0 mb 0.00 in0.0 mm 0.00 in0.0 mm 0.00 in0.0 mm
05:14 AM 41.7°F5.4°C 35.7°F2.1°C 79% 20.0 mph NW32.2 kmh NW 22.0 mph35.4 kmh 30.08 in1018.6 mb 0.00 in0.0 mm 0.00 in0.0 mm 0.00 in0.0 mm
05:13 AM 41.7°F5.4°C 35.7°F2.1°C 79% 24.0 mph NW38.6 kmh NW 29.0 mph46.7 kmh 30.08 in1018.6 mb 0.00 in0.0 mm 0.00 in0.0 mm 0.00 in0.0 mm
05:12 AM 41.6°F5.3°C 35.6°F2.0°C 79% 21.0 mph NW33.8 kmh NW 23.0 mph37.0 kmh 30.09 in1019.0 mb 0.00 in0.0 mm 0.00 in0.0 mm 0.00 in0.0 mm
05:11 AM 41.7°F5.4°C 35.4°F1.9°C 78% 24.0 mph NW38.6 kmh NW 29.0 mph46.7 kmh 30.08 in1018.6 mb 0.00 in0.0 mm 0.00 in0.0 mm 0.00 in0.0 mm
05:10 AM 41.6°F5.3°C 35.6°F2.0°C 79% 27.0 mph NW43.5 kmh NW 29.0 mph46.7 kmh 30.08 in1018.6 mb 0.00 in0.0 mm 0.00 in0.0 mm 0.00 in0.0 mm
05:09 AM 41.6°F5.3°C 35.6°F2.0°C 79% 22.0 mph NW35.4 kmh NW 26.0 mph41.8 kmh 30.08 in1018.6 mb 0.00 in0.0 mm 0.00 in0.0 mm 0.00 in0.0 mm
05:08 AM 41.6°F5.3°C 35.6°F2.0°C 79% 23.0 mph NW37.0 kmh NW 25.0 mph40.2 kmh 30.08 in1018.6 mb 0.00 in0.0 mm 0.00 in0.0 mm 0.00 in0.0 mm
05:07 AM 41.6°F5.3°C 35.6°F2.0°C 79% 24.0 mph WNW38.6 kmh WNW 27.0 mph43.5 kmh 30.08 in1018.6 mb 0.00 in0.0 mm 0.00 in0.0 mm 0.00 in0.0 mm
05:06 AM 41.6°F5.3°C 35.6°F2.0°C 79% 23.0 mph WNW37.0 kmh WNW 26.0 mph41.8 kmh 30.08 in1018.6 mb 0.00 in0.0 mm 0.00 in0.0 mm 0.00 in0.0 mm
05:05 AM 41.6°F5.3°C 35.6°F2.0°C 79% 22.0 mph NW35.4 kmh NW 26.0 mph41.8 kmh 30.08 in1018.6 mb 0.00 in0.0 mm 0.00 in0.0 mm 0.00 in0.0 mm
05:04 AM 41.6°F5.3°C 35.6°F2.0°C 79% 22.0 mph WNW35.4 kmh WNW 28.0 mph45.1 kmh 30.08 in1018.6 mb 0.00 in0.0 mm 0.00 in0.0 mm 0.00 in0.0 mm
05:03 AM 41.6°F5.3°C 35.6°F2.0°C 79% 22.0 mph WNW35.4 kmh WNW 25.0 mph40.2 kmh 30.08 in1018.6 mb 0.00 in0.0 mm 0.00 in0.0 mm 0.00 in0.0 mm
05:02 AM 41.6°F5.3°C 35.6°F2.0°C 79% 20.0 mph WNW32.2 kmh WNW 24.0 mph38.6 kmh 30.08 in1018.6 mb 0.00 in0.0 mm 0.00 in0.0 mm 0.00 in0.0 mm
05:01 AM 41.6°F5.3°C 35.6°F2.0°C 79% 21.0 mph WNW33.8 kmh WNW 24.0 mph38.6 kmh 30.08 in1018.6 mb 0.00 in0.0 mm 0.00 in0.0 mm 0.00 in0.0 mm
05:00 AM 41.6°F5.3°C 35.3°F1.8°C 78% 22.0 mph WNW35.4 kmh WNW 25.0 mph40.2 kmh 30.08 in1018.6 mb 0.00 in0.0 mm 0.00 in0.0 mm 0.00 in0.0 mm
04:59 AM 41.6°F5.3°C 35.6°F2.0°C 79% 26.0 mph WNW41.8 kmh WNW 29.0 mph46.7 kmh 30.08 in1018.6 mb 0.00 in0.0 mm 0.00 in0.0 mm 0.00 in0.0 mm
04:58 AM 41.7°F5.4°C 35.7°F2.1°C 79% 25.0 mph NW40.2 kmh NW 29.0 mph46.7 kmh 30.08 in1018.6 mb 0.00 in0.0 mm 0.00 in0.0 mm 0.00 in0.0 mm
04:57 AM 41.6°F5.3°C 35.6°F2.0°C 79% 23.0 mph NW37.0 kmh NW 24.0 mph38.6 kmh 30.08 in1018.6 mb 0.00 in0.0 mm 0.00 in0.0 mm 0.00 in0.0 mm
04:56 AM 41.6°F5.3°C 35.3°F1.8°C 78% 25.0 mph NW40.2 kmh NW 30.0 mph48.3 kmh 30.08 in1018.6 mb 0.00 in0.0 mm 0.00 in0.0 mm 0.00 in0.0 mm
04:55 AM 41.7°F5.4°C 35.7°F2.1°C 79% 23.0 mph NW37.0 kmh NW 28.0 mph45.1 kmh 30.08 in1018.6 mb 0.00 in0.0 mm 0.00 in0.0 mm 0.00 in0.0 mm
04:54 AM 41.6°F5.3°C 35.3°F1.8°C 78% 26.0 mph NW41.8 kmh NW 28.0 mph45.1 kmh 30.08 in1018.6 mb 0.00 in0.0 mm 0.00 in0.0 mm 0.00 in0.0 mm
04:53 AM 41.6°F5.3°C 35.3°F1.8°C 78% 23.0 mph NW37.0 kmh NW 28.0 mph45.1 kmh 30.08 in1018.6 mb 0.00 in0.0 mm 0.00 in0.0 mm 0.00 in0.0 mm
04:52 AM 41.6°F5.3°C 35.3°F1.8°C 78% 23.0 mph WNW37.0 kmh WNW 29.0 mph46.7 kmh 30.08 in1018.6 mb 0.00 in0.0 mm 0.00 in0.0 mm 0.00 in0.0 mm
04:51 AM 41.5°F5.3°C 35.2°F1.8°C 78% 25.0 mph NW40.2 kmh NW 28.0 mph45.1 kmh 30.08 in1018.6 mb 0.00 in0.0 mm 0.00 in0.0 mm 0.00 in0.0 mm
04:50 AM 41.5°F5.3°C 35.2°F1.8°C 78% 24.0 mph WNW38.6 kmh WNW 28.0 mph45.1 kmh 30.08 in1018.6 mb 0.00 in0.0 mm 0.00 in0.0 mm 0.00 in0.0 mm
04:49 AM 41.5°F5.3°C 35.2°F1.8°C 78% 23.0 mph NW37.0 kmh NW 26.0 mph41.8 kmh 30.07 in1018.3 mb 0.00 in0.0 mm 0.00 in0.0 mm 0.00 in0.0 mm
04:48 AM 41.5°F5.3°C 35.2°F1.8°C 78% 24.0 mph WNW38.6 kmh WNW 27.0 mph43.5 kmh 30.07 in1018.3 mb 0.00 in0.0 mm 0.00 in0.0 mm 0.00 in0.0 mm
04:47 AM 41.4°F5.2°C 34.7°F1.5°C 77% 24.0 mph WNW38.6 kmh WNW 28.0 mph45.1 kmh 30.07 in1018.3 mb 0.00 in0.0 mm 0.00 in0.0 mm 0.00 in0.0 mm
04:46 AM 41.5°F5.3°C 34.8°F1.6°C 77% 22.0 mph WNW35.4 kmh WNW 24.0 mph38.6 kmh 30.07 in1018.3 mb 0.00 in0.0 mm 0.00 in0.0 mm 0.00 in0.0 mm
04:45 AM 41.5°F5.3°C 34.8°F1.6°C 77% 26.0 mph WNW41.8 kmh WNW 29.0 mph46.7 kmh 30.08 in1018.6 mb 0.00 in0.0 mm 0.00 in0.0 mm 0.00 in0.0 mm
04:44 AM 41.5°F5.3°C 35.2°F1.8°C 78% 24.0 mph WNW38.6 kmh WNW 28.0 mph45.1 kmh 30.08 in1018.6 mb 0.00 in0.0 mm 0.00 in0.0 mm 0.00 in0.0 mm
04:43 AM 41.5°F5.3°C 35.2°F1.8°C 78% 23.0 mph WNW37.0 kmh WNW 28.0 mph45.1 kmh 30.08 in1018.6 mb 0.00 in0.0 mm 0.00 in0.0 mm 0.00 in0.0 mm
04:42 AM 41.5°F5.3°C 34.8°F1.6°C 77% 22.0 mph NW35.4 kmh NW 24.0 mph38.6 kmh 30.08 in1018.6 mb 0.00 in0.0 mm 0.00 in0.0 mm 0.00 in0.0 mm
04:41 AM 41.5°F5.3°C 35.2°F1.8°C 78% 23.0 mph WNW37.0 kmh WNW 27.0 mph43.5 kmh 30.08 in1018.6 mb 0.00 in0.0 mm 0.00 in0.0 mm 0.00 in0.0 mm
04:40 AM 41.4°F5.2°C 35.1°F1.7°C 78% 23.0 mph WNW37.0 kmh WNW 25.0 mph40.2 kmh 30.08 in1018.6 mb 0.00 in0.0 mm 0.00 in0.0 mm 0.00 in0.0 mm
04:39 AM 41.4°F5.2°C 34.7°F1.5°C 77% 24.0 mph NW38.6 kmh NW 27.0 mph43.5 kmh 30.08 in1018.6 mb 0.00 in0.0 mm 0.00 in0.0 mm 0.00 in0.0 mm
04:38 AM 41.4°F5.2°C 34.7°F1.5°C 77% 23.0 mph WNW37.0 kmh WNW 27.0 mph43.5 kmh 30.08 in1018.6 mb 0.00 in0.0 mm 0.00 in0.0 mm 0.00 in0.0 mm
04:37 AM 41.4°F5.2°C 34.7°F1.5°C 77% 25.0 mph WNW40.2 kmh WNW 29.0 mph46.7 kmh 30.08 in1018.6 mb 0.00 in0.0 mm 0.00 in0.0 mm 0.00 in0.0 mm
04:36 AM 41.4°F5.2°C 35.1°F1.7°C 78% 25.0 mph WNW40.2 kmh WNW 28.0 mph45.1 kmh 30.08 in1018.6 mb 0.00 in0.0 mm 0.00 in0.0 mm 0.00 in0.0 mm
04:35 AM 41.3°F5.2°C 35.0°F1.7°C 78% 25.0 mph WNW40.2 kmh WNW 31.0 mph49.9 kmh 30.08 in1018.6 mb 0.00 in0.0 mm 0.00 in0.0 mm 0.00 in0.0 mm
04:34 AM 41.2°F5.1°C 34.9°F1.6°C 78% 25.0 mph WNW40.2 kmh WNW 30.0 mph48.3 kmh 30.08 in1018.6 mb 0.00 in0.0 mm 0.00 in0.0 mm 0.00 in0.0 mm
04:33 AM 41.3°F5.2°C 35.0°F1.7°C 78% 23.0 mph WNW37.0 kmh WNW 25.0 mph40.2 kmh 30.08 in1018.6 mb 0.00 in0.0 mm 0.00 in0.0 mm 0.00 in0.0 mm
04:32 AM 41.2°F5.1°C 35.2°F1.8°C 79% 23.0 mph WNW37.0 kmh WNW 26.0 mph41.8 kmh 30.08 in1018.6 mb 0.00 in0.0 mm 0.00 in0.0 mm 0.00 in0.0 mm
04:31 AM 41.1°F5.1°C 34.8°F1.6°C 78% 24.0 mph WNW38.6 kmh WNW 27.0 mph43.5 kmh 30.08 in1018.6 mb 0.00 in0.0 mm 0.00 in0.0 mm 0.00 in0.0 mm
04:30 AM 41.1°F5.1°C 35.1°F1.7°C 79% 23.0 mph WNW37.0 kmh WNW 26.0 mph41.8 kmh 30.08 in1018.6 mb 0.00 in0.0 mm 0.00 in0.0 mm 0.00 in0.0 mm
04:29 AM 41.1°F5.1°C 35.1°F1.7°C 79% 21.0 mph WNW33.8 kmh WNW 24.0 mph38.6 kmh 30.08 in1018.6 mb 0.00 in0.0 mm 0.00 in0.0 mm 0.00 in0.0 mm
04:28 AM 41.1°F5.1°C 35.1°F1.7°C 79% 19.0 mph WNW30.6 kmh WNW 22.0 mph35.4 kmh 30.08 in1018.6 mb 0.00 in0.0 mm 0.00 in0.0 mm 0.00 in0.0 mm
04:27 AM 41.1°F5.1°C 34.8°F1.6°C 78% 19.0 mph WNW30.6 kmh WNW 22.0 mph35.4 kmh 30.08 in1018.6 mb 0.00 in0.0 mm 0.00 in0.0 mm 0.00 in0.0 mm
04:26 AM 41.1°F5.1°C 34.8°F1.6°C 78% 21.0 mph WNW33.8 kmh WNW 25.0 mph40.2 kmh 30.08 in1018.6 mb 0.00 in0.0 mm 0.00 in0.0 mm 0.00 in0.0 mm
04:25 AM 41.2°F5.1°C 35.2°F1.8°C 79% 21.0 mph WNW33.8 kmh WNW 24.0 mph38.6 kmh 30.09 in1019.0 mb 0.00 in0.0 mm 0.00 in0.0 mm 0.00 in0.0 mm
04:24 AM 41.1°F5.1°C 34.8°F1.6°C 78% 20.0 mph WNW32.2 kmh WNW 22.0 mph35.4 kmh 30.09 in1019.0 mb 0.00 in0.0 mm 0.00 in0.0 mm 0.00 in0.0 mm
04:23 AM 41.2°F5.1°C 34.9°F1.6°C 78% 21.0 mph WNW33.8 kmh WNW 23.0 mph37.0 kmh 30.09 in1019.0 mb 0.00 in0.0 mm 0.00 in0.0 mm 0.00 in0.0 mm
04:22 AM 41.2°F5.1°C 34.9°F1.6°C 78% 23.0 mph WNW37.0 kmh WNW 26.0 mph41.8 kmh 30.09 in1019.0 mb 0.00 in0.0 mm 0.00 in0.0 mm 0.00 in0.0 mm
04:21 AM 41.2°F5.1°C 35.2°F1.8°C 79% 21.0 mph WNW33.8 kmh WNW 26.0 mph41.8 kmh 30.09 in1019.0 mb 0.00 in0.0 mm 0.00 in0.0 mm 0.00 in0.0 mm
04:20 AM 41.2°F5.1°C 34.9°F1.6°C 78% 19.0 mph WNW30.6 kmh WNW 23.0 mph37.0 kmh 30.09 in1019.0 mb 0.00 in0.0 mm 0.00 in0.0 mm 0.00 in0.0 mm
04:19 AM 41.2°F5.1°C 34.9°F1.6°C 78% 20.0 mph WNW32.2 kmh WNW 23.0 mph37.0 kmh 30.09 in1019.0 mb 0.00 in0.0 mm 0.00 in0.0 mm 0.00 in0.0 mm
04:18 AM 41.3°F5.2°C 35.3°F1.8°C 79% 19.0 mph WNW30.6 kmh WNW 22.0 mph35.4 kmh 30.09 in1019.0 mb 0.00 in0.0 mm 0.00 in0.0 mm 0.00 in0.0 mm
04:17 AM 41.3°F5.2°C 35.3°F1.8°C 79% 17.0 mph WNW27.4 kmh WNW 20.0 mph32.2 kmh 30.09 in1019.0 mb 0.00 in0.0 mm 0.00 in0.0 mm 0.00 in0.0 mm
04:16 AM 41.3°F5.2°C 35.0°F1.7°C 78% 19.0 mph WNW30.6 kmh WNW 22.0 mph35.4 kmh 30.09 in1019.0 mb 0.00 in0.0 mm 0.00 in0.0 mm 0.00 in0.0 mm
04:15 AM 41.3°F5.2°C 35.0°F1.7°C 78% 21.0 mph NW33.8 kmh NW 24.0 mph38.6 kmh 30.09 in1019.0 mb 0.00 in0.0 mm 0.00 in0.0 mm 0.00 in0.0 mm
04:14 AM 41.4°F5.2°C 35.1°F1.7°C 78% 19.0 mph WNW30.6 kmh WNW 25.0 mph40.2 kmh 30.09 in1019.0 mb 0.00 in0.0 mm 0.00 in0.0 mm 0.00 in0.0 mm
04:13 AM 41.3°F5.2°C 35.0°F1.7°C 78% 20.0 mph WNW32.2 kmh WNW 21.0 mph33.8 kmh 30.09 in1019.0 mb 0.00 in0.0 mm 0.00 in0.0 mm 0.00 in0.0 mm
04:12 AM 41.3°F5.2°C 35.3°F1.8°C 79% 22.0 mph WNW35.4 kmh WNW 25.0 mph40.2 kmh 30.09 in1019.0 mb 0.00 in0.0 mm 0.00 in0.0 mm 0.00 in0.0 mm
04:11 AM 41.3°F5.2°C 35.3°F1.8°C 79% 20.0 mph WNW32.2 kmh WNW 23.0 mph37.0 kmh 30.09 in1019.0 mb 0.00 in0.0 mm 0.00 in0.0 mm 0.00 in0.0 mm
04:10 AM 41.3°F5.2°C 35.3°F1.8°C 79% 21.0 mph WNW33.8 kmh WNW 25.0 mph40.2 kmh 30.09 in1019.0 mb 0.00 in0.0 mm 0.00 in0.0 mm 0.00 in0.0 mm
04:09 AM 41.3°F5.2°C 35.0°F1.7°C 78% 22.0 mph WNW35.4 kmh WNW 26.0 mph41.8 kmh 30.09 in1019.0 mb 0.00 in0.0 mm 0.00 in0.0 mm 0.00 in0.0 mm
04:08 AM 41.3°F5.2°C 35.0°F1.7°C 78% 25.0 mph WNW40.2 kmh WNW 29.0 mph46.7 kmh 30.09 in1019.0 mb 0.00 in0.0 mm 0.00 in0.0 mm 0.00 in0.0 mm
04:07 AM 41.3°F5.2°C 35.3°F1.8°C 79% 24.0 mph WNW38.6 kmh WNW 28.0 mph45.1 kmh 30.09 in1019.0 mb 0.00 in0.0 mm 0.00 in0.0 mm 0.00 in0.0 mm
04:06 AM 41.2°F5.1°C 35.2°F1.8°C 79% 21.0 mph WNW33.8 kmh WNW 24.0 mph38.6 kmh 30.09 in1019.0 mb 0.00 in0.0 mm 0.00 in0.0 mm 0.00 in0.0 mm
04:05 AM 41.2°F5.1°C 35.2°F1.8°C 79% 21.0 mph WNW33.8 kmh WNW 25.0 mph40.2 kmh 30.09 in1019.0 mb 0.00 in0.0 mm 0.00 in0.0 mm 0.00 in0.0 mm
04:04 AM 41.1°F5.1°C 35.1°F1.7°C 79% 22.0 mph WNW35.4 kmh WNW 24.0 mph38.6 kmh 30.09 in1019.0 mb 0.00 in0.0 mm 0.00 in0.0 mm 0.00 in0.0 mm
04:03 AM 41.2°F5.1°C 35.5°F1.9°C 80% 22.0 mph WNW35.4 kmh WNW 25.0 mph40.2 kmh 30.09 in1019.0 mb 0.00 in0.0 mm 0.00 in0.0 mm 0.00 in0.0 mm
04:02 AM 41.2°F5.1°C 35.5°F1.9°C 80% 19.0 mph WNW30.6 kmh WNW 22.0 mph35.4 kmh 30.09 in1019.0 mb 0.00 in0.0 mm 0.00 in0.0 mm 0.00 in0.0 mm
04:01 AM 41.2°F5.1°C 35.8°F2.1°C 81% 18.0 mph WNW29.0 kmh WNW 21.0 mph33.8 kmh 30.09 in1019.0 mb 0.00 in0.0 mm 0.00 in0.0 mm 0.00 in0.0 mm
04:00 AM 41.2°F5.1°C 35.5°F1.9°C 80% 17.0 mph WNW27.4 kmh WNW 20.0 mph32.2 kmh 30.09 in1019.0 mb 0.00 in0.0 mm 0.00 in0.0 mm 0.00 in0.0 mm
03:59 AM 41.1°F5.1°C 35.4°F1.9°C 80% 18.0 mph WNW29.0 kmh WNW 21.0 mph33.8 kmh 30.09 in1019.0 mb 0.00 in0.0 mm 0.00 in0.0 mm 0.00 in0.0 mm
03:58 AM 41.2°F5.1°C 35.5°F1.9°C 80% 19.0 mph WNW30.6 kmh WNW 21.0 mph33.8 kmh 30.09 in1019.0 mb 0.00 in0.0 mm 0.00 in0.0 mm 0.00 in0.0 mm
03:57 AM 41.2°F5.1°C 35.8°F2.1°C 81% 22.0 mph WNW35.4 kmh WNW 25.0 mph40.2 kmh 30.09 in1019.0 mb 0.00 in0.0 mm 0.00 in0.0 mm 0.00 in0.0 mm
03:56 AM 41.2°F5.1°C 35.8°F2.1°C 81% 18.0 mph WNW29.0 kmh WNW 20.0 mph32.2 kmh 30.09 in1019.0 mb 0.00 in0.0 mm 0.00 in0.0 mm 0.00 in0.0 mm
03:55 AM 41.2°F5.1°C 35.8°F2.1°C 81% 17.0 mph WNW27.4 kmh WNW 20.0 mph32.2 kmh 30.09 in1019.0 mb 0.00 in0.0 mm 0.00 in0.0 mm 0.00 in0.0 mm
03:54 AM 41.2°F5.1°C 35.8°F2.1°C 81% 19.0 mph W30.6 kmh W 23.0 mph37.0 kmh 30.09 in1019.0 mb 0.00 in0.0 mm 0.00 in0.0 mm 0.00 in0.0 mm
03:53 AM 41.2°F5.1°C 35.8°F2.1°C 81% 18.0 mph WNW29.0 kmh WNW 22.0 mph35.4 kmh 30.09 in1019.0 mb 0.00 in0.0 mm 0.00 in0.0 mm 0.00 in0.0 mm
03:52 AM 41.2°F5.1°C 35.8°F2.1°C 81% 19.0 mph WNW30.6 kmh WNW 21.0 mph33.8 kmh 30.09 in1019.0 mb 0.00 in0.0 mm 0.00 in0.0 mm 0.00 in0.0 mm
03:51 AM 41.2°F5.1°C 36.1°F2.3°C 82% 18.0 mph WNW29.0 kmh WNW 22.0 mph35.4 kmh 30.09 in1019.0 mb 0.00 in0.0 mm 0.00 in0.0 mm 0.00 in0.0 mm
03:50 AM 41.2°F5.1°C 35.8°F2.1°C 81% 17.0 mph W27.4 kmh W 20.0 mph32.2 kmh 30.09 in1019.0 mb 0.00 in0.0 mm 0.00 in0.0 mm 0.00 in0.0 mm
03:49 AM 41.3°F5.2°C 36.2°F2.3°C 82% 17.0 mph W27.4 kmh W 19.0 mph30.6 kmh 30.09 in1019.0 mb 0.00 in0.0 mm 0.00 in0.0 mm 0.00 in0.0 mm
03:48 AM 41.3°F5.2°C 36.2°F2.3°C 82% 15.0 mph W24.1 kmh W 17.0 mph27.4 kmh 30.09 in1019.0 mb 0.00 in0.0 mm 0.00 in0.0 mm 0.00 in0.0 mm
03:47 AM 41.2°F5.1°C 36.1°F2.3°C 82% 16.0 mph W25.7 kmh W 19.0 mph30.6 kmh 30.09 in1019.0 mb 0.00 in0.0 mm 0.00 in0.0 mm 0.00 in0.0 mm
03:46 AM 41.2°F5.1°C 36.1°F2.3°C 82% 17.0 mph W27.4 kmh W 19.0 mph30.6 kmh 30.09 in1019.0 mb 0.00 in0.0 mm 0.00 in0.0 mm 0.00 in0.0 mm
03:45 AM 41.2°F5.1°C 36.1°F2.3°C 82% 16.0 mph WNW25.7 kmh WNW 20.0 mph32.2 kmh 30.09 in1019.0 mb 0.00 in0.0 mm 0.00 in0.0 mm 0.00 in0.0 mm
03:44 AM 41.2°F5.1°C 36.1°F2.3°C 82% 15.0 mph W24.1 kmh W 16.0 mph25.7 kmh 30.09 in1019.0 mb 0.00 in0.0 mm 0.00 in0.0 mm 0.00 in0.0 mm
03:43 AM 41.3°F5.2°C 36.2°F2.3°C 82% 16.0 mph W25.7 kmh W 19.0 mph30.6 kmh 30.09 in1019.0 mb 0.00 in0.0 mm 0.00 in0.0 mm 0.00 in0.0 mm
03:42 AM 41.3°F5.2°C 36.2°F2.3°C 82% 16.0 mph W25.7 kmh W 19.0 mph30.6 kmh 30.09 in1019.0 mb 0.00 in0.0 mm 0.00 in0.0 mm 0.00 in0.0 mm
03:41 AM 41.2°F5.1°C 36.1°F2.3°C 82% 15.0 mph W24.1 kmh W 18.0 mph29.0 kmh 30.09 in1019.0 mb 0.00 in0.0 mm 0.00 in0.0 mm 0.00 in0.0 mm
03:40 AM 41.3°F5.2°C 36.2°F2.3°C 82% 15.0 mph W24.1 kmh W 20.0 mph32.2 kmh 30.09 in1019.0 mb 0.00 in0.0 mm 0.00 in0.0 mm 0.00 in0.0 mm
03:39 AM 41.2°F5.1°C 36.1°F2.3°C 82% 18.0 mph W29.0 kmh W 21.0 mph33.8 kmh 30.09 in1019.0 mb 0.00 in0.0 mm 0.00 in0.0 mm 0.00 in0.0 mm
03:38 AM 41.2°F5.1°C 36.1°F2.3°C 82% 16.0 mph W25.7 kmh W 18.0 mph29.0 kmh 30.09 in1019.0 mb 0.00 in0.0 mm 0.00 in0.0 mm 0.00 in0.0 mm
03:37 AM 41.2°F5.1°C 36.1°F2.3°C 82% 16.0 mph W25.7 kmh W 19.0 mph30.6 kmh 30.09 in1019.0 mb 0.00 in0.0 mm 0.00 in0.0 mm 0.00 in0.0 mm
03:36 AM 41.3°F5.2°C 36.2°F2.3°C 82% 14.0 mph W22.5 kmh W 15.0 mph24.1 kmh 30.09 in1019.0 mb 0.00 in0.0 mm 0.00 in0.0 mm 0.00 in0.0 mm
03:35 AM 41.3°F5.2°C 36.2°F2.3°C 82% 13.0 mph W20.9 kmh W 17.0 mph27.4 kmh 30.09 in1019.0 mb 0.00 in0.0 mm 0.00 in0.0 mm 0.00 in0.0 mm
03:34 AM 41.3°F5.2°C 36.2°F2.3°C 82% 13.0 mph W20.9 kmh W 16.0 mph25.7 kmh 30.09 in1019.0 mb 0.00 in0.0 mm 0.00 in0.0 mm 0.00 in0.0 mm
03:33 AM 41.4°F5.2°C 36.3°F2.4°C 82% 13.0 mph W20.9 kmh W 16.0 mph25.7 kmh 30.09 in1019.0 mb 0.00 in0.0 mm 0.00 in0.0 mm 0.00 in0.0 mm
03:32 AM 41.3°F5.2°C 36.2°F2.3°C 82% 14.0 mph W22.5 kmh W 18.0 mph29.0 kmh 30.09 in1019.0 mb 0.00 in0.0 mm 0.00 in0.0 mm 0.00 in0.0 mm
03:31 AM 41.3°F5.2°C 36.2°F2.3°C 82% 15.0 mph W24.1 kmh W 19.0 mph30.6 kmh 30.09 in1019.0 mb 0.00 in0.0 mm 0.00 in0.0 mm 0.00 in0.0 mm
03:30 AM 41.3°F5.2°C 36.2°F2.3°C 82% 17.0 mph W27.4 kmh W 18.0 mph29.0 kmh 30.09 in1019.0 mb 0.00 in0.0 mm 0.00 in0.0 mm 0.00 in0.0 mm
03:29 AM 41.3°F5.2°C 36.2°F2.3°C 82% 16.0 mph WNW25.7 kmh WNW 18.0 mph29.0 kmh 30.09 in1019.0 mb 0.00 in0.0 mm 0.00 in0.0 mm 0.00 in0.0 mm
03:28 AM 41.3°F5.2°C 36.2°F2.3°C 82% 16.0 mph W25.7 kmh W 17.0 mph27.4 kmh 30.09 in1019.0 mb 0.00 in0.0 mm 0.00 in0.0 mm 0.00 in0.0 mm
03:27 AM 41.4°F5.2°C 36.3°F2.4°C 82% 15.0 mph W24.1 kmh W 18.0 mph29.0 kmh 30.09 in1019.0 mb 0.00 in0.0 mm 0.00 in0.0 mm 0.00 in0.0 mm
03:26 AM 41.3°F5.2°C 36.2°F2.3°C 82% 16.0 mph W25.7 kmh W 19.0 mph30.6 kmh 30.09 in1019.0 mb 0.00 in0.0 mm 0.00 in0.0 mm 0.00 in0.0 mm
03:25 AM 41.4°F5.2°C 36.3°F2.4°C 82% 17.0 mph WNW27.4 kmh WNW 21.0 mph33.8 kmh 30.10 in1019.3 mb 0.00 in0.0 mm 0.00 in0.0 mm 0.00 in0.0 mm
03:24 AM 41.4°F5.2°C 36.3°F2.4°C 82% 19.0 mph WNW30.6 kmh WNW 21.0 mph33.8 kmh 30.09 in1019.0 mb 0.00 in0.0 mm 0.00 in0.0 mm 0.00 in0.0 mm
03:23 AM 41.4°F5.2°C 36.3°F2.4°C 82% 17.0 mph W27.4 kmh W 19.0 mph30.6 kmh 30.09 in1019.0 mb 0.00 in0.0 mm 0.00 in0.0 mm 0.00 in0.0 mm
03:22 AM 41.3°F5.2°C 36.2°F2.3°C 82% 15.0 mph W24.1 kmh W 19.0 mph30.6 kmh 30.10 in1019.3 mb 0.00 in0.0 mm 0.00 in0.0 mm 0.00 in0.0 mm
03:21 AM 41.3°F5.2°C 36.2°F2.3°C 82% 16.0 mph W25.7 kmh W 19.0 mph30.6 kmh 30.10 in1019.3 mb 0.00 in0.0 mm 0.00 in0.0 mm 0.00 in0.0 mm
03:20 AM 41.4°F5.2°C 36.3°F2.4°C 82% 17.0 mph W27.4 kmh W 20.0 mph32.2 kmh 30.10 in1019.3 mb 0.00 in0.0 mm 0.00 in0.0 mm 0.00 in0.0 mm
03:19 AM 41.4°F5.2°C 36.3°F2.4°C 82% 16.0 mph W25.7 kmh W 20.0 mph32.2 kmh 30.10 in1019.3 mb 0.00 in0.0 mm 0.00 in0.0 mm 0.00 in0.0 mm
03:18 AM 41.4°F5.2°C 36.3°F2.4°C 82% 16.0 mph WNW25.7 kmh WNW 18.0 mph29.0 kmh 30.10 in1019.3 mb 0.00 in0.0 mm 0.00 in0.0 mm 0.00 in0.0 mm
03:17 AM 41.4°F5.2°C 36.3°F2.4°C 82% 16.0 mph W25.7 kmh W 19.0 mph30.6 kmh 30.10 in1019.3 mb 0.00 in0.0 mm 0.00 in0.0 mm 0.00 in0.0 mm
03:16 AM 41.5°F5.3°C 36.7°F2.6°C 83% 15.0 mph WNW24.1 kmh WNW 18.0 mph29.0 kmh 30.10 in1019.3 mb 0.00 in0.0 mm 0.00 in0.0 mm 0.00 in0.0 mm
03:15 AM 41.5°F5.3°C 36.4°F2.4°C 82% 18.0 mph WNW29.0 kmh WNW 23.0 mph37.0 kmh 30.10 in1019.3 mb 0.00 in0.0 mm 0.00 in0.0 mm 0.00 in0.0 mm
03:14 AM 41.4°F5.2°C 36.3°F2.4°C 82% 16.0 mph W25.7 kmh W 23.0 mph37.0 kmh 30.10 in1019.3 mb 0.00 in0.0 mm 0.00 in0.0 mm 0.00 in0.0 mm
03:13 AM 41.5°F5.3°C 36.4°F2.4°C 82% 16.0 mph WNW25.7 kmh WNW 18.0 mph29.0 kmh 30.10 in1019.3 mb 0.00 in0.0 mm 0.00 in0.0 mm 0.00 in0.0 mm
03:12 AM 41.5°F5.3°C 36.4°F2.4°C 82% 17.0 mph W27.4 kmh W 20.0 mph32.2 kmh 30.10 in1019.3 mb 0.00 in0.0 mm 0.00 in0.0 mm 0.00 in0.0 mm
03:11 AM 41.5°F5.3°C 36.4°F2.4°C 82% 17.0 mph W27.4 kmh W 22.0 mph35.4 kmh 30.10 in1019.3 mb 0.00 in0.0 mm 0.00 in0.0 mm 0.00 in0.0 mm
03:10 AM 41.5°F5.3°C 36.4°F2.4°C 82% 20.0 mph WNW32.2 kmh WNW 25.0 mph40.2 kmh 30.10 in1019.3 mb 0.00 in0.0 mm 0.00 in0.0 mm 0.00 in0.0 mm
03:09 AM 41.5°F5.3°C 36.4°F2.4°C 82% 18.0 mph WNW29.0 kmh WNW 21.0 mph33.8 kmh 30.10 in1019.3 mb 0.00 in0.0 mm 0.00 in0.0 mm 0.00 in0.0 mm
03:08 AM 41.5°F5.3°C 36.4°F2.4°C 82% 19.0 mph WNW30.6 kmh WNW 23.0 mph37.0 kmh 30.10 in1019.3 mb 0.00 in0.0 mm 0.00 in0.0 mm 0.00 in0.0 mm
03:07 AM 41.5°F5.3°C 36.4°F2.4°C 82% 16.0 mph WNW25.7 kmh WNW 21.0 mph33.8 kmh 30.10 in1019.3 mb 0.00 in0.0 mm 0.00 in0.0 mm 0.00 in0.0 mm
03:06 AM 41.6°F5.3°C 36.5°F2.5°C 82% 18.0 mph WNW29.0 kmh WNW 22.0 mph35.4 kmh 30.10 in1019.3 mb 0.00 in0.0 mm 0.00 in0.0 mm 0.00 in0.0 mm
03:05 AM 41.5°F5.3°C 36.4°F2.4°C 82% 17.0 mph WNW27.4 kmh WNW 20.0 mph32.2 kmh 30.10 in1019.3 mb 0.00 in0.0 mm 0.00 in0.0 mm 0.00 in0.0 mm
03:04 AM 41.6°F5.3°C 36.5°F2.5°C 82% 16.0 mph WNW25.7 kmh WNW 18.0 mph29.0 kmh 30.10 in1019.3 mb 0.00 in0.0 mm 0.00 in0.0 mm 0.00 in0.0 mm
03:03 AM 41.6°F5.3°C 36.5°F2.5°C 82% 17.0 mph WNW27.4 kmh WNW 20.0 mph32.2 kmh 30.10 in1019.3 mb 0.00 in0.0 mm 0.00 in0.0 mm 0.00 in0.0 mm
03:02 AM 41.6°F5.3°C 36.5°F2.5°C 82% 17.0 mph WNW27.4 kmh WNW 21.0 mph33.8 kmh 30.11 in1019.6 mb 0.00 in0.0 mm 0.00 in0.0 mm 0.00 in0.0 mm
03:01 AM 41.6°F5.3°C 36.5°F2.5°C 82% 18.0 mph WNW29.0 kmh WNW 23.0 mph37.0 kmh 30.11 in1019.6 mb 0.00 in0.0 mm 0.00 in0.0 mm 0.00 in0.0 mm
03:00 AM 41.6°F5.3°C 36.5°F2.5°C 82% 15.0 mph WNW24.1 kmh WNW 18.0 mph29.0 kmh 30.11 in1019.6 mb 0.00 in0.0 mm 0.00 in0.0 mm 0.00 in0.0 mm
02:59 AM 41.6°F5.3°C 36.2°F2.3°C 81% 20.0 mph WNW32.2 kmh WNW 24.0 mph38.6 kmh 30.11 in1019.6 mb 0.00 in0.0 mm 0.00 in0.0 mm 0.00 in0.0 mm
02:58 AM 41.6°F5.3°C 36.5°F2.5°C 82% 20.0 mph WNW32.2 kmh WNW 25.0 mph40.2 kmh 30.11 in1019.6 mb 0.00 in0.0 mm 0.00 in0.0 mm 0.00 in0.0 mm
02:57 AM 41.5°F5.3°C 36.4°F2.4°C 82% 20.0 mph WNW32.2 kmh WNW 24.0 mph38.6 kmh 30.11 in1019.6 mb 0.00 in0.0 mm 0.00 in0.0 mm 0.00 in0.0 mm
02:56 AM 41.6°F5.3°C 36.5°F2.5°C 82% 17.0 mph WNW27.4 kmh WNW 20.0 mph32.2 kmh 30.11 in1019.6 mb 0.00 in0.0 mm 0.00 in0.0 mm 0.00 in0.0 mm
02:55 AM 41.6°F5.3°C 36.5°F2.5°C 82% 15.0 mph WNW24.1 kmh WNW 18.0 mph29.0 kmh 30.11 in1019.6 mb 0.00 in0.0 mm 0.00 in0.0 mm 0.00 in0.0 mm
02:54 AM 41.5°F5.3°C 36.4°F2.4°C 82% 18.0 mph WNW29.0 kmh WNW 21.0 mph33.8 kmh 30.11 in1019.6 mb 0.00 in0.0 mm 0.00 in0.0 mm 0.00 in0.0 mm
02:53 AM 41.5°F5.3°C 36.4°F2.4°C 82% 22.0 mph WNW35.4 kmh WNW 27.0 mph43.5 kmh 30.11 in1019.6 mb 0.00 in0.0 mm 0.00 in0.0 mm 0.00 in0.0 mm
02:52 AM 41.5°F5.3°C 36.4°F2.4°C 82% 17.0 mph WNW27.4 kmh WNW 21.0 mph33.8 kmh 30.11 in1019.6 mb 0.00 in0.0 mm 0.00 in0.0 mm 0.00 in0.0 mm
02:51 AM 41.5°F5.3°C 36.7°F2.6°C 83% 17.0 mph WNW27.4 kmh WNW 19.0 mph30.6 kmh 30.11 in1019.6 mb 0.00 in0.0 mm 0.00 in0.0 mm 0.00 in0.0 mm
02:50 AM 41.5°F5.3°C 36.4°F2.4°C 82% 14.0 mph WNW22.5 kmh WNW 18.0 mph29.0 kmh 30.11 in1019.6 mb 0.00 in0.0 mm 0.00 in0.0 mm 0.00 in0.0 mm
02:49 AM 41.5°F5.3°C 36.4°F2.4°C 82% 16.0 mph WNW25.7 kmh WNW 20.0 mph32.2 kmh 30.11 in1019.6 mb 0.00 in0.0 mm 0.00 in0.0 mm 0.00 in0.0 mm
02:48 AM 41.5°F5.3°C 36.4°F2.4°C 82% 18.0 mph WNW29.0 kmh WNW 20.0 mph32.2 kmh 30.11 in1019.6 mb 0.00 in0.0 mm 0.00 in0.0 mm 0.00 in0.0 mm
02:47 AM 41.5°F5.3°C 36.4°F2.4°C 82% 18.0 mph WNW29.0 kmh WNW 21.0 mph33.8 kmh 30.11 in1019.6 mb 0.00 in0.0 mm 0.00 in0.0 mm 0.00 in0.0 mm
02:46 AM 41.5°F5.3°C 36.4°F2.4°C 82% 18.0 mph WNW29.0 kmh WNW 22.0 mph35.4 kmh 30.11 in1019.6 mb 0.00 in0.0 mm 0.00 in0.0 mm 0.00 in0.0 mm
02:45 AM 41.5°F5.3°C 36.4°F2.4°C 82% 18.0 mph WNW29.0 kmh WNW 19.0 mph30.6 kmh 30.11 in1019.6 mb 0.00 in0.0 mm 0.00 in0.0 mm 0.00 in0.0 mm
02:44 AM 41.5°F5.3°C 36.1°F2.3°C 81% 18.0 mph WNW29.0 kmh WNW 22.0 mph35.4 kmh 30.11 in1019.6 mb 0.00 in0.0 mm 0.00 in0.0 mm 0.00 in0.0 mm
02:43 AM 41.5°F5.3°C 36.4°F2.4°C 82% 20.0 mph WNW32.2 kmh WNW 23.0 mph37.0 kmh 30.11 in1019.6 mb 0.00 in0.0 mm 0.00 in0.0 mm 0.00 in0.0 mm
02:42 AM 41.5°F5.3°C 36.1°F2.3°C 81% 17.0 mph WNW27.4 kmh WNW 19.0 mph30.6 kmh 30.11 in1019.6 mb 0.00 in0.0 mm 0.00 in0.0 mm 0.00 in0.0 mm
02:41 AM 41.5°F5.3°C 36.1°F2.3°C 81% 20.0 mph WNW32.2 kmh WNW 22.0 mph35.4 kmh 30.11 in1019.6 mb 0.00 in0.0 mm 0.00 in0.0 mm 0.00 in0.0 mm
02:40 AM 41.5°F5.3°C 36.4°F2.4°C 82% 21.0 mph WNW33.8 kmh WNW 26.0 mph41.8 kmh 30.11 in1019.6 mb 0.00 in0.0 mm 0.00 in0.0 mm 0.00 in0.0 mm
02:39 AM 41.5°F5.3°C 36.4°F2.4°C 82% 21.0 mph WNW33.8 kmh WNW 24.0 mph38.6 kmh 30.11 in1019.6 mb 0.00 in0.0 mm 0.00 in0.0 mm 0.00 in0.0 mm
02:38 AM 41.5°F5.3°C 36.4°F2.4°C 82% 18.0 mph WNW29.0 kmh WNW 24.0 mph38.6 kmh 30.11 in1019.6 mb 0.00 in0.0 mm 0.00 in0.0 mm 0.00 in0.0 mm
02:37 AM 41.4°F5.2°C 36.3°F2.4°C 82% 19.0 mph WNW30.6 kmh WNW 21.0 mph33.8 kmh 30.11 in1019.6 mb 0.00 in0.0 mm 0.00 in0.0 mm 0.00 in0.0 mm
02:36 AM 41.4°F5.2°C 36.3°F2.4°C 82% 17.0 mph WNW27.4 kmh WNW 21.0 mph33.8 kmh 30.11 in1019.6 mb 0.00 in0.0 mm 0.00 in0.0 mm 0.00 in0.0 mm
02:35 AM 41.5°F5.3°C 36.7°F2.6°C 83% 15.0 mph WNW24.1 kmh WNW 18.0 mph29.0 kmh 30.11 in1019.6 mb 0.00 in0.0 mm 0.00 in0.0 mm 0.00 in0.0 mm
02:34 AM 41.5°F5.3°C 36.7°F2.6°C 83% 16.0 mph WNW25.7 kmh WNW 19.0 mph30.6 kmh 30.11 in1019.6 mb 0.00 in0.0 mm 0.00 in0.0 mm 0.00 in0.0 mm
02:33 AM 41.5°F5.3°C 36.7°F2.6°C 83% 17.0 mph WNW27.4 kmh WNW 20.0 mph32.2 kmh 30.11 in1019.6 mb 0.00 in0.0 mm 0.00 in0.0 mm 0.00 in0.0 mm
02:32 AM 41.5°F5.3°C 36.7°F2.6°C 83% 16.0 mph WNW25.7 kmh WNW 20.0 mph32.2 kmh 30.11 in1019.6 mb 0.00 in0.0 mm 0.00 in0.0 mm 0.00 in0.0 mm
02:31 AM 41.5°F5.3°C 36.7°F2.6°C 83% 17.0 mph WNW27.4 kmh WNW 19.0 mph30.6 kmh 30.11 in1019.6 mb 0.00 in0.0 mm 0.00 in0.0 mm 0.00 in0.0 mm
02:30 AM 41.5°F5.3°C 36.7°F2.6°C 83% 20.0 mph WNW32.2 kmh WNW 24.0 mph38.6 kmh 30.11 in1019.6 mb 0.00 in0.0 mm 0.00 in0.0 mm 0.00 in0.0 mm
02:29 AM 41.4°F5.2°C 36.3°F2.4°C 82% 21.0 mph WNW33.8 kmh WNW 26.0 mph41.8 kmh 30.12 in1020.0 mb 0.00 in0.0 mm 0.00 in0.0 mm 0.00 in0.0 mm
02:28 AM 41.3°F5.2°C 36.5°F2.5°C 83% 19.0 mph WNW30.6 kmh WNW 24.0 mph38.6 kmh 30.12 in1020.0 mb 0.00 in0.0 mm 0.00 in0.0 mm 0.00 in0.0 mm
02:27 AM 41.3°F5.2°C 36.5°F2.5°C 83% 20.0 mph WNW32.2 kmh WNW 22.0 mph35.4 kmh 30.12 in1020.0 mb 0.00 in0.0 mm 0.00 in0.0 mm 0.00 in0.0 mm
02:26 AM 41.3°F5.2°C 36.5°F2.5°C 83% 18.0 mph WNW29.0 kmh WNW 20.0 mph32.2 kmh 30.12 in1020.0 mb 0.00 in0.0 mm 0.00 in0.0 mm 0.00 in0.0 mm
02:25 AM 41.3°F5.2°C 36.5°F2.5°C 83% 16.0 mph WNW25.7 kmh WNW 20.0 mph32.2 kmh 30.12 in1020.0 mb 0.00 in0.0 mm 0.00 in0.0 mm 0.00 in0.0 mm
02:24 AM 41.3°F5.2°C 36.5°F2.5°C 83% 17.0 mph WNW27.4 kmh WNW 19.0 mph30.6 kmh 30.11 in1019.6 mb 0.00 in0.0 mm 0.00 in0.0 mm 0.00 in0.0 mm
02:23 AM 41.3°F5.2°C 36.2°F2.3°C 82% 20.0 mph WNW32.2 kmh WNW 23.0 mph37.0 kmh 30.11 in1019.6 mb 0.00 in0.0 mm 0.00 in0.0 mm 0.00 in0.0 mm
02:22 AM 41.3°F5.2°C 36.5°F2.5°C 83% 19.0 mph WNW30.6 kmh WNW 24.0 mph38.6 kmh 30.12 in1020.0 mb 0.00 in0.0 mm 0.00 in0.0 mm 0.00 in0.0 mm
02:21 AM 41.2°F5.1°C 36.4°F2.4°C 83% 22.0 mph WNW35.4 kmh WNW 29.0 mph46.7 kmh 30.12 in1020.0 mb 0.00 in0.0 mm 0.00 in0.0 mm 0.00 in0.0 mm
02:20 AM 41.3°F5.2°C 36.5°F2.5°C 83% 22.0 mph WNW35.4 kmh WNW 25.0 mph40.2 kmh 30.11 in1019.6 mb 0.00 in0.0 mm 0.00 in0.0 mm 0.00 in0.0 mm
02:19 AM 41.2°F5.1°C 36.7°F2.6°C 84% 22.0 mph WNW35.4 kmh WNW 28.0 mph45.1 kmh 30.11 in1019.6 mb 0.00 in0.0 mm 0.00 in0.0 mm 0.00 in0.0 mm
02:18 AM 41.2°F5.1°C 36.7°F2.6°C 84% 19.0 mph WNW30.6 kmh WNW 23.0 mph37.0 kmh 30.11 in1019.6 mb 0.00 in0.0 mm 0.00 in0.0 mm 0.00 in0.0 mm
02:17 AM 41.2°F5.1°C 36.4°F2.4°C 83% 19.0 mph WNW30.6 kmh WNW 21.0 mph33.8 kmh 30.11 in1019.6 mb 0.00 in0.0 mm 0.00 in0.0 mm 0.00 in0.0 mm
02:16 AM 41.2°F5.1°C 36.7°F2.6°C 84% 17.0 mph WNW27.4 kmh WNW 20.0 mph32.2 kmh 30.11 in1019.6 mb 0.00 in0.0 mm 0.00 in0.0 mm 0.00 in0.0 mm
02:15 AM 41.2°F5.1°C 36.4°F2.4°C 83% 16.0 mph WNW25.7 kmh WNW 20.0 mph32.2 kmh 30.11 in1019.6 mb 0.00 in0.0 mm 0.00 in0.0 mm 0.00 in0.0 mm
02:14 AM 41.2°F5.1°C 36.4°F2.4°C 83% 20.0 mph WNW32.2 kmh WNW 23.0 mph37.0 kmh 30.11 in1019.6 mb 0.00 in0.0 mm 0.00 in0.0 mm 0.00 in0.0 mm
02:13 AM 41.2°F5.1°C 36.4°F2.4°C 83% 19.0 mph WNW30.6 kmh WNW 22.0 mph35.4 kmh 30.11 in1019.6 mb 0.00 in0.0 mm 0.00 in0.0 mm 0.00 in0.0 mm
02:12 AM 41.2°F5.1°C 36.4°F2.4°C 83% 19.0 mph WNW30.6 kmh WNW 24.0 mph38.6 kmh 30.11 in1019.6 mb 0.00 in0.0 mm 0.00 in0.0 mm 0.00 in0.0 mm
02:11 AM 41.2°F5.1°C 36.7°F2.6°C 84% 18.0 mph WNW29.0 kmh WNW 23.0 mph37.0 kmh 30.11 in1019.6 mb 0.00 in0.0 mm 0.00 in0.0 mm 0.00 in0.0 mm
02:10 AM 41.2°F5.1°C 36.7°F2.6°C 84% 17.0 mph WNW27.4 kmh WNW 20.0 mph32.2 kmh 30.11 in1019.6 mb 0.00 in0.0 mm 0.00 in0.0 mm 0.00 in0.0 mm
02:09 AM 41.2°F5.1°C 36.4°F2.4°C 83% 17.0 mph WNW27.4 kmh WNW 19.0 mph30.6 kmh 30.11 in1019.6 mb 0.00 in0.0 mm 0.00 in0.0 mm 0.00 in0.0 mm
02:08 AM 41.2°F5.1°C 36.4°F2.4°C 83% 21.0 mph WNW33.8 kmh WNW 24.0 mph38.6 kmh 30.11 in1019.6 mb 0.00 in0.0 mm 0.00 in0.0 mm 0.00 in0.0 mm
02:07 AM 41.2°F5.1°C 36.7°F2.6°C 84% 19.0 mph WNW30.6 kmh WNW 22.0 mph35.4 kmh 30.11 in1019.6 mb 0.00 in0.0 mm 0.00 in0.0 mm 0.00 in0.0 mm
02:06 AM 41.2°F5.1°C 36.7°F2.6°C 84% 18.0 mph WNW29.0 kmh WNW 20.0 mph32.2 kmh 30.11 in1019.6 mb 0.00 in0.0 mm 0.00 in0.0 mm 0.00 in0.0 mm
02:05 AM 41.2°F5.1°C 36.7°F2.6°C 84% 19.0 mph WNW30.6 kmh WNW 21.0 mph33.8 kmh 30.11 in1019.6 mb 0.00 in0.0 mm 0.00 in0.0 mm 0.00 in0.0 mm
02:04 AM 41.1°F5.1°C 36.6°F2.6°C 84% 20.0 mph WNW32.2 kmh WNW 23.0 mph37.0 kmh 30.11 in1019.6 mb 0.00 in0.0 mm 0.00 in0.0 mm 0.00 in0.0 mm
02:03 AM 41.2°F5.1°C 36.7°F2.6°C 84% 20.0 mph WNW32.2 kmh WNW 24.0 mph38.6 kmh 30.11 in1019.6 mb 0.00 in0.0 mm 0.00 in0.0 mm 0.00 in0.0 mm
02:02 AM 41.1°F5.1°C 36.6°F2.6°C 84% 17.0 mph WNW27.4 kmh WNW 21.0 mph33.8 kmh 30.11 in1019.6 mb 0.00 in0.0 mm 0.00 in0.0 mm 0.00 in0.0 mm
02:01 AM 41.2°F5.1°C 36.7°F2.6°C 84% 19.0 mph WNW30.6 kmh WNW 21.0 mph33.8 kmh 30.11 in1019.6 mb 0.00 in0.0 mm 0.00 in0.0 mm 0.00 in0.0 mm
02:00 AM 41.1°F5.1°C 36.6°F2.6°C 84% 18.0 mph WNW29.0 kmh WNW 22.0 mph35.4 kmh 30.11 in1019.6 mb 0.00 in0.0 mm 0.00 in0.0 mm 0.00 in0.0 mm
01:59 AM 41.1°F5.1°C 36.6°F2.6°C 84% 17.0 mph WNW27.4 kmh WNW 20.0 mph32.2 kmh 30.11 in1019.6 mb 0.00 in0.0 mm 0.00 in0.0 mm 0.00 in0.0 mm
01:58 AM 41.2°F5.1°C 37.0°F2.8°C 85% 19.0 mph WNW30.6 kmh WNW 21.0 mph33.8 kmh 30.11 in1019.6 mb 0.00 in0.0 mm 0.00 in0.0 mm 0.00 in0.0 mm
01:57 AM 41.1°F5.1°C 36.9°F2.7°C 85% 19.0 mph WNW30.6 kmh WNW 21.0 mph33.8 kmh 30.11 in1019.6 mb 0.00 in0.0 mm 0.00 in0.0 mm 0.00 in0.0 mm
01:56 AM 41.2°F5.1°C 36.7°F2.6°C 84% 20.0 mph WNW32.2 kmh WNW 22.0 mph35.4 kmh 30.11 in1019.6 mb 0.00 in0.0 mm 0.00 in0.0 mm 0.00 in0.0 mm
01:55 AM 41.1°F5.1°C 36.9°F2.7°C 85% 19.0 mph WNW30.6 kmh WNW 23.0 mph37.0 kmh 30.11 in1019.6 mb 0.00 in0.0 mm 0.00 in0.0 mm 0.00 in0.0 mm
01:54 AM 41.1°F5.1°C 36.9°F2.7°C 85% 19.0 mph WNW30.6 kmh WNW 22.0 mph35.4 kmh 30.11 in1019.6 mb 0.00 in0.0 mm 0.00 in0.0 mm 0.00 in0.0 mm
01:53 AM 41.1°F5.1°C 36.9°F2.7°C 85% 19.0 mph WNW30.6 kmh WNW 23.0 mph37.0 kmh 30.11 in1019.6 mb 0.00 in0.0 mm 0.00 in0.0 mm 0.00 in0.0 mm
01:52 AM 41.1°F5.1°C 36.9°F2.7°C 85% 20.0 mph WNW32.2 kmh WNW 23.0 mph37.0 kmh 30.11 in1019.6 mb 0.00 in0.0 mm 0.00 in0.0 mm 0.00 in0.0 mm
01:51 AM 41.1°F5.1°C 36.9°F2.7°C 85% 20.0 mph WNW32.2 kmh WNW 23.0 mph37.0 kmh 30.11 in1019.6 mb 0.00 in0.0 mm 0.00 in0.0 mm 0.00 in0.0 mm
01:50 AM 41.1°F5.1°C 36.9°F2.7°C 85% 20.0 mph WNW32.2 kmh WNW 23.0 mph37.0 kmh 30.11 in1019.6 mb 0.00 in0.0 mm 0.00 in0.0 mm 0.00 in0.0 mm
01:49 AM 41.1°F5.1°C 36.9°F2.7°C 85% 18.0 mph WNW29.0 kmh WNW 22.0 mph35.4 kmh 30.11 in1019.6 mb 0.00 in0.0 mm 0.00 in0.0 mm 0.00 in0.0 mm
01:48 AM 41.1°F5.1°C 36.9°F2.7°C 85% 19.0 mph WNW30.6 kmh WNW 24.0 mph38.6 kmh 30.11 in1019.6 mb 0.00 in0.0 mm 0.00 in0.0 mm 0.00 in0.0 mm
01:47 AM 41.1°F5.1°C 36.9°F2.7°C 85% 18.0 mph WNW29.0 kmh WNW 20.0 mph32.2 kmh 30.11 in1019.6 mb 0.00 in0.0 mm 0.00 in0.0 mm 0.00 in0.0 mm
01:46 AM 41.1°F5.1°C 36.9°F2.7°C 85% 21.0 mph WNW33.8 kmh WNW 24.0 mph38.6 kmh 30.11 in1019.6 mb 0.00 in0.0 mm 0.00 in0.0 mm 0.00 in0.0 mm
01:45 AM 41.1°F5.1°C 36.9°F2.7°C 85% 20.0 mph WNW32.2 kmh WNW 24.0 mph38.6 kmh 30.11 in1019.6 mb 0.00 in0.0 mm 0.00 in0.0 mm 0.00 in0.0 mm
01:44 AM 41.0°F5.0°C 36.8°F2.7°C 85% 21.0 mph WNW33.8 kmh WNW 27.0 mph43.5 kmh 30.12 in1020.0 mb 0.00 in0.0 mm 0.00 in0.0 mm 0.00 in0.0 mm
01:43 AM 41.1°F5.1°C 36.6°F2.6°C 84% 19.0 mph WNW30.6 kmh WNW 22.0 mph35.4 kmh 30.12 in1020.0 mb 0.00 in0.0 mm 0.00 in0.0 mm 0.00 in0.0 mm
01:42 AM 41.0°F5.0°C 36.8°F2.7°C 85% 20.0 mph WNW32.2 kmh WNW 24.0 mph38.6 kmh 30.12 in1020.0 mb 0.00 in0.0 mm 0.00 in0.0 mm 0.00 in0.0 mm
01:41 AM 41.0°F5.0°C 36.8°F2.7°C 85% 19.0 mph WNW30.6 kmh WNW 22.0 mph35.4 kmh 30.12 in1020.0 mb 0.00 in0.0 mm 0.00 in0.0 mm 0.00 in0.0 mm
01:40 AM 41.0°F5.0°C 36.8°F2.7°C 85% 20.0 mph WNW32.2 kmh WNW 22.0 mph35.4 kmh 30.12 in1020.0 mb 0.00 in0.0 mm 0.00 in0.0 mm 0.00 in0.0 mm
01:39 AM 41.0°F5.0°C 36.8°F2.7°C 85% 21.0 mph WNW33.8 kmh WNW 24.0 mph38.6 kmh 30.12 in1020.0 mb 0.00 in0.0 mm 0.00 in0.0 mm 0.00 in0.0 mm
01:38 AM 41.0°F5.0°C 36.5°F2.5°C 84% 18.0 mph WNW29.0 kmh WNW 20.0 mph32.2 kmh 30.12 in1020.0 mb 0.00 in0.0 mm 0.00 in0.0 mm 0.00 in0.0 mm
01:37 AM 41.0°F5.0°C 36.5°F2.5°C 84% 22.0 mph WNW35.4 kmh WNW 25.0 mph40.2 kmh 30.12 in1020.0 mb 0.00 in0.0 mm 0.00 in0.0 mm 0.00 in0.0 mm
01:36 AM 41.0°F5.0°C 36.5°F2.5°C 84% 20.0 mph WNW32.2 kmh WNW 22.0 mph35.4 kmh 30.12 in1020.0 mb 0.00 in0.0 mm 0.00 in0.0 mm 0.00 in0.0 mm
01:35 AM 41.0°F5.0°C 36.5°F2.5°C 84% 21.0 mph WNW33.8 kmh WNW 24.0 mph38.6 kmh 30.12 in1020.0 mb 0.00 in0.0 mm 0.00 in0.0 mm 0.00 in0.0 mm
01:34 AM 41.0°F5.0°C 36.8°F2.7°C 85% 21.0 mph WNW33.8 kmh WNW 24.0 mph38.6 kmh 30.12 in1020.0 mb 0.00 in0.0 mm 0.00 in0.0 mm 0.00 in0.0 mm
01:33 AM 41.0°F5.0°C 36.5°F2.5°C 84% 18.0 mph WNW29.0 kmh WNW 22.0 mph35.4 kmh 30.12 in1020.0 mb 0.00 in0.0 mm 0.00 in0.0 mm 0.00 in0.0 mm
01:32 AM 41.0°F5.0°C 36.5°F2.5°C 84% 19.0 mph WNW30.6 kmh WNW 21.0 mph33.8 kmh 30.12 in1020.0 mb 0.00 in0.0 mm 0.00 in0.0 mm 0.00 in0.0 mm
01:31 AM 41.0°F5.0°C 36.8°F2.7°C 85% 20.0 mph WNW32.2 kmh WNW 22.0 mph35.4 kmh 30.12 in1020.0 mb 0.00 in0.0 mm 0.00 in0.0 mm 0.00 in0.0 mm
01:30 AM 41.0°F5.0°C 36.8°F2.7°C 85% 17.0 mph WNW27.4 kmh WNW 21.0 mph33.8 kmh 30.12 in1020.0 mb 0.00 in0.0 mm 0.00 in0.0 mm 0.00 in0.0 mm
01:29 AM 41.0°F5.0°C 36.8°F2.7°C 85% 20.0 mph WNW32.2 kmh WNW 24.0 mph38.6 kmh 30.12 in1020.0 mb 0.00 in0.0 mm 0.00 in0.0 mm 0.00 in0.0 mm
01:28 AM 41.0°F5.0°C 36.8°F2.7°C 85% 18.0 mph WNW29.0 kmh WNW 21.0 mph33.8 kmh 30.12 in1020.0 mb 0.00 in0.0 mm 0.00 in0.0 mm 0.00 in0.0 mm
01:27 AM 41.0°F5.0°C 36.5°F2.5°C 84% 18.0 mph WNW29.0 kmh WNW 21.0 mph33.8 kmh 30.12 in1020.0 mb 0.00 in0.0 mm 0.00 in0.0 mm 0.00 in0.0 mm
01:26 AM 41.0°F5.0°C 36.5°F2.5°C 84% 17.0 mph WNW27.4 kmh WNW 20.0 mph32.2 kmh 30.12 in1020.0 mb 0.00 in0.0 mm 0.00 in0.0 mm 0.00 in0.0 mm
01:25 AM 41.0°F5.0°C 36.5°F2.5°C 84% 17.0 mph WNW27.4 kmh WNW 20.0 mph32.2 kmh 30.12 in1020.0 mb 0.00 in0.0 mm 0.00 in0.0 mm 0.00 in0.0 mm
01:24 AM 41.0°F5.0°C 36.5°F2.5°C 84% 18.0 mph WNW29.0 kmh WNW 21.0 mph33.8 kmh 30.12 in1020.0 mb 0.00 in0.0 mm 0.00 in0.0 mm 0.00 in0.0 mm
01:23 AM 40.9°F4.9°C 36.4°F2.4°C 84% 19.0 mph WNW30.6 kmh WNW 25.0 mph40.2 kmh 30.12 in1020.0 mb 0.00 in0.0 mm 0.00 in0.0 mm 0.00 in0.0 mm
01:22 AM 41.0°F5.0°C 36.5°F2.5°C 84% 15.0 mph WNW24.1 kmh WNW 18.0 mph29.0 kmh 30.12 in1020.0 mb 0.00 in0.0 mm 0.00 in0.0 mm 0.00 in0.0 mm
01:21 AM 40.9°F4.9°C 36.4°F2.4°C 84% 18.0 mph WNW29.0 kmh WNW 23.0 mph37.0 kmh 30.12 in1020.0 mb 0.00 in0.0 mm 0.00 in0.0 mm 0.00 in0.0 mm
01:20 AM 40.9°F4.9°C 36.4°F2.4°C 84% 18.0 mph WNW29.0 kmh WNW 23.0 mph37.0 kmh 30.12 in1020.0 mb 0.00 in0.0 mm 0.00 in0.0 mm 0.00 in0.0 mm
01:19 AM 40.9°F4.9°C 36.4°F2.4°C 84% 17.0 mph WNW27.4 kmh WNW 20.0 mph32.2 kmh 30.12 in1020.0 mb 0.00 in0.0 mm 0.00 in0.0 mm 0.00 in0.0 mm
01:18 AM 40.9°F4.9°C 36.4°F2.4°C 84% 19.0 mph WNW30.6 kmh WNW 21.0 mph33.8 kmh 30.12 in1020.0 mb 0.00 in0.0 mm 0.00 in0.0 mm 0.00 in0.0 mm
01:17 AM 40.9°F4.9°C 36.4°F2.4°C 84% 17.0 mph WNW27.4 kmh WNW 19.0 mph30.6 kmh 30.12 in1020.0 mb 0.00 in0.0 mm 0.00 in0.0 mm 0.00 in0.0 mm
01:16 AM 40.9°F4.9°C 36.4°F2.4°C 84% 18.0 mph WNW29.0 kmh WNW 20.0 mph32.2 kmh 30.12 in1020.0 mb 0.00 in0.0 mm 0.00 in0.0 mm 0.00 in0.0 mm
01:15 AM 40.9°F4.9°C 36.4°F2.4°C 84% 18.0 mph WNW29.0 kmh WNW 20.0 mph32.2 kmh 30.12 in1020.0 mb 0.00 in0.0 mm 0.00 in0.0 mm 0.00 in0.0 mm
01:14 AM 40.9°F4.9°C 36.4°F2.4°C 84% 17.0 mph WNW27.4 kmh WNW 22.0 mph35.4 kmh 30.12 in1020.0 mb 0.00 in0.0 mm 0.00 in0.0 mm 0.00 in0.0 mm
01:13 AM 40.9°F4.9°C 36.4°F2.4°C 84% 17.0 mph WNW27.4 kmh WNW 19.0 mph30.6 kmh 30.12 in1020.0 mb 0.00 in0.0 mm 0.00 in0.0 mm 0.00 in0.0 mm
01:12 AM 40.9°F4.9°C 36.4°F2.4°C 84% 18.0 mph WNW29.0 kmh WNW 21.0 mph33.8 kmh 30.12 in1020.0 mb 0.00 in0.0 mm 0.00 in0.0 mm 0.00 in0.0 mm
01:11 AM 40.9°F4.9°C 36.4°F2.4°C 84% 19.0 mph WNW30.6 kmh WNW 21.0 mph33.8 kmh 30.12 in1020.0 mb 0.00 in0.0 mm 0.00 in0.0 mm 0.00 in0.0 mm
01:10 AM 40.9°F4.9°C 36.4°F2.4°C 84% 17.0 mph WNW27.4 kmh WNW 19.0 mph30.6 kmh 30.12 in1020.0 mb 0.00 in0.0 mm 0.00 in0.0 mm 0.00 in0.0 mm
01:09 AM 41.0°F5.0°C 36.5°F2.5°C 84% 18.0 mph WNW29.0 kmh WNW 20.0 mph32.2 kmh 30.12 in1020.0 mb 0.00 in0.0 mm 0.00 in0.0 mm 0.00 in0.0 mm
01:08 AM 41.0°F5.0°C 36.5°F2.5°C 84% 20.0 mph WNW32.2 kmh WNW 24.0 mph38.6 kmh 30.12 in1020.0 mb 0.00 in0.0 mm 0.00 in0.0 mm 0.00 in0.0 mm
01:07 AM 41.0°F5.0°C 36.5°F2.5°C 84% 21.0 mph WNW33.8 kmh WNW 25.0 mph40.2 kmh 30.12 in1020.0 mb 0.00 in0.0 mm 0.00 in0.0 mm 0.00 in0.0 mm
01:06 AM 41.0°F5.0°C 36.5°F2.5°C 84% 17.0 mph WNW27.4 kmh WNW 20.0 mph32.2 kmh 30.12 in1020.0 mb 0.00 in0.0 mm 0.00 in0.0 mm 0.00 in0.0 mm
01:05 AM 41.0°F5.0°C 36.5°F2.5°C 84% 20.0 mph WNW32.2 kmh WNW 22.0 mph35.4 kmh 30.12 in1020.0 mb 0.00 in0.0 mm 0.00 in0.0 mm 0.00 in0.0 mm
01:04 AM 40.9°F4.9°C 36.4°F2.4°C 84% 20.0 mph WNW32.2 kmh WNW 23.0 mph37.0 kmh 30.12 in1020.0 mb 0.00 in0.0 mm 0.00 in0.0 mm 0.00 in0.0 mm
01:03 AM 40.9°F4.9°C 36.4°F2.4°C 84% 21.0 mph WNW33.8 kmh WNW 24.0 mph38.6 kmh 30.12 in1020.0 mb 0.00 in0.0 mm 0.00 in0.0 mm 0.00 in0.0 mm
01:02 AM 41.0°F5.0°C 36.5°F2.5°C 84% 19.0 mph WNW30.6 kmh WNW 22.0 mph35.4 kmh 30.12 in1020.0 mb 0.00 in0.0 mm 0.00 in0.0 mm 0.00 in0.0 mm
01:01 AM 41.0°F5.0°C 36.5°F2.5°C 84% 19.0 mph WNW30.6 kmh WNW 21.0 mph33.8 kmh 30.12 in1020.0 mb 0.00 in0.0 mm 0.00 in0.0 mm 0.00 in0.0 mm
01:00 AM 41.0°F5.0°C 36.5°F2.5°C 84% 18.0 mph WNW29.0 kmh WNW 21.0 mph33.8 kmh 30.12 in1020.0 mb 0.00 in0.0 mm 0.00 in0.0 mm 0.00 in0.0 mm
12:59 AM 41.0°F5.0°C 36.5°F2.5°C 84% 19.0 mph WNW30.6 kmh WNW 23.0 mph37.0 kmh 30.12 in1020.0 mb 0.00 in0.0 mm 0.00 in0.0 mm 0.00 in0.0 mm
12:58 AM 41.0°F5.0°C 36.5°F2.5°C 84% 20.0 mph WNW32.2 kmh WNW 23.0 mph37.0 kmh 30.12 in1020.0 mb 0.00 in0.0 mm 0.00 in0.0 mm 0.00 in0.0 mm
12:57 AM 41.0°F5.0°C 36.2°F2.3°C 83% 20.0 mph WNW32.2 kmh WNW 23.0 mph37.0 kmh 30.12 in1020.0 mb 0.00 in0.0 mm 0.00 in0.0 mm 0.00 in0.0 mm
12:56 AM 41.0°F5.0°C 36.2°F2.3°C 83% 19.0 mph WNW30.6 kmh WNW 22.0 mph35.4 kmh 30.12 in1020.0 mb 0.00 in0.0 mm 0.00 in0.0 mm 0.00 in0.0 mm
12:55 AM 41.0°F5.0°C 36.2°F2.3°C 83% 20.0 mph WNW32.2 kmh WNW 23.0 mph37.0 kmh 30.12 in1020.0 mb 0.00 in0.0 mm 0.00 in0.0 mm 0.00 in0.0 mm
12:54 AM 41.1°F5.1°C 36.3°F2.4°C 83% 20.0 mph WNW32.2 kmh WNW 23.0 mph37.0 kmh 30.12 in1020.0 mb 0.00 in0.0 mm 0.00 in0.0 mm 0.00 in0.0 mm
12:53 AM 41.1°F5.1°C 36.3°F2.4°C 83% 20.0 mph WNW32.2 kmh WNW 23.0 mph37.0 kmh 30.12 in1020.0 mb 0.00 in0.0 mm 0.00 in0.0 mm 0.00 in0.0 mm
12:52 AM 41.1°F5.1°C 36.3°F2.4°C 83% 19.0 mph WNW30.6 kmh WNW 21.0 mph33.8 kmh 30.12 in1020.0 mb 0.00 in0.0 mm 0.00 in0.0 mm 0.00 in0.0 mm
12:51 AM 41.1°F5.1°C 36.3°F2.4°C 83% 19.0 mph WNW30.6 kmh WNW 23.0 mph37.0 kmh 30.12 in1020.0 mb 0.00 in0.0 mm 0.00 in0.0 mm 0.00 in0.0 mm
12:50 AM 41.1°F5.1°C 36.3°F2.4°C 83% 21.0 mph WNW33.8 kmh WNW 23.0 mph37.0 kmh 30.12 in1020.0 mb 0.00 in0.0 mm 0.00 in0.0 mm 0.00 in0.0 mm
12:49 AM 41.1°F5.1°C 36.3°F2.4°C 83% 22.0 mph WNW35.4 kmh WNW 24.0 mph38.6 kmh 30.12 in1020.0 mb 0.00 in0.0 mm 0.00 in0.0 mm 0.00 in0.0 mm
12:48 AM 41.1°F5.1°C 36.3°F2.4°C 83% 20.0 mph WNW32.2 kmh WNW 23.0 mph37.0 kmh 30.12 in1020.0 mb 0.00 in0.0 mm 0.00 in0.0 mm 0.00 in0.0 mm
12:47 AM 41.1°F5.1°C 36.3°F2.4°C 83% 19.0 mph WNW30.6 kmh WNW 22.0 mph35.4 kmh 30.12 in1020.0 mb 0.00 in0.0 mm 0.00 in0.0 mm 0.00 in0.0 mm
12:46 AM 41.2°F5.1°C 36.4°F2.4°C 83% 22.0 mph WNW35.4 kmh WNW 24.0 mph38.6 kmh 30.12 in1020.0 mb 0.00 in0.0 mm 0.00 in0.0 mm 0.00 in0.0 mm
12:45 AM 41.2°F5.1°C 36.4°F2.4°C 83% 22.0 mph WNW35.4 kmh WNW 30.0 mph48.3 kmh 30.12 in1020.0 mb 0.00 in0.0 mm 0.00 in0.0 mm 0.00 in0.0 mm
12:44 AM 41.2°F5.1°C 36.4°F2.4°C 83% 22.0 mph WNW35.4 kmh WNW 25.0 mph40.2 kmh 30.12 in1020.0 mb 0.00 in0.0 mm 0.00 in0.0 mm 0.00 in0.0 mm
12:43 AM 41.3°F5.2°C 36.5°F2.5°C 83% 23.0 mph WNW37.0 kmh WNW 29.0 mph46.7 kmh 30.12 in1020.0 mb 0.00 in0.0 mm 0.00 in0.0 mm 0.00 in0.0 mm
12:42 AM 41.2°F5.1°C 36.4°F2.4°C 83% 22.0 mph WNW35.4 kmh WNW 24.0 mph38.6 kmh 30.12 in1020.0 mb 0.00 in0.0 mm 0.00 in0.0 mm 0.00 in0.0 mm
12:41 AM 41.2°F5.1°C 36.4°F2.4°C 83% 23.0 mph WNW37.0 kmh WNW 25.0 mph40.2 kmh 30.12 in1020.0 mb 0.00 in0.0 mm 0.00 in0.0 mm 0.00 in0.0 mm
12:40 AM 41.3°F5.2°C 36.5°F2.5°C 83% 22.0 mph WNW35.4 kmh WNW 28.0 mph45.1 kmh 30.12 in1020.0 mb 0.00 in0.0 mm 0.00 in0.0 mm 0.00 in0.0 mm
12:39 AM 41.2°F5.1°C 36.4°F2.4°C 83% 23.0 mph WNW37.0 kmh WNW 26.0 mph41.8 kmh 30.12 in1020.0 mb 0.00 in0.0 mm 0.00 in0.0 mm 0.00 in0.0 mm
12:38 AM 41.2°F5.1°C 36.4°F2.4°C 83% 22.0 mph WNW35.4 kmh WNW 25.0 mph40.2 kmh 30.12 in1020.0 mb 0.00 in0.0 mm 0.00 in0.0 mm 0.00 in0.0 mm
12:37 AM 41.1°F5.1°C 36.3°F2.4°C 83% 21.0 mph WNW33.8 kmh WNW 24.0 mph38.6 kmh 30.12 in1020.0 mb 0.00 in0.0 mm 0.00 in0.0 mm 0.00 in0.0 mm
12:36 AM 41.1°F5.1°C 36.3°F2.4°C 83% 20.0 mph WNW32.2 kmh WNW 22.0 mph35.4 kmh 30.12 in1020.0 mb 0.00 in0.0 mm 0.00 in0.0 mm 0.00 in0.0 mm
12:35 AM 41.1°F5.1°C 36.3°F2.4°C 83% 19.0 mph WNW30.6 kmh WNW 24.0 mph38.6 kmh 30.12 in1020.0 mb 0.00 in0.0 mm 0.00 in0.0 mm 0.00 in0.0 mm
12:34 AM 41.1°F5.1°C 36.3°F2.4°C 83% 19.0 mph WNW30.6 kmh WNW 21.0 mph33.8 kmh 30.12 in1020.0 mb 0.00 in0.0 mm 0.00 in0.0 mm 0.00 in0.0 mm
12:33 AM 41.1°F5.1°C 36.3°F2.4°C 83% 20.0 mph NW32.2 kmh NW 23.0 mph37.0 kmh 30.12 in1020.0 mb 0.00 in0.0 mm 0.00 in0.0 mm 0.00 in0.0 mm
12:32 AM 41.1°F5.1°C 36.3°F2.4°C 83% 20.0 mph WNW32.2 kmh WNW 23.0 mph37.0 kmh 30.12 in1020.0 mb 0.00 in0.0 mm 0.00 in0.0 mm 0.00 in0.0 mm
12:31 AM 41.2°F5.1°C 36.4°F2.4°C 83% 21.0 mph WNW33.8 kmh WNW 24.0 mph38.6 kmh 30.12 in1020.0 mb 0.00 in0.0 mm 0.00 in0.0 mm 0.00 in0.0 mm
12:30 AM 41.3°F5.2°C 36.5°F2.5°C 83% 22.0 mph WNW35.4 kmh WNW 25.0 mph40.2 kmh 30.12 in1020.0 mb 0.00 in0.0 mm 0.00 in0.0 mm 0.00 in0.0 mm
12:29 AM 41.3°F5.2°C 36.2°F2.3°C 82% 22.0 mph WNW35.4 kmh WNW 24.0 mph38.6 kmh 30.12 in1020.0 mb 0.00 in0.0 mm 0.00 in0.0 mm 0.00 in0.0 mm
12:28 AM 41.2°F5.1°C 36.4°F2.4°C 83% 22.0 mph WNW35.4 kmh WNW 24.0 mph38.6 kmh 30.12 in1020.0 mb 0.00 in0.0 mm 0.00 in0.0 mm 0.00 in0.0 mm
12:27 AM 41.3°F5.2°C 36.2°F2.3°C 82% 21.0 mph WNW33.8 kmh WNW 25.0 mph40.2 kmh 30.12 in1020.0 mb 0.00 in0.0 mm 0.00 in0.0 mm 0.00 in0.0 mm
12:26 AM 41.3°F5.2°C 36.5°F2.5°C 83% 23.0 mph WNW37.0 kmh WNW 29.0 mph46.7 kmh 30.12 in1020.0 mb 0.00 in0.0 mm 0.00 in0.0 mm 0.00 in0.0 mm
12:25 AM 41.3°F5.2°C 36.2°F2.3°C 82% 23.0 mph WNW37.0 kmh WNW 28.0 mph45.1 kmh 30.12 in1020.0 mb 0.00 in0.0 mm 0.00 in0.0 mm 0.00 in0.0 mm
12:24 AM 41.3°F5.2°C 36.2°F2.3°C 82% 22.0 mph WNW35.4 kmh WNW 27.0 mph43.5 kmh 30.12 in1020.0 mb 0.00 in0.0 mm 0.00 in0.0 mm 0.00 in0.0 mm
12:23 AM 41.3°F5.2°C 36.2°F2.3°C 82% 19.0 mph WNW30.6 kmh WNW 26.0 mph41.8 kmh 30.12 in1020.0 mb 0.00 in0.0 mm 0.00 in0.0 mm 0.00 in0.0 mm
12:22 AM 41.3°F5.2°C 36.2°F2.3°C 82% 21.0 mph WNW33.8 kmh WNW 24.0 mph38.6 kmh 30.12 in1020.0 mb 0.00 in0.0 mm 0.00 in0.0 mm 0.00 in0.0 mm
12:21 AM 41.3°F5.2°C 36.2°F2.3°C 82% 20.0 mph WNW32.2 kmh WNW 23.0 mph37.0 kmh 30.12 in1020.0 mb 0.00 in0.0 mm 0.00 in0.0 mm 0.00 in0.0 mm
12:20 AM 41.3°F5.2°C 36.2°F2.3°C 82% 19.0 mph WNW30.6 kmh WNW 22.0 mph35.4 kmh 30.12 in1020.0 mb 0.00 in0.0 mm 0.00 in0.0 mm 0.00 in0.0 mm
12:19 AM 41.3°F5.2°C 36.2°F2.3°C 82% 19.0 mph WNW30.6 kmh WNW 22.0 mph35.4 kmh 30.12 in1020.0 mb 0.00 in0.0 mm 0.00 in0.0 mm 0.00 in0.0 mm
12:18 AM 41.4°F5.2°C 36.3°F2.4°C 82% 19.0 mph WNW30.6 kmh WNW 21.0 mph33.8 kmh 30.12 in1020.0 mb 0.00 in0.0 mm 0.00 in0.0 mm 0.00 in0.0 mm
12:17 AM 41.5°F5.3°C 36.4°F2.4°C 82% 19.0 mph WNW30.6 kmh WNW 22.0 mph35.4 kmh 30.12 in1020.0 mb 0.00 in0.0 mm 0.00 in0.0 mm 0.00 in0.0 mm
12:16 AM 41.5°F5.3°C 36.4°F2.4°C 82% 21.0 mph WNW33.8 kmh WNW 24.0 mph38.6 kmh 30.12 in1020.0 mb 0.00 in0.0 mm 0.00 in0.0 mm 0.00 in0.0 mm
12:15 AM 41.5°F5.3°C 36.1°F2.3°C 81% 23.0 mph WNW37.0 kmh WNW 26.0 mph41.8 kmh 30.12 in1020.0 mb 0.00 in0.0 mm 0.00 in0.0 mm 0.00 in0.0 mm
12:14 AM 41.5°F5.3°C 36.4°F2.4°C 82% 23.0 mph WNW37.0 kmh WNW 27.0 mph43.5 kmh 30.12 in1020.0 mb 0.00 in0.0 mm 0.00 in0.0 mm 0.00 in0.0 mm
12:13 AM 41.5°F5.3°C 36.4°F2.4°C 82% 20.0 mph WNW32.2 kmh WNW 23.0 mph37.0 kmh 30.12 in1020.0 mb 0.00 in0.0 mm 0.00 in0.0 mm 0.00 in0.0 mm
12:12 AM 41.5°F5.3°C 36.1°F2.3°C 81% 20.0 mph NW32.2 kmh NW 22.0 mph35.4 kmh 30.12 in1020.0 mb 0.00 in0.0 mm 0.00 in0.0 mm 0.00 in0.0 mm
12:11 AM 41.5°F5.3°C 36.1°F2.3°C 81% 22.0 mph WNW35.4 kmh WNW 24.0 mph38.6 kmh 30.12 in1020.0 mb 0.00 in0.0 mm 0.00 in0.0 mm 0.00 in0.0 mm
12:10 AM 41.6°F5.3°C 36.2°F2.3°C 81% 22.0 mph WNW35.4 kmh WNW 26.0 mph41.8 kmh 30.12 in1020.0 mb 0.00 in0.0 mm 0.00 in0.0 mm 0.00 in0.0 mm
12:09 AM 41.6°F5.3°C 36.2°F2.3°C 81% 21.0 mph WNW33.8 kmh WNW 23.0 mph37.0 kmh 30.12 in1020.0 mb 0.00 in0.0 mm 0.00 in0.0 mm 0.00 in0.0 mm
12:08 AM 41.6°F5.3°C 36.2°F2.3°C 81% 22.0 mph WNW35.4 kmh WNW 24.0 mph38.6 kmh 30.12 in1020.0 mb 0.00 in0.0 mm 0.00 in0.0 mm 0.00 in0.0 mm
12:07 AM 41.6°F5.3°C 36.2°F2.3°C 81% 22.0 mph WNW35.4 kmh WNW 25.0 mph40.2 kmh 30.12 in1020.0 mb 0.00 in0.0 mm 0.00 in0.0 mm 0.00 in0.0 mm
12:06 AM 41.6°F5.3°C 35.9°F2.2°C 80% 19.0 mph WNW30.6 kmh WNW 23.0 mph37.0 kmh 30.12 in1020.0 mb 0.00 in0.0 mm 0.00 in0.0 mm 0.00 in0.0 mm
12:05 AM 41.5°F5.3°C 35.8°F2.1°C 80% 21.0 mph WNW33.8 kmh WNW 24.0 mph38.6 kmh 30.12 in1020.0 mb 0.00 in0.0 mm 0.00 in0.0 mm 0.00 in0.0 mm
12:04 AM 41.6°F5.3°C 35.9°F2.2°C 80% 23.0 mph WNW37.0 kmh WNW 26.0 mph41.8 kmh 30.12 in1020.0 mb 0.00 in0.0 mm 0.00 in0.0 mm 0.00 in0.0 mm
12:03 AM 41.6°F5.3°C 35.9°F2.2°C 80% 23.0 mph WNW37.0 kmh WNW 25.0 mph40.2 kmh 30.12 in1020.0 mb 0.00 in0.0 mm 0.00 in0.0 mm 0.00 in0.0 mm
12:02 AM 41.6°F5.3°C 35.9°F2.2°C 80% 21.0 mph WNW33.8 kmh WNW 24.0 mph38.6 kmh 30.12 in1020.0 mb 0.00 in0.0 mm 0.00 in0.0 mm 0.00 in0.0 mm
12:01 AM 41.6°F5.3°C 35.6°F2.0°C 79% 23.0 mph WNW37.0 kmh WNW 26.0 mph41.8 kmh 30.12 in1020.0 mb 0.00 in0.0 mm 0.00 in0.0 mm 0.00 in0.0 mm
12:00 AM 41.7°F5.4°C 36.0°F2.2°C 80% 21.0 mph WNW33.8 kmh WNW 27.0 mph43.5 kmh 30.12 in1020.0 mb 0.00 in0.0 mm 0.00 in0.0 mm 0.02 in0.5 mm